<?xml version="1.0" encoding="UTF-8" standalone="no" ?>
<gpx xmlns="http://www.topografix.com/GPX/1/1" xmlns:xsi="http://www.w3.org/2001/XMLSchema-instance" xsi:schemaLocation="http://www.topografix.com/GPX/1/1 http://www.topografix.com/GPX/1/1/gpx.xsd" version="1.1" creator="VisuGPX - https://www.visugpx.com">
  <metadata>
    <name>Gorges de baudinard</name>
    <desc><![CDATA[Le tour des gorges de Baudinard, les moyennes gorges du Verdon.
Passage par la chapelle de Baudinard.  Les charbonnières, le pont de Montpezat.
Toujours les superbes paysages du Verdon.]]></desc>
  </metadata>
  <trk>
    <name><![CDATA[Tracé actuel: 27 OCT 2022 09:34]]></name>
    <extensions>
      <line xmlns="http://www.topografix.com/GPX/gpx_style/0/2">
        <color>0000FF</color>
        <width>4</width>
      </line>
    </extensions>
    <trkseg>
      <trkpt lat="43.73882" lon="6.13946">
        <ele>503.2</ele>
        <time>2022-10-27T07:35:12Z</time>
      </trkpt>
      <trkpt lat="43.73879" lon="6.13931">
        <ele>505</ele>
        <time>2022-10-27T07:35:22Z</time>
      </trkpt>
      <trkpt lat="43.73874" lon="6.13921">
        <ele>505.3</ele>
        <time>2022-10-27T07:35:33Z</time>
      </trkpt>
      <trkpt lat="43.73864" lon="6.13922">
        <ele>501.8</ele>
        <time>2022-10-27T07:35:51Z</time>
      </trkpt>
      <trkpt lat="43.73859" lon="6.13918">
        <ele>500.7</ele>
        <time>2022-10-27T07:37:40Z</time>
      </trkpt>
      <trkpt lat="43.73855" lon="6.13921">
        <ele>498.2</ele>
        <time>2022-10-27T07:37:44.313Z</time>
      </trkpt>
      <trkpt lat="43.73848" lon="6.13922">
        <ele>494.7</ele>
        <time>2022-10-27T07:37:50Z</time>
      </trkpt>
      <trkpt lat="43.73839" lon="6.13925">
        <ele>489.9</ele>
        <time>2022-10-27T07:38:00Z</time>
      </trkpt>
      <trkpt lat="43.73829" lon="6.13932">
        <ele>484.1</ele>
        <time>2022-10-27T07:38:09Z</time>
      </trkpt>
      <trkpt lat="43.7382" lon="6.13934">
        <ele>480.5</ele>
        <time>2022-10-27T07:38:22Z</time>
      </trkpt>
      <trkpt lat="43.73813" lon="6.13938">
        <ele>477.7</ele>
        <time>2022-10-27T07:38:36Z</time>
      </trkpt>
      <trkpt lat="43.7381" lon="6.1394">
        <ele>476.6</ele>
        <time>2022-10-27T07:38:58Z</time>
      </trkpt>
      <trkpt lat="43.73804" lon="6.13938">
        <ele>475.2</ele>
        <time>2022-10-27T07:39:10Z</time>
      </trkpt>
      <trkpt lat="43.73791" lon="6.13943">
        <ele>475</ele>
        <time>2022-10-27T07:39:26Z</time>
      </trkpt>
      <trkpt lat="43.7378" lon="6.1395">
        <ele>475</ele>
        <time>2022-10-27T07:39:44Z</time>
      </trkpt>
      <trkpt lat="43.73769" lon="6.13955">
        <ele>475</ele>
        <time>2022-10-27T07:39:53Z</time>
      </trkpt>
      <trkpt lat="43.73761" lon="6.13962">
        <ele>475</ele>
        <time>2022-10-27T07:40:06Z</time>
      </trkpt>
      <trkpt lat="43.73751" lon="6.13965">
        <ele>475</ele>
        <time>2022-10-27T07:40:14Z</time>
      </trkpt>
      <trkpt lat="43.73741" lon="6.13967">
        <ele>475</ele>
        <time>2022-10-27T07:40:23Z</time>
      </trkpt>
      <trkpt lat="43.73732" lon="6.13971">
        <ele>475</ele>
        <time>2022-10-27T07:40:31Z</time>
      </trkpt>
      <trkpt lat="43.73723" lon="6.13973">
        <ele>475</ele>
        <time>2022-10-27T07:40:39Z</time>
      </trkpt>
      <trkpt lat="43.73712" lon="6.13977">
        <ele>475</ele>
        <time>2022-10-27T07:40:48Z</time>
      </trkpt>
      <trkpt lat="43.73703" lon="6.13982">
        <ele>475</ele>
        <time>2022-10-27T07:40:56Z</time>
      </trkpt>
      <trkpt lat="43.73696" lon="6.13989">
        <ele>475</ele>
        <time>2022-10-27T07:41:06Z</time>
      </trkpt>
      <trkpt lat="43.73687" lon="6.13993">
        <ele>475.6</ele>
        <time>2022-10-27T07:41:18Z</time>
      </trkpt>
      <trkpt lat="43.73678" lon="6.13996">
        <ele>476.5</ele>
        <time>2022-10-27T07:41:26Z</time>
      </trkpt>
      <trkpt lat="43.7367" lon="6.13999">
        <ele>477.5</ele>
        <time>2022-10-27T07:41:34Z</time>
      </trkpt>
      <trkpt lat="43.7366" lon="6.14002">
        <ele>481.6</ele>
        <time>2022-10-27T07:41:42Z</time>
      </trkpt>
      <trkpt lat="43.73649" lon="6.14006">
        <ele>487.5</ele>
        <time>2022-10-27T07:41:50Z</time>
      </trkpt>
      <trkpt lat="43.7364" lon="6.14011">
        <ele>492.4</ele>
        <time>2022-10-27T07:42:06Z</time>
      </trkpt>
      <trkpt lat="43.73631" lon="6.14015">
        <ele>496.3</ele>
        <time>2022-10-27T07:42:14Z</time>
      </trkpt>
      <trkpt lat="43.7362" lon="6.14014">
        <ele>500.8</ele>
        <time>2022-10-27T07:42:22Z</time>
      </trkpt>
      <trkpt lat="43.7361" lon="6.14009">
        <ele>505.3</ele>
        <time>2022-10-27T07:42:30Z</time>
      </trkpt>
      <trkpt lat="43.73605" lon="6.13998">
        <ele>508.3</ele>
        <time>2022-10-27T07:42:40Z</time>
      </trkpt>
      <trkpt lat="43.73609" lon="6.13994">
        <ele>506.3</ele>
        <time>2022-10-27T07:42:41.429Z</time>
      </trkpt>
      <trkpt lat="43.73611" lon="6.13995">
        <ele>505.2</ele>
        <time>2022-10-27T07:42:42.154Z</time>
      </trkpt>
      <trkpt lat="43.73614" lon="6.13994">
        <ele>503.9</ele>
        <time>2022-10-27T07:42:43.037Z</time>
      </trkpt>
      <trkpt lat="43.7361" lon="6.13991">
        <ele>505.9</ele>
        <time>2022-10-27T07:42:44.499Z</time>
      </trkpt>
      <trkpt lat="43.73603" lon="6.13991">
        <ele>509.4</ele>
        <time>2022-10-27T07:42:46.376Z</time>
      </trkpt>
      <trkpt lat="43.73604" lon="6.13987">
        <ele>508.9</ele>
        <time>2022-10-27T07:42:47.163Z</time>
      </trkpt>
      <trkpt lat="43.73601" lon="6.13985">
        <ele>510.4</ele>
        <time>2022-10-27T07:42:48.056Z</time>
      </trkpt>
      <trkpt lat="43.736" lon="6.13981">
        <ele>510.9</ele>
        <time>2022-10-27T07:42:49Z</time>
      </trkpt>
      <trkpt lat="43.73596" lon="6.13966">
        <ele>511</ele>
        <time>2022-10-27T07:42:59Z</time>
      </trkpt>
      <trkpt lat="43.73592" lon="6.13951">
        <ele>508.9</ele>
        <time>2022-10-27T07:43:08Z</time>
      </trkpt>
      <trkpt lat="43.7359" lon="6.13938">
        <ele>508.2</ele>
        <time>2022-10-27T07:43:19Z</time>
      </trkpt>
      <trkpt lat="43.73589" lon="6.13921">
        <ele>508.9</ele>
        <time>2022-10-27T07:43:30Z</time>
      </trkpt>
      <trkpt lat="43.7359" lon="6.13906">
        <ele>508.4</ele>
        <time>2022-10-27T07:43:41Z</time>
      </trkpt>
      <trkpt lat="43.7359" lon="6.13891">
        <ele>508.4</ele>
        <time>2022-10-27T07:43:51Z</time>
      </trkpt>
      <trkpt lat="43.73587" lon="6.13872">
        <ele>509.5</ele>
        <time>2022-10-27T07:44:02Z</time>
      </trkpt>
      <trkpt lat="43.73585" lon="6.13856">
        <ele>510.6</ele>
        <time>2022-10-27T07:44:13Z</time>
      </trkpt>
      <trkpt lat="43.73583" lon="6.13841">
        <ele>511.5</ele>
        <time>2022-10-27T07:44:23Z</time>
      </trkpt>
      <trkpt lat="43.73581" lon="6.13824">
        <ele>512</ele>
        <time>2022-10-27T07:44:33Z</time>
      </trkpt>
      <trkpt lat="43.73578" lon="6.1381">
        <ele>513.2</ele>
        <time>2022-10-27T07:44:43Z</time>
      </trkpt>
      <trkpt lat="43.73577" lon="6.13794">
        <ele>513.6</ele>
        <time>2022-10-27T07:44:53Z</time>
      </trkpt>
      <trkpt lat="43.73577" lon="6.13776">
        <ele>513.8</ele>
        <time>2022-10-27T07:45:03Z</time>
      </trkpt>
      <trkpt lat="43.73574" lon="6.1376">
        <ele>516.7</ele>
        <time>2022-10-27T07:45:13Z</time>
      </trkpt>
      <trkpt lat="43.73575" lon="6.13745">
        <ele>517.1</ele>
        <time>2022-10-27T07:45:23Z</time>
      </trkpt>
      <trkpt lat="43.73574" lon="6.13728">
        <ele>518.7</ele>
        <time>2022-10-27T07:45:33Z</time>
      </trkpt>
      <trkpt lat="43.73574" lon="6.13713">
        <ele>519.3</ele>
        <time>2022-10-27T07:45:42Z</time>
      </trkpt>
      <trkpt lat="43.73576" lon="6.13701">
        <ele>518.7</ele>
        <time>2022-10-27T07:45:51Z</time>
      </trkpt>
      <trkpt lat="43.73577" lon="6.13701">
        <ele>518.3</ele>
        <time>2022-10-27T07:46:05Z</time>
      </trkpt>
      <trkpt lat="43.73582" lon="6.13701">
        <ele>516.1</ele>
        <time>2022-10-27T07:47:43Z</time>
      </trkpt>
      <trkpt lat="43.73577" lon="6.13695">
        <ele>518.5</ele>
        <time>2022-10-27T07:48:54Z</time>
      </trkpt>
      <trkpt lat="43.73575" lon="6.13687">
        <ele>517.4</ele>
        <time>2022-10-27T07:49:17Z</time>
      </trkpt>
      <trkpt lat="43.73568" lon="6.13682">
        <ele>518.4</ele>
        <time>2022-10-27T07:49:41Z</time>
      </trkpt>
      <trkpt lat="43.73558" lon="6.13677">
        <ele>520</ele>
        <time>2022-10-27T07:49:51Z</time>
      </trkpt>
      <trkpt lat="43.73548" lon="6.13669">
        <ele>520.8</ele>
        <time>2022-10-27T07:50:02Z</time>
      </trkpt>
      <trkpt lat="43.73539" lon="6.13661">
        <ele>521.2</ele>
        <time>2022-10-27T07:50:12Z</time>
      </trkpt>
      <trkpt lat="43.73531" lon="6.13654">
        <ele>522</ele>
        <time>2022-10-27T07:50:20Z</time>
      </trkpt>
      <trkpt lat="43.73523" lon="6.13646">
        <ele>522.5</ele>
        <time>2022-10-27T07:50:28Z</time>
      </trkpt>
      <trkpt lat="43.73516" lon="6.13638">
        <ele>522.3</ele>
        <time>2022-10-27T07:50:36Z</time>
      </trkpt>
      <trkpt lat="43.73508" lon="6.1363">
        <ele>522.1</ele>
        <time>2022-10-27T07:50:45Z</time>
      </trkpt>
      <trkpt lat="43.73497" lon="6.13626">
        <ele>524</ele>
        <time>2022-10-27T07:50:53Z</time>
      </trkpt>
      <trkpt lat="43.73488" lon="6.13624">
        <ele>524.7</ele>
        <time>2022-10-27T07:51:03Z</time>
      </trkpt>
      <trkpt lat="43.73477" lon="6.13621">
        <ele>525.4</ele>
        <time>2022-10-27T07:51:12Z</time>
      </trkpt>
      <trkpt lat="43.73461" lon="6.13615">
        <ele>525.9</ele>
        <time>2022-10-27T07:51:23Z</time>
      </trkpt>
      <trkpt lat="43.7345" lon="6.1361">
        <ele>526.1</ele>
        <time>2022-10-27T07:51:32Z</time>
      </trkpt>
      <trkpt lat="43.73444" lon="6.13602">
        <ele>528.5</ele>
        <time>2022-10-27T07:51:47Z</time>
      </trkpt>
      <trkpt lat="43.73435" lon="6.13608">
        <ele>530.7</ele>
        <time>2022-10-27T07:52:03Z</time>
      </trkpt>
      <trkpt lat="43.73427" lon="6.13613">
        <ele>533.5</ele>
        <time>2022-10-27T07:52:21Z</time>
      </trkpt>
      <trkpt lat="43.73418" lon="6.13612">
        <ele>535.9</ele>
        <time>2022-10-27T07:52:38Z</time>
      </trkpt>
      <trkpt lat="43.73409" lon="6.13607">
        <ele>538.6</ele>
        <time>2022-10-27T07:52:53Z</time>
      </trkpt>
      <trkpt lat="43.73397" lon="6.136">
        <ele>541.6</ele>
        <time>2022-10-27T07:53:05Z</time>
      </trkpt>
      <trkpt lat="43.73392" lon="6.13603">
        <ele>541.5</ele>
        <time>2022-10-27T07:53:23Z</time>
      </trkpt>
      <trkpt lat="43.73388" lon="6.13614">
        <ele>542.2</ele>
        <time>2022-10-27T07:53:47Z</time>
      </trkpt>
      <trkpt lat="43.73384" lon="6.13622">
        <ele>545.1</ele>
        <time>2022-10-27T07:54:41Z</time>
      </trkpt>
      <trkpt lat="43.73377" lon="6.13618">
        <ele>545.4</ele>
        <time>2022-10-27T07:54:58Z</time>
      </trkpt>
      <trkpt lat="43.73366" lon="6.13621">
        <ele>547.3</ele>
        <time>2022-10-27T07:55:14Z</time>
      </trkpt>
      <trkpt lat="43.73359" lon="6.13628">
        <ele>548.5</ele>
        <time>2022-10-27T07:55:33Z</time>
      </trkpt>
      <trkpt lat="43.73356" lon="6.13647">
        <ele>549.6</ele>
        <time>2022-10-27T07:55:47Z</time>
      </trkpt>
      <trkpt lat="43.73354" lon="6.13666">
        <ele>551.5</ele>
        <time>2022-10-27T07:56:00Z</time>
      </trkpt>
      <trkpt lat="43.73351" lon="6.13678">
        <ele>553.6</ele>
        <time>2022-10-27T07:56:14Z</time>
      </trkpt>
      <trkpt lat="43.73351" lon="6.1369">
        <ele>555</ele>
        <time>2022-10-27T07:56:36Z</time>
      </trkpt>
      <trkpt lat="43.73359" lon="6.13696">
        <ele>557.1</ele>
        <time>2022-10-27T07:56:55Z</time>
      </trkpt>
      <trkpt lat="43.7337" lon="6.13696">
        <ele>561.9</ele>
        <time>2022-10-27T07:57:17Z</time>
      </trkpt>
      <trkpt lat="43.73372" lon="6.13696">
        <ele>563</ele>
        <time>2022-10-27T07:58:11Z</time>
      </trkpt>
      <trkpt lat="43.73374" lon="6.13703">
        <ele>566.1</ele>
        <time>2022-10-27T07:58:34Z</time>
      </trkpt>
      <trkpt lat="43.73382" lon="6.13702">
        <ele>569.9</ele>
        <time>2022-10-27T07:58:53Z</time>
      </trkpt>
      <trkpt lat="43.73388" lon="6.13701">
        <ele>572.7</ele>
        <time>2022-10-27T07:59:15Z</time>
      </trkpt>
      <trkpt lat="43.73393" lon="6.137">
        <ele>573.4</ele>
        <time>2022-10-27T07:59:39Z</time>
      </trkpt>
      <trkpt lat="43.73402" lon="6.13699">
        <ele>574.3</ele>
        <time>2022-10-27T07:59:54Z</time>
      </trkpt>
      <trkpt lat="43.73409" lon="6.13704">
        <ele>576.7</ele>
        <time>2022-10-27T08:00:07Z</time>
      </trkpt>
      <trkpt lat="43.73415" lon="6.13713">
        <ele>580.1</ele>
        <time>2022-10-27T08:00:28Z</time>
      </trkpt>
      <trkpt lat="43.73425" lon="6.13719">
        <ele>580.5</ele>
        <time>2022-10-27T08:00:54Z</time>
      </trkpt>
      <trkpt lat="43.73428" lon="6.13728">
        <ele>581.6</ele>
        <time>2022-10-27T08:01:13Z</time>
      </trkpt>
      <trkpt lat="43.7343" lon="6.13737">
        <ele>582.2</ele>
        <time>2022-10-27T08:02:26Z</time>
      </trkpt>
      <trkpt lat="43.73429" lon="6.13751">
        <ele>583.9</ele>
        <time>2022-10-27T08:02:41Z</time>
      </trkpt>
      <trkpt lat="43.73421" lon="6.13748">
        <ele>585.6</ele>
        <time>2022-10-27T08:02:58Z</time>
      </trkpt>
      <trkpt lat="43.73415" lon="6.13742">
        <ele>585.7</ele>
        <time>2022-10-27T08:03:16Z</time>
      </trkpt>
      <trkpt lat="43.73412" lon="6.13755">
        <ele>586.8</ele>
        <time>2022-10-27T08:03:28Z</time>
      </trkpt>
      <trkpt lat="43.73411" lon="6.13769">
        <ele>587.3</ele>
        <time>2022-10-27T08:03:38Z</time>
      </trkpt>
      <trkpt lat="43.73411" lon="6.13782">
        <ele>587.7</ele>
        <time>2022-10-27T08:03:49Z</time>
      </trkpt>
      <trkpt lat="43.73412" lon="6.13795">
        <ele>587.8</ele>
        <time>2022-10-27T08:03:59Z</time>
      </trkpt>
      <trkpt lat="43.73411" lon="6.13809">
        <ele>588.4</ele>
        <time>2022-10-27T08:04:08Z</time>
      </trkpt>
      <trkpt lat="43.73416" lon="6.13824">
        <ele>587.8</ele>
        <time>2022-10-27T08:04:19Z</time>
      </trkpt>
      <trkpt lat="43.73419" lon="6.13838">
        <ele>587.3</ele>
        <time>2022-10-27T08:04:30Z</time>
      </trkpt>
      <trkpt lat="43.73422" lon="6.1385">
        <ele>586.7</ele>
        <time>2022-10-27T08:04:49Z</time>
      </trkpt>
      <trkpt lat="43.73417" lon="6.13858">
        <ele>588.8</ele>
        <time>2022-10-27T08:05:13Z</time>
      </trkpt>
      <trkpt lat="43.73409" lon="6.13864">
        <ele>591.3</ele>
        <time>2022-10-27T08:05:27Z</time>
      </trkpt>
      <trkpt lat="43.73398" lon="6.13869">
        <ele>594.7</ele>
        <time>2022-10-27T08:05:45Z</time>
      </trkpt>
      <trkpt lat="43.73389" lon="6.13875">
        <ele>597.5</ele>
        <time>2022-10-27T08:06:00Z</time>
      </trkpt>
      <trkpt lat="43.7338" lon="6.13881">
        <ele>599.5</ele>
        <time>2022-10-27T08:06:14Z</time>
      </trkpt>
      <trkpt lat="43.73372" lon="6.13886">
        <ele>601.5</ele>
        <time>2022-10-27T08:06:30Z</time>
      </trkpt>
      <trkpt lat="43.73364" lon="6.13892">
        <ele>603.5</ele>
        <time>2022-10-27T08:06:44Z</time>
      </trkpt>
      <trkpt lat="43.73357" lon="6.13886">
        <ele>604.4</ele>
        <time>2022-10-27T08:06:57Z</time>
      </trkpt>
      <trkpt lat="43.73347" lon="6.13888">
        <ele>605.9</ele>
        <time>2022-10-27T08:07:09Z</time>
      </trkpt>
      <trkpt lat="43.73341" lon="6.13882">
        <ele>606</ele>
        <time>2022-10-27T08:09:04Z</time>
      </trkpt>
      <trkpt lat="43.73332" lon="6.13883">
        <ele>607.2</ele>
        <time>2022-10-27T08:09:14Z</time>
      </trkpt>
      <trkpt lat="43.73322" lon="6.13881">
        <ele>607.6</ele>
        <time>2022-10-27T08:09:23Z</time>
      </trkpt>
      <trkpt lat="43.73313" lon="6.13881">
        <ele>608.1</ele>
        <time>2022-10-27T08:09:31Z</time>
      </trkpt>
      <trkpt lat="43.73303" lon="6.1388">
        <ele>608.5</ele>
        <time>2022-10-27T08:09:40Z</time>
      </trkpt>
      <trkpt lat="43.73294" lon="6.1388">
        <ele>609</ele>
        <time>2022-10-27T08:09:49Z</time>
      </trkpt>
      <trkpt lat="43.73283" lon="6.13878">
        <ele>609</ele>
        <time>2022-10-27T08:10:01Z</time>
      </trkpt>
      <trkpt lat="43.73274" lon="6.13878">
        <ele>609.3</ele>
        <time>2022-10-27T08:10:13Z</time>
      </trkpt>
      <trkpt lat="43.73262" lon="6.13881">
        <ele>610.4</ele>
        <time>2022-10-27T08:10:25Z</time>
      </trkpt>
      <trkpt lat="43.73249" lon="6.13892">
        <ele>613.6</ele>
        <time>2022-10-27T08:10:41Z</time>
      </trkpt>
      <trkpt lat="43.73238" lon="6.13901">
        <ele>615.6</ele>
        <time>2022-10-27T08:10:54Z</time>
      </trkpt>
      <trkpt lat="43.73231" lon="6.13911">
        <ele>617.7</ele>
        <time>2022-10-27T08:11:05Z</time>
      </trkpt>
      <trkpt lat="43.73221" lon="6.13918">
        <ele>619.1</ele>
        <time>2022-10-27T08:11:17Z</time>
      </trkpt>
      <trkpt lat="43.73212" lon="6.13922">
        <ele>619.5</ele>
        <time>2022-10-27T08:11:28Z</time>
      </trkpt>
      <trkpt lat="43.73204" lon="6.13924">
        <ele>619.6</ele>
        <time>2022-10-27T08:14:09Z</time>
      </trkpt>
      <trkpt lat="43.73204" lon="6.13923">
        <ele>619.5</ele>
        <time>2022-10-27T08:15:05Z</time>
      </trkpt>
      <trkpt lat="43.73198" lon="6.13934">
        <ele>620.3</ele>
        <time>2022-10-27T08:15:21Z</time>
      </trkpt>
      <trkpt lat="43.73188" lon="6.13935">
        <ele>620.5</ele>
        <time>2022-10-27T08:15:32Z</time>
      </trkpt>
      <trkpt lat="43.73178" lon="6.13932">
        <ele>620.6</ele>
        <time>2022-10-27T08:15:42Z</time>
      </trkpt>
      <trkpt lat="43.73169" lon="6.13929">
        <ele>620.9</ele>
        <time>2022-10-27T08:15:52Z</time>
      </trkpt>
      <trkpt lat="43.7316" lon="6.13927">
        <ele>621.5</ele>
        <time>2022-10-27T08:16:03Z</time>
      </trkpt>
      <trkpt lat="43.73151" lon="6.13926">
        <ele>622.1</ele>
        <time>2022-10-27T08:16:12Z</time>
      </trkpt>
      <trkpt lat="43.73142" lon="6.13926">
        <ele>622.8</ele>
        <time>2022-10-27T08:16:21Z</time>
      </trkpt>
      <trkpt lat="43.73132" lon="6.13928">
        <ele>623.6</ele>
        <time>2022-10-27T08:16:31Z</time>
      </trkpt>
      <trkpt lat="43.73122" lon="6.13928">
        <ele>624.6</ele>
        <time>2022-10-27T08:16:42Z</time>
      </trkpt>
      <trkpt lat="43.73111" lon="6.13927">
        <ele>625.6</ele>
        <time>2022-10-27T08:16:52Z</time>
      </trkpt>
      <trkpt lat="43.73102" lon="6.13924">
        <ele>626.7</ele>
        <time>2022-10-27T08:17:02Z</time>
      </trkpt>
      <trkpt lat="43.73092" lon="6.13921">
        <ele>627.9</ele>
        <time>2022-10-27T08:17:15Z</time>
      </trkpt>
      <trkpt lat="43.73079" lon="6.13914">
        <ele>629.1</ele>
        <time>2022-10-27T08:17:26Z</time>
      </trkpt>
      <trkpt lat="43.73068" lon="6.13912">
        <ele>629.8</ele>
        <time>2022-10-27T08:17:35Z</time>
      </trkpt>
      <trkpt lat="43.73058" lon="6.13913">
        <ele>630.6</ele>
        <time>2022-10-27T08:17:45Z</time>
      </trkpt>
      <trkpt lat="43.73049" lon="6.13913">
        <ele>631.2</ele>
        <time>2022-10-27T08:17:54Z</time>
      </trkpt>
      <trkpt lat="43.73039" lon="6.13913">
        <ele>632</ele>
        <time>2022-10-27T08:18:03Z</time>
      </trkpt>
      <trkpt lat="43.73029" lon="6.13913">
        <ele>632.8</ele>
        <time>2022-10-27T08:18:12Z</time>
      </trkpt>
      <trkpt lat="43.73018" lon="6.13913">
        <ele>633.7</ele>
        <time>2022-10-27T08:18:22Z</time>
      </trkpt>
      <trkpt lat="43.73009" lon="6.13912">
        <ele>634.4</ele>
        <time>2022-10-27T08:18:33Z</time>
      </trkpt>
      <trkpt lat="43.72997" lon="6.1391">
        <ele>635.6</ele>
        <time>2022-10-27T08:18:44Z</time>
      </trkpt>
      <trkpt lat="43.72986" lon="6.1391">
        <ele>636.9</ele>
        <time>2022-10-27T08:18:54Z</time>
      </trkpt>
      <trkpt lat="43.72976" lon="6.1391">
        <ele>638</ele>
        <time>2022-10-27T08:19:05Z</time>
      </trkpt>
      <trkpt lat="43.72964" lon="6.13909">
        <ele>639.8</ele>
        <time>2022-10-27T08:19:17Z</time>
      </trkpt>
      <trkpt lat="43.72955" lon="6.13906">
        <ele>641.5</ele>
        <time>2022-10-27T08:19:29Z</time>
      </trkpt>
      <trkpt lat="43.72943" lon="6.13906">
        <ele>643.4</ele>
        <time>2022-10-27T08:19:41Z</time>
      </trkpt>
      <trkpt lat="43.72935" lon="6.139">
        <ele>645.2</ele>
        <time>2022-10-27T08:19:53Z</time>
      </trkpt>
      <trkpt lat="43.72932" lon="6.13889">
        <ele>646.8</ele>
        <time>2022-10-27T08:20:04Z</time>
      </trkpt>
      <trkpt lat="43.72931" lon="6.13874">
        <ele>647.7</ele>
        <time>2022-10-27T08:20:15Z</time>
      </trkpt>
      <trkpt lat="43.72928" lon="6.13861">
        <ele>649</ele>
        <time>2022-10-27T08:20:26Z</time>
      </trkpt>
      <trkpt lat="43.72921" lon="6.13851">
        <ele>650.2</ele>
        <time>2022-10-27T08:20:37Z</time>
      </trkpt>
      <trkpt lat="43.72913" lon="6.13841">
        <ele>651.6</ele>
        <time>2022-10-27T08:20:50Z</time>
      </trkpt>
      <trkpt lat="43.72905" lon="6.13833">
        <ele>653.1</ele>
        <time>2022-10-27T08:21:04Z</time>
      </trkpt>
      <trkpt lat="43.72897" lon="6.13832">
        <ele>654.5</ele>
        <time>2022-10-27T08:21:47Z</time>
      </trkpt>
      <trkpt lat="43.72888" lon="6.13834">
        <ele>656.1</ele>
        <time>2022-10-27T08:21:58Z</time>
      </trkpt>
      <trkpt lat="43.72878" lon="6.13838">
        <ele>657.3</ele>
        <time>2022-10-27T08:22:11Z</time>
      </trkpt>
      <trkpt lat="43.72868" lon="6.13839">
        <ele>658.7</ele>
        <time>2022-10-27T08:22:22Z</time>
      </trkpt>
      <trkpt lat="43.72858" lon="6.13839">
        <ele>659.9</ele>
        <time>2022-10-27T08:22:32Z</time>
      </trkpt>
      <trkpt lat="43.7285" lon="6.13838">
        <ele>660.9</ele>
        <time>2022-10-27T08:22:43Z</time>
      </trkpt>
      <trkpt lat="43.72847" lon="6.13827">
        <ele>661.9</ele>
        <time>2022-10-27T08:22:54Z</time>
      </trkpt>
      <trkpt lat="43.72848" lon="6.13815">
        <ele>662.4</ele>
        <time>2022-10-27T08:23:04Z</time>
      </trkpt>
      <trkpt lat="43.72852" lon="6.13804">
        <ele>662.4</ele>
        <time>2022-10-27T08:23:12Z</time>
      </trkpt>
      <trkpt lat="43.72851" lon="6.13791">
        <ele>663</ele>
        <time>2022-10-27T08:23:23Z</time>
      </trkpt>
      <trkpt lat="43.72845" lon="6.13782">
        <ele>664.2</ele>
        <time>2022-10-27T08:23:34Z</time>
      </trkpt>
      <trkpt lat="43.72833" lon="6.13778">
        <ele>666</ele>
        <time>2022-10-27T08:23:47Z</time>
      </trkpt>
      <trkpt lat="43.72823" lon="6.13779">
        <ele>667.4</ele>
        <time>2022-10-27T08:23:58Z</time>
      </trkpt>
      <trkpt lat="43.72814" lon="6.13778">
        <ele>668.8</ele>
        <time>2022-10-27T08:24:08Z</time>
      </trkpt>
      <trkpt lat="43.72806" lon="6.13779">
        <ele>669.8</ele>
        <time>2022-10-27T08:24:19Z</time>
      </trkpt>
      <trkpt lat="43.72797" lon="6.13778">
        <ele>671.2</ele>
        <time>2022-10-27T08:24:30Z</time>
      </trkpt>
      <trkpt lat="43.72784" lon="6.1378">
        <ele>672.9</ele>
        <time>2022-10-27T08:24:42Z</time>
      </trkpt>
      <trkpt lat="43.72773" lon="6.13782">
        <ele>674.2</ele>
        <time>2022-10-27T08:24:52Z</time>
      </trkpt>
      <trkpt lat="43.72761" lon="6.13785">
        <ele>675.3</ele>
        <time>2022-10-27T08:25:03Z</time>
      </trkpt>
      <trkpt lat="43.72752" lon="6.13789">
        <ele>676</ele>
        <time>2022-10-27T08:25:13Z</time>
      </trkpt>
      <trkpt lat="43.72743" lon="6.13791">
        <ele>676.9</ele>
        <time>2022-10-27T08:25:23Z</time>
      </trkpt>
      <trkpt lat="43.72733" lon="6.13792">
        <ele>678.1</ele>
        <time>2022-10-27T08:25:35Z</time>
      </trkpt>
      <trkpt lat="43.72722" lon="6.13792">
        <ele>679.5</ele>
        <time>2022-10-27T08:25:45Z</time>
      </trkpt>
      <trkpt lat="43.72712" lon="6.13792">
        <ele>680.4</ele>
        <time>2022-10-27T08:25:55Z</time>
      </trkpt>
      <trkpt lat="43.72703" lon="6.1379">
        <ele>681.4</ele>
        <time>2022-10-27T08:26:05Z</time>
      </trkpt>
      <trkpt lat="43.72694" lon="6.1379">
        <ele>682.2</ele>
        <time>2022-10-27T08:26:15Z</time>
      </trkpt>
      <trkpt lat="43.72683" lon="6.1379">
        <ele>683.4</ele>
        <time>2022-10-27T08:26:27Z</time>
      </trkpt>
      <trkpt lat="43.72672" lon="6.13789">
        <ele>684.6</ele>
        <time>2022-10-27T08:26:38Z</time>
      </trkpt>
      <trkpt lat="43.72662" lon="6.13789">
        <ele>685.6</ele>
        <time>2022-10-27T08:26:49Z</time>
      </trkpt>
      <trkpt lat="43.72653" lon="6.13789">
        <ele>686.4</ele>
        <time>2022-10-27T08:27:00Z</time>
      </trkpt>
      <trkpt lat="43.72642" lon="6.1379">
        <ele>687.3</ele>
        <time>2022-10-27T08:27:10Z</time>
      </trkpt>
      <trkpt lat="43.72632" lon="6.13791">
        <ele>688.3</ele>
        <time>2022-10-27T08:27:20Z</time>
      </trkpt>
      <trkpt lat="43.72623" lon="6.13792">
        <ele>689.2</ele>
        <time>2022-10-27T08:27:31Z</time>
      </trkpt>
      <trkpt lat="43.72613" lon="6.13792">
        <ele>690.3</ele>
        <time>2022-10-27T08:27:41Z</time>
      </trkpt>
      <trkpt lat="43.72603" lon="6.13794">
        <ele>691</ele>
        <time>2022-10-27T08:27:52Z</time>
      </trkpt>
      <trkpt lat="43.72593" lon="6.13795">
        <ele>691.7</ele>
        <time>2022-10-27T08:28:02Z</time>
      </trkpt>
      <trkpt lat="43.72583" lon="6.13796">
        <ele>692.4</ele>
        <time>2022-10-27T08:28:12Z</time>
      </trkpt>
      <trkpt lat="43.72573" lon="6.138">
        <ele>692.9</ele>
        <time>2022-10-27T08:28:23Z</time>
      </trkpt>
      <trkpt lat="43.72567" lon="6.13802">
        <ele>693.3</ele>
        <time>2022-10-27T08:29:09Z</time>
      </trkpt>
      <trkpt lat="43.72562" lon="6.13805">
        <ele>693.6</ele>
        <time>2022-10-27T08:31:08Z</time>
      </trkpt>
      <trkpt lat="43.72553" lon="6.1381">
        <ele>694.1</ele>
        <time>2022-10-27T08:31:18Z</time>
      </trkpt>
      <trkpt lat="43.72544" lon="6.13812">
        <ele>694.9</ele>
        <time>2022-10-27T08:31:27Z</time>
      </trkpt>
      <trkpt lat="43.72535" lon="6.13811">
        <ele>695.9</ele>
        <time>2022-10-27T08:31:36Z</time>
      </trkpt>
      <trkpt lat="43.72526" lon="6.13811">
        <ele>696.7</ele>
        <time>2022-10-27T08:31:46Z</time>
      </trkpt>
      <trkpt lat="43.72517" lon="6.13808">
        <ele>697.6</ele>
        <time>2022-10-27T08:31:55Z</time>
      </trkpt>
      <trkpt lat="43.72507" lon="6.13803">
        <ele>698.5</ele>
        <time>2022-10-27T08:32:05Z</time>
      </trkpt>
      <trkpt lat="43.72497" lon="6.138">
        <ele>699.2</ele>
        <time>2022-10-27T08:32:15Z</time>
      </trkpt>
      <trkpt lat="43.72487" lon="6.13798">
        <ele>699.8</ele>
        <time>2022-10-27T08:32:24Z</time>
      </trkpt>
      <trkpt lat="43.72476" lon="6.13793">
        <ele>700.3</ele>
        <time>2022-10-27T08:32:33Z</time>
      </trkpt>
      <trkpt lat="43.72466" lon="6.13794">
        <ele>700.9</ele>
        <time>2022-10-27T08:32:42Z</time>
      </trkpt>
      <trkpt lat="43.72457" lon="6.13801">
        <ele>701.8</ele>
        <time>2022-10-27T08:32:51Z</time>
      </trkpt>
      <trkpt lat="43.72449" lon="6.1381">
        <ele>702.8</ele>
        <time>2022-10-27T08:33:01Z</time>
      </trkpt>
      <trkpt lat="43.72442" lon="6.1382">
        <ele>703.7</ele>
        <time>2022-10-27T08:33:11Z</time>
      </trkpt>
      <trkpt lat="43.72435" lon="6.13831">
        <ele>704.6</ele>
        <time>2022-10-27T08:33:22Z</time>
      </trkpt>
      <trkpt lat="43.72428" lon="6.13845">
        <ele>705.4</ele>
        <time>2022-10-27T08:33:33Z</time>
      </trkpt>
      <trkpt lat="43.72423" lon="6.13858">
        <ele>706.2</ele>
        <time>2022-10-27T08:33:42Z</time>
      </trkpt>
      <trkpt lat="43.72417" lon="6.13867">
        <ele>707</ele>
        <time>2022-10-27T08:33:51Z</time>
      </trkpt>
      <trkpt lat="43.72409" lon="6.13873">
        <ele>707.6</ele>
        <time>2022-10-27T08:34:00Z</time>
      </trkpt>
      <trkpt lat="43.72401" lon="6.13878">
        <ele>708.1</ele>
        <time>2022-10-27T08:34:09Z</time>
      </trkpt>
      <trkpt lat="43.72391" lon="6.13883">
        <ele>708.8</ele>
        <time>2022-10-27T08:34:19Z</time>
      </trkpt>
      <trkpt lat="43.72382" lon="6.13891">
        <ele>709.2</ele>
        <time>2022-10-27T08:34:28Z</time>
      </trkpt>
      <trkpt lat="43.72373" lon="6.13898">
        <ele>709.4</ele>
        <time>2022-10-27T08:34:37Z</time>
      </trkpt>
      <trkpt lat="43.72365" lon="6.13909">
        <ele>709.8</ele>
        <time>2022-10-27T08:34:47Z</time>
      </trkpt>
      <trkpt lat="43.7236" lon="6.13921">
        <ele>709.6</ele>
        <time>2022-10-27T08:34:57Z</time>
      </trkpt>
      <trkpt lat="43.72355" lon="6.13931">
        <ele>708.7</ele>
        <time>2022-10-27T08:35:11Z</time>
      </trkpt>
      <trkpt lat="43.72351" lon="6.13942">
        <ele>707.8</ele>
        <time>2022-10-27T08:35:37Z</time>
      </trkpt>
      <trkpt lat="43.7235" lon="6.13939">
        <ele>708</ele>
        <time>2022-10-27T08:36:20Z</time>
      </trkpt>
      <trkpt lat="43.72353" lon="6.13942">
        <ele>707.9</ele>
        <time>2022-10-27T08:37:59Z</time>
      </trkpt>
      <trkpt lat="43.72355" lon="6.13948">
        <ele>707.2</ele>
        <time>2022-10-27T08:41:00Z</time>
      </trkpt>
      <trkpt lat="43.72354" lon="6.13943">
        <ele>707.8</ele>
        <time>2022-10-27T08:42:02Z</time>
      </trkpt>
      <trkpt lat="43.72353" lon="6.1394">
        <ele>708</ele>
        <time>2022-10-27T08:43:31Z</time>
      </trkpt>
      <trkpt lat="43.72349" lon="6.13927">
        <ele>708.8</ele>
        <time>2022-10-27T08:43:43Z</time>
      </trkpt>
      <trkpt lat="43.72344" lon="6.13914">
        <ele>709.4</ele>
        <time>2022-10-27T08:43:54Z</time>
      </trkpt>
      <trkpt lat="43.72341" lon="6.13901">
        <ele>709.3</ele>
        <time>2022-10-27T08:44:04Z</time>
      </trkpt>
      <trkpt lat="43.72341" lon="6.13887">
        <ele>709.2</ele>
        <time>2022-10-27T08:44:17Z</time>
      </trkpt>
      <trkpt lat="43.72344" lon="6.13894">
        <ele>709.4</ele>
        <time>2022-10-27T08:44:44Z</time>
      </trkpt>
      <trkpt lat="43.72342" lon="6.13883">
        <ele>709</ele>
        <time>2022-10-27T08:44:59Z</time>
      </trkpt>
      <trkpt lat="43.72334" lon="6.13873">
        <ele>707.9</ele>
        <time>2022-10-27T08:45:14Z</time>
      </trkpt>
      <trkpt lat="43.72328" lon="6.13862">
        <ele>706.7</ele>
        <time>2022-10-27T08:45:28Z</time>
      </trkpt>
      <trkpt lat="43.72323" lon="6.13852">
        <ele>705.3</ele>
        <time>2022-10-27T08:45:40Z</time>
      </trkpt>
      <trkpt lat="43.72321" lon="6.13849">
        <ele>704.8</ele>
        <time>2022-10-27T08:46:27Z</time>
      </trkpt>
      <trkpt lat="43.72319" lon="6.13854">
        <ele>705.2</ele>
        <time>2022-10-27T08:47:55Z</time>
      </trkpt>
      <trkpt lat="43.72312" lon="6.13865">
        <ele>705.6</ele>
        <time>2022-10-27T08:48:08Z</time>
      </trkpt>
      <trkpt lat="43.72309" lon="6.13882">
        <ele>706.1</ele>
        <time>2022-10-27T08:48:17Z</time>
      </trkpt>
      <trkpt lat="43.72304" lon="6.13893">
        <ele>705.9</ele>
        <time>2022-10-27T08:48:33Z</time>
      </trkpt>
      <trkpt lat="43.72294" lon="6.13897">
        <ele>705.2</ele>
        <time>2022-10-27T08:48:42Z</time>
      </trkpt>
      <trkpt lat="43.72284" lon="6.13896">
        <ele>704.4</ele>
        <time>2022-10-27T08:48:50Z</time>
      </trkpt>
      <trkpt lat="43.72275" lon="6.13896">
        <ele>703.8</ele>
        <time>2022-10-27T08:48:58Z</time>
      </trkpt>
      <trkpt lat="43.72265" lon="6.13893">
        <ele>703.1</ele>
        <time>2022-10-27T08:49:06Z</time>
      </trkpt>
      <trkpt lat="43.72256" lon="6.13892">
        <ele>702.4</ele>
        <time>2022-10-27T08:49:14Z</time>
      </trkpt>
      <trkpt lat="43.72247" lon="6.1389">
        <ele>701.7</ele>
        <time>2022-10-27T08:49:21Z</time>
      </trkpt>
      <trkpt lat="43.72236" lon="6.13888">
        <ele>700.4</ele>
        <time>2022-10-27T08:49:29Z</time>
      </trkpt>
      <trkpt lat="43.72226" lon="6.13885">
        <ele>699.2</ele>
        <time>2022-10-27T08:49:37Z</time>
      </trkpt>
      <trkpt lat="43.72216" lon="6.13885">
        <ele>698.4</ele>
        <time>2022-10-27T08:49:45Z</time>
      </trkpt>
      <trkpt lat="43.72205" lon="6.13883">
        <ele>697.5</ele>
        <time>2022-10-27T08:49:53Z</time>
      </trkpt>
      <trkpt lat="43.72195" lon="6.13881">
        <ele>696.8</ele>
        <time>2022-10-27T08:50:01Z</time>
      </trkpt>
      <trkpt lat="43.72185" lon="6.13881">
        <ele>696</ele>
        <time>2022-10-27T08:50:09Z</time>
      </trkpt>
      <trkpt lat="43.72176" lon="6.1388">
        <ele>695.4</ele>
        <time>2022-10-27T08:50:16Z</time>
      </trkpt>
      <trkpt lat="43.72166" lon="6.1388">
        <ele>694.6</ele>
        <time>2022-10-27T08:50:24Z</time>
      </trkpt>
      <trkpt lat="43.72157" lon="6.13877">
        <ele>693.7</ele>
        <time>2022-10-27T08:50:31Z</time>
      </trkpt>
      <trkpt lat="43.72147" lon="6.13873">
        <ele>692.7</ele>
        <time>2022-10-27T08:50:39Z</time>
      </trkpt>
      <trkpt lat="43.72138" lon="6.1387">
        <ele>692</ele>
        <time>2022-10-27T08:50:47Z</time>
      </trkpt>
      <trkpt lat="43.72128" lon="6.13867">
        <ele>691.5</ele>
        <time>2022-10-27T08:50:54Z</time>
      </trkpt>
      <trkpt lat="43.7212" lon="6.13864">
        <ele>691.2</ele>
        <time>2022-10-27T08:51:03Z</time>
      </trkpt>
      <trkpt lat="43.72109" lon="6.13862">
        <ele>690.8</ele>
        <time>2022-10-27T08:51:12Z</time>
      </trkpt>
      <trkpt lat="43.72098" lon="6.13861">
        <ele>690.1</ele>
        <time>2022-10-27T08:51:21Z</time>
      </trkpt>
      <trkpt lat="43.72089" lon="6.13859">
        <ele>689.4</ele>
        <time>2022-10-27T08:51:29Z</time>
      </trkpt>
      <trkpt lat="43.72079" lon="6.13857">
        <ele>688.7</ele>
        <time>2022-10-27T08:51:37Z</time>
      </trkpt>
      <trkpt lat="43.72067" lon="6.13854">
        <ele>687.8</ele>
        <time>2022-10-27T08:51:46Z</time>
      </trkpt>
      <trkpt lat="43.72057" lon="6.13854">
        <ele>687.1</ele>
        <time>2022-10-27T08:51:55Z</time>
      </trkpt>
      <trkpt lat="43.72047" lon="6.13852">
        <ele>686.5</ele>
        <time>2022-10-27T08:52:03Z</time>
      </trkpt>
      <trkpt lat="43.72035" lon="6.13849">
        <ele>685.8</ele>
        <time>2022-10-27T08:52:12Z</time>
      </trkpt>
      <trkpt lat="43.72026" lon="6.13846">
        <ele>685.4</ele>
        <time>2022-10-27T08:52:20Z</time>
      </trkpt>
      <trkpt lat="43.72022" lon="6.13838">
        <ele>685.5</ele>
        <time>2022-10-27T08:52:30Z</time>
      </trkpt>
      <trkpt lat="43.72028" lon="6.1383">
        <ele>686</ele>
        <time>2022-10-27T08:52:38Z</time>
      </trkpt>
      <trkpt lat="43.72032" lon="6.1382">
        <ele>686.2</ele>
        <time>2022-10-27T08:52:46Z</time>
      </trkpt>
      <trkpt lat="43.72036" lon="6.13808">
        <ele>686.3</ele>
        <time>2022-10-27T08:52:56Z</time>
      </trkpt>
      <trkpt lat="43.7204" lon="6.13794">
        <ele>686.4</ele>
        <time>2022-10-27T08:53:05Z</time>
      </trkpt>
      <trkpt lat="43.72043" lon="6.1378">
        <ele>686.5</ele>
        <time>2022-10-27T08:53:14Z</time>
      </trkpt>
      <trkpt lat="43.72047" lon="6.13766">
        <ele>686.1</ele>
        <time>2022-10-27T08:53:23Z</time>
      </trkpt>
      <trkpt lat="43.72055" lon="6.13758">
        <ele>686.3</ele>
        <time>2022-10-27T08:53:32Z</time>
      </trkpt>
      <trkpt lat="43.72064" lon="6.13751">
        <ele>686.6</ele>
        <time>2022-10-27T08:53:42Z</time>
      </trkpt>
      <trkpt lat="43.72072" lon="6.13744">
        <ele>687</ele>
        <time>2022-10-27T08:53:52Z</time>
      </trkpt>
      <trkpt lat="43.72079" lon="6.13731">
        <ele>687</ele>
        <time>2022-10-27T08:54:03Z</time>
      </trkpt>
      <trkpt lat="43.72088" lon="6.13719">
        <ele>686.8</ele>
        <time>2022-10-27T08:54:12Z</time>
      </trkpt>
      <trkpt lat="43.72098" lon="6.13711">
        <ele>686.4</ele>
        <time>2022-10-27T08:54:21Z</time>
      </trkpt>
      <trkpt lat="43.72109" lon="6.13704">
        <ele>686.3</ele>
        <time>2022-10-27T08:54:31Z</time>
      </trkpt>
      <trkpt lat="43.72118" lon="6.13695">
        <ele>686</ele>
        <time>2022-10-27T08:54:40Z</time>
      </trkpt>
      <trkpt lat="43.72127" lon="6.1369">
        <ele>685.5</ele>
        <time>2022-10-27T08:54:48Z</time>
      </trkpt>
      <trkpt lat="43.72137" lon="6.13691">
        <ele>685.6</ele>
        <time>2022-10-27T08:54:58Z</time>
      </trkpt>
      <trkpt lat="43.72149" lon="6.13692">
        <ele>685.7</ele>
        <time>2022-10-27T08:55:08Z</time>
      </trkpt>
      <trkpt lat="43.7216" lon="6.13691">
        <ele>685.6</ele>
        <time>2022-10-27T08:55:17Z</time>
      </trkpt>
      <trkpt lat="43.72173" lon="6.13691">
        <ele>685.9</ele>
        <time>2022-10-27T08:55:27Z</time>
      </trkpt>
      <trkpt lat="43.72182" lon="6.13692">
        <ele>686.3</ele>
        <time>2022-10-27T08:55:36Z</time>
      </trkpt>
      <trkpt lat="43.72193" lon="6.13696">
        <ele>687.1</ele>
        <time>2022-10-27T08:55:47Z</time>
      </trkpt>
      <trkpt lat="43.72206" lon="6.13693">
        <ele>687.3</ele>
        <time>2022-10-27T08:55:58Z</time>
      </trkpt>
      <trkpt lat="43.72216" lon="6.13681">
        <ele>686.3</ele>
        <time>2022-10-27T08:56:08Z</time>
      </trkpt>
      <trkpt lat="43.72225" lon="6.13671">
        <ele>685.6</ele>
        <time>2022-10-27T08:56:17Z</time>
      </trkpt>
      <trkpt lat="43.72233" lon="6.13663">
        <ele>685.1</ele>
        <time>2022-10-27T08:56:26Z</time>
      </trkpt>
      <trkpt lat="43.72242" lon="6.13655">
        <ele>684.9</ele>
        <time>2022-10-27T08:56:37Z</time>
      </trkpt>
      <trkpt lat="43.72253" lon="6.13649">
        <ele>684.7</ele>
        <time>2022-10-27T08:56:47Z</time>
      </trkpt>
      <trkpt lat="43.72264" lon="6.13643">
        <ele>684.3</ele>
        <time>2022-10-27T08:56:57Z</time>
      </trkpt>
      <trkpt lat="43.72273" lon="6.13633">
        <ele>683.6</ele>
        <time>2022-10-27T08:57:06Z</time>
      </trkpt>
      <trkpt lat="43.72279" lon="6.13623">
        <ele>682.8</ele>
        <time>2022-10-27T08:57:15Z</time>
      </trkpt>
      <trkpt lat="43.72287" lon="6.13614">
        <ele>681.9</ele>
        <time>2022-10-27T08:57:26Z</time>
      </trkpt>
      <trkpt lat="43.72299" lon="6.13609">
        <ele>681.1</ele>
        <time>2022-10-27T08:57:36Z</time>
      </trkpt>
      <trkpt lat="43.7231" lon="6.13601">
        <ele>680.2</ele>
        <time>2022-10-27T08:57:45Z</time>
      </trkpt>
      <trkpt lat="43.72318" lon="6.13593">
        <ele>679.4</ele>
        <time>2022-10-27T08:57:53Z</time>
      </trkpt>
      <trkpt lat="43.72327" lon="6.13588">
        <ele>678.7</ele>
        <time>2022-10-27T08:58:02Z</time>
      </trkpt>
      <trkpt lat="43.72334" lon="6.13581">
        <ele>677.9</ele>
        <time>2022-10-27T08:58:12Z</time>
      </trkpt>
      <trkpt lat="43.72345" lon="6.13576">
        <ele>677.7</ele>
        <time>2022-10-27T08:58:23Z</time>
      </trkpt>
      <trkpt lat="43.72355" lon="6.13571">
        <ele>677.2</ele>
        <time>2022-10-27T08:58:34Z</time>
      </trkpt>
      <trkpt lat="43.72367" lon="6.13567">
        <ele>676.9</ele>
        <time>2022-10-27T08:58:44Z</time>
      </trkpt>
      <trkpt lat="43.72376" lon="6.13561">
        <ele>676.6</ele>
        <time>2022-10-27T08:58:53Z</time>
      </trkpt>
      <trkpt lat="43.72386" lon="6.13553">
        <ele>676.5</ele>
        <time>2022-10-27T08:59:02Z</time>
      </trkpt>
      <trkpt lat="43.72395" lon="6.13547">
        <ele>676.1</ele>
        <time>2022-10-27T08:59:11Z</time>
      </trkpt>
      <trkpt lat="43.72404" lon="6.13542">
        <ele>675.5</ele>
        <time>2022-10-27T08:59:20Z</time>
      </trkpt>
      <trkpt lat="43.72411" lon="6.1353">
        <ele>674.2</ele>
        <time>2022-10-27T08:59:30Z</time>
      </trkpt>
      <trkpt lat="43.72413" lon="6.13528">
        <ele>674</ele>
        <time>2022-10-27T09:00:05Z</time>
      </trkpt>
      <trkpt lat="43.72401" lon="6.13528">
        <ele>674</ele>
        <time>2022-10-27T09:00:22Z</time>
      </trkpt>
      <trkpt lat="43.72391" lon="6.13522">
        <ele>673.6</ele>
        <time>2022-10-27T09:00:33Z</time>
      </trkpt>
      <trkpt lat="43.72382" lon="6.13517">
        <ele>673</ele>
        <time>2022-10-27T09:00:43Z</time>
      </trkpt>
      <trkpt lat="43.72369" lon="6.13509">
        <ele>671.9</ele>
        <time>2022-10-27T09:00:58Z</time>
      </trkpt>
      <trkpt lat="43.72359" lon="6.135">
        <ele>671</ele>
        <time>2022-10-27T09:01:12Z</time>
      </trkpt>
      <trkpt lat="43.72348" lon="6.13488">
        <ele>669.7</ele>
        <time>2022-10-27T09:01:23Z</time>
      </trkpt>
      <trkpt lat="43.72347" lon="6.13472">
        <ele>668</ele>
        <time>2022-10-27T09:01:35Z</time>
      </trkpt>
      <trkpt lat="43.72349" lon="6.13458">
        <ele>666.4</ele>
        <time>2022-10-27T09:01:45Z</time>
      </trkpt>
      <trkpt lat="43.72352" lon="6.13441">
        <ele>664.3</ele>
        <time>2022-10-27T09:01:55Z</time>
      </trkpt>
      <trkpt lat="43.72357" lon="6.13431">
        <ele>662.9</ele>
        <time>2022-10-27T09:02:04Z</time>
      </trkpt>
      <trkpt lat="43.72363" lon="6.1342">
        <ele>661.3</ele>
        <time>2022-10-27T09:02:14Z</time>
      </trkpt>
      <trkpt lat="43.72371" lon="6.13409">
        <ele>660</ele>
        <time>2022-10-27T09:02:25Z</time>
      </trkpt>
      <trkpt lat="43.72379" lon="6.13398">
        <ele>658</ele>
        <time>2022-10-27T09:02:35Z</time>
      </trkpt>
      <trkpt lat="43.72386" lon="6.13388">
        <ele>655.5</ele>
        <time>2022-10-27T09:02:46Z</time>
      </trkpt>
      <trkpt lat="43.72395" lon="6.13381">
        <ele>654.2</ele>
        <time>2022-10-27T09:03:01Z</time>
      </trkpt>
      <trkpt lat="43.72402" lon="6.13373">
        <ele>652.4</ele>
        <time>2022-10-27T09:03:18Z</time>
      </trkpt>
      <trkpt lat="43.72412" lon="6.13363">
        <ele>648.7</ele>
        <time>2022-10-27T09:03:32Z</time>
      </trkpt>
      <trkpt lat="43.7242" lon="6.13351">
        <ele>646.9</ele>
        <time>2022-10-27T09:03:44Z</time>
      </trkpt>
      <trkpt lat="43.7243" lon="6.1334">
        <ele>645.7</ele>
        <time>2022-10-27T09:03:54Z</time>
      </trkpt>
      <trkpt lat="43.72439" lon="6.13335">
        <ele>644</ele>
        <time>2022-10-27T09:04:04Z</time>
      </trkpt>
      <trkpt lat="43.72444" lon="6.13322">
        <ele>641.5</ele>
        <time>2022-10-27T09:04:17Z</time>
      </trkpt>
      <trkpt lat="43.72446" lon="6.13308">
        <ele>639.5</ele>
        <time>2022-10-27T09:04:29Z</time>
      </trkpt>
      <trkpt lat="43.72452" lon="6.13294">
        <ele>639.2</ele>
        <time>2022-10-27T09:04:41Z</time>
      </trkpt>
      <trkpt lat="43.72456" lon="6.13282">
        <ele>637.9</ele>
        <time>2022-10-27T09:04:51Z</time>
      </trkpt>
      <trkpt lat="43.72466" lon="6.13275">
        <ele>635.4</ele>
        <time>2022-10-27T09:05:03Z</time>
      </trkpt>
      <trkpt lat="43.72475" lon="6.13266">
        <ele>633.9</ele>
        <time>2022-10-27T09:05:14Z</time>
      </trkpt>
      <trkpt lat="43.72482" lon="6.13252">
        <ele>633.2</ele>
        <time>2022-10-27T09:05:26Z</time>
      </trkpt>
      <trkpt lat="43.72487" lon="6.13238">
        <ele>632</ele>
        <time>2022-10-27T09:05:39Z</time>
      </trkpt>
      <trkpt lat="43.72496" lon="6.13224">
        <ele>628.5</ele>
        <time>2022-10-27T09:05:53Z</time>
      </trkpt>
      <trkpt lat="43.725" lon="6.13211">
        <ele>626.2</ele>
        <time>2022-10-27T09:06:05Z</time>
      </trkpt>
      <trkpt lat="43.72506" lon="6.13193">
        <ele>625.6</ele>
        <time>2022-10-27T09:06:16Z</time>
      </trkpt>
      <trkpt lat="43.72511" lon="6.1318">
        <ele>625.3</ele>
        <time>2022-10-27T09:06:25Z</time>
      </trkpt>
      <trkpt lat="43.72514" lon="6.13164">
        <ele>624.3</ele>
        <time>2022-10-27T09:06:37Z</time>
      </trkpt>
      <trkpt lat="43.72517" lon="6.13148">
        <ele>623</ele>
        <time>2022-10-27T09:06:46Z</time>
      </trkpt>
      <trkpt lat="43.72519" lon="6.13136">
        <ele>622.1</ele>
        <time>2022-10-27T09:06:57Z</time>
      </trkpt>
      <trkpt lat="43.72519" lon="6.1313">
        <ele>621.6</ele>
        <time>2022-10-27T09:07:24Z</time>
      </trkpt>
      <trkpt lat="43.72516" lon="6.13118">
        <ele>620.3</ele>
        <time>2022-10-27T09:07:34Z</time>
      </trkpt>
      <trkpt lat="43.72511" lon="6.13107">
        <ele>618.8</ele>
        <time>2022-10-27T09:07:44Z</time>
      </trkpt>
      <trkpt lat="43.72508" lon="6.13093">
        <ele>617.1</ele>
        <time>2022-10-27T09:07:54Z</time>
      </trkpt>
      <trkpt lat="43.72508" lon="6.13079">
        <ele>615.6</ele>
        <time>2022-10-27T09:08:02Z</time>
      </trkpt>
      <trkpt lat="43.72509" lon="6.13067">
        <ele>614.3</ele>
        <time>2022-10-27T09:08:10Z</time>
      </trkpt>
      <trkpt lat="43.72513" lon="6.13054">
        <ele>613.6</ele>
        <time>2022-10-27T09:08:19Z</time>
      </trkpt>
      <trkpt lat="43.72516" lon="6.1304">
        <ele>612</ele>
        <time>2022-10-27T09:08:28Z</time>
      </trkpt>
      <trkpt lat="43.72521" lon="6.13026">
        <ele>610.9</ele>
        <time>2022-10-27T09:08:37Z</time>
      </trkpt>
      <trkpt lat="43.72528" lon="6.13015">
        <ele>610.3</ele>
        <time>2022-10-27T09:08:48Z</time>
      </trkpt>
      <trkpt lat="43.72535" lon="6.13004">
        <ele>609.2</ele>
        <time>2022-10-27T09:08:59Z</time>
      </trkpt>
      <trkpt lat="43.72545" lon="6.13001">
        <ele>610.3</ele>
        <time>2022-10-27T09:09:08Z</time>
      </trkpt>
      <trkpt lat="43.72555" lon="6.12991">
        <ele>610.3</ele>
        <time>2022-10-27T09:09:19Z</time>
      </trkpt>
      <trkpt lat="43.72565" lon="6.12985">
        <ele>611.2</ele>
        <time>2022-10-27T09:09:28Z</time>
      </trkpt>
      <trkpt lat="43.72574" lon="6.12979">
        <ele>612</ele>
        <time>2022-10-27T09:09:37Z</time>
      </trkpt>
      <trkpt lat="43.72584" lon="6.12976">
        <ele>613.7</ele>
        <time>2022-10-27T09:09:47Z</time>
      </trkpt>
      <trkpt lat="43.72592" lon="6.12967">
        <ele>614.3</ele>
        <time>2022-10-27T09:09:58Z</time>
      </trkpt>
      <trkpt lat="43.72602" lon="6.1296">
        <ele>615.7</ele>
        <time>2022-10-27T09:10:10Z</time>
      </trkpt>
      <trkpt lat="43.72612" lon="6.12958">
        <ele>617.4</ele>
        <time>2022-10-27T09:10:22Z</time>
      </trkpt>
      <trkpt lat="43.72621" lon="6.12958">
        <ele>616.6</ele>
        <time>2022-10-27T09:10:33Z</time>
      </trkpt>
      <trkpt lat="43.72634" lon="6.12957">
        <ele>615.3</ele>
        <time>2022-10-27T09:10:45Z</time>
      </trkpt>
      <trkpt lat="43.72644" lon="6.12965">
        <ele>615.4</ele>
        <time>2022-10-27T09:10:55Z</time>
      </trkpt>
      <trkpt lat="43.72656" lon="6.12965">
        <ele>614.1</ele>
        <time>2022-10-27T09:11:06Z</time>
      </trkpt>
      <trkpt lat="43.72668" lon="6.12963">
        <ele>612.5</ele>
        <time>2022-10-27T09:11:17Z</time>
      </trkpt>
      <trkpt lat="43.72678" lon="6.12957">
        <ele>610.6</ele>
        <time>2022-10-27T09:11:27Z</time>
      </trkpt>
      <trkpt lat="43.72689" lon="6.12965">
        <ele>610.5</ele>
        <time>2022-10-27T09:11:37Z</time>
      </trkpt>
      <trkpt lat="43.72699" lon="6.12968">
        <ele>610</ele>
        <time>2022-10-27T09:11:46Z</time>
      </trkpt>
      <trkpt lat="43.7271" lon="6.12967">
        <ele>609</ele>
        <time>2022-10-27T09:11:55Z</time>
      </trkpt>
      <trkpt lat="43.72719" lon="6.12965">
        <ele>608</ele>
        <time>2022-10-27T09:12:06Z</time>
      </trkpt>
      <trkpt lat="43.72731" lon="6.12967">
        <ele>607.2</ele>
        <time>2022-10-27T09:12:16Z</time>
      </trkpt>
      <trkpt lat="43.72742" lon="6.12969">
        <ele>606.4</ele>
        <time>2022-10-27T09:12:26Z</time>
      </trkpt>
      <trkpt lat="43.7275" lon="6.12958">
        <ele>604</ele>
        <time>2022-10-27T09:12:38Z</time>
      </trkpt>
      <trkpt lat="43.72756" lon="6.12948">
        <ele>602.5</ele>
        <time>2022-10-27T09:12:49Z</time>
      </trkpt>
      <trkpt lat="43.72762" lon="6.12935">
        <ele>601</ele>
        <time>2022-10-27T09:13:00Z</time>
      </trkpt>
      <trkpt lat="43.72764" lon="6.12918">
        <ele>599.1</ele>
        <time>2022-10-27T09:13:11Z</time>
      </trkpt>
      <trkpt lat="43.72764" lon="6.12897">
        <ele>596.5</ele>
        <time>2022-10-27T09:13:22Z</time>
      </trkpt>
      <trkpt lat="43.72768" lon="6.12885">
        <ele>594.9</ele>
        <time>2022-10-27T09:13:34Z</time>
      </trkpt>
      <trkpt lat="43.72771" lon="6.1287">
        <ele>593.2</ele>
        <time>2022-10-27T09:13:44Z</time>
      </trkpt>
      <trkpt lat="43.72774" lon="6.12855">
        <ele>591.7</ele>
        <time>2022-10-27T09:13:53Z</time>
      </trkpt>
      <trkpt lat="43.72777" lon="6.12842">
        <ele>590.6</ele>
        <time>2022-10-27T09:14:02Z</time>
      </trkpt>
      <trkpt lat="43.7278" lon="6.12829">
        <ele>589.6</ele>
        <time>2022-10-27T09:14:11Z</time>
      </trkpt>
      <trkpt lat="43.72784" lon="6.12817">
        <ele>588.5</ele>
        <time>2022-10-27T09:14:20Z</time>
      </trkpt>
      <trkpt lat="43.7279" lon="6.12804">
        <ele>587</ele>
        <time>2022-10-27T09:14:29Z</time>
      </trkpt>
      <trkpt lat="43.72793" lon="6.12791">
        <ele>585.6</ele>
        <time>2022-10-27T09:14:37Z</time>
      </trkpt>
      <trkpt lat="43.72797" lon="6.12779">
        <ele>584.4</ele>
        <time>2022-10-27T09:14:45Z</time>
      </trkpt>
      <trkpt lat="43.72802" lon="6.12767">
        <ele>583.7</ele>
        <time>2022-10-27T09:14:53Z</time>
      </trkpt>
      <trkpt lat="43.72807" lon="6.12755">
        <ele>583.1</ele>
        <time>2022-10-27T09:15:01Z</time>
      </trkpt>
      <trkpt lat="43.72811" lon="6.12744">
        <ele>582.2</ele>
        <time>2022-10-27T09:15:09Z</time>
      </trkpt>
      <trkpt lat="43.72816" lon="6.12732">
        <ele>581.2</ele>
        <time>2022-10-27T09:15:17Z</time>
      </trkpt>
      <trkpt lat="43.72821" lon="6.12725">
        <ele>580.6</ele>
        <time>2022-10-27T09:15:25Z</time>
      </trkpt>
      <trkpt lat="43.72827" lon="6.12713">
        <ele>579.6</ele>
        <time>2022-10-27T09:15:33Z</time>
      </trkpt>
      <trkpt lat="43.72832" lon="6.12701">
        <ele>578.6</ele>
        <time>2022-10-27T09:15:41Z</time>
      </trkpt>
      <trkpt lat="43.72839" lon="6.12692">
        <ele>577.7</ele>
        <time>2022-10-27T09:15:49Z</time>
      </trkpt>
      <trkpt lat="43.72845" lon="6.1268">
        <ele>577.1</ele>
        <time>2022-10-27T09:15:58Z</time>
      </trkpt>
      <trkpt lat="43.72848" lon="6.12668">
        <ele>576.5</ele>
        <time>2022-10-27T09:16:07Z</time>
      </trkpt>
      <trkpt lat="43.7285" lon="6.12658">
        <ele>576.2</ele>
        <time>2022-10-27T09:16:19Z</time>
      </trkpt>
      <trkpt lat="43.7285" lon="6.12651">
        <ele>576.1</ele>
        <time>2022-10-27T09:17:02Z</time>
      </trkpt>
      <trkpt lat="43.72851" lon="6.12658">
        <ele>576.2</ele>
        <time>2022-10-27T09:17:42Z</time>
      </trkpt>
      <trkpt lat="43.72851" lon="6.12647">
        <ele>575.9</ele>
        <time>2022-10-27T09:18:14Z</time>
      </trkpt>
      <trkpt lat="43.72849" lon="6.12632">
        <ele>576.2</ele>
        <time>2022-10-27T09:18:28Z</time>
      </trkpt>
      <trkpt lat="43.72847" lon="6.12626">
        <ele>576.5</ele>
        <time>2022-10-27T09:19:15Z</time>
      </trkpt>
      <trkpt lat="43.72846" lon="6.1262">
        <ele>576.7</ele>
        <time>2022-10-27T09:20:03Z</time>
      </trkpt>
      <trkpt lat="43.72845" lon="6.12614">
        <ele>576.9</ele>
        <time>2022-10-27T09:20:26Z</time>
      </trkpt>
      <trkpt lat="43.72853" lon="6.12619">
        <ele>576.6</ele>
        <time>2022-10-27T09:20:47Z</time>
      </trkpt>
      <trkpt lat="43.72857" lon="6.12607">
        <ele>577.3</ele>
        <time>2022-10-27T09:21:10Z</time>
      </trkpt>
      <trkpt lat="43.72854" lon="6.12601">
        <ele>577.7</ele>
        <time>2022-10-27T09:21:33Z</time>
      </trkpt>
      <trkpt lat="43.72852" lon="6.12614">
        <ele>576.9</ele>
        <time>2022-10-27T09:21:47Z</time>
      </trkpt>
      <trkpt lat="43.72849" lon="6.12619">
        <ele>576.7</ele>
        <time>2022-10-27T09:22:22Z</time>
      </trkpt>
      <trkpt lat="43.72847" lon="6.1262">
        <ele>576.7</ele>
        <time>2022-10-27T09:23:25Z</time>
      </trkpt>
      <trkpt lat="43.7286" lon="6.12626">
        <ele>576</ele>
        <time>2022-10-27T09:23:42Z</time>
      </trkpt>
      <trkpt lat="43.72867" lon="6.12639">
        <ele>574.8</ele>
        <time>2022-10-27T09:23:54Z</time>
      </trkpt>
      <trkpt lat="43.72873" lon="6.12658">
        <ele>574.7</ele>
        <time>2022-10-27T09:24:06Z</time>
      </trkpt>
      <trkpt lat="43.72876" lon="6.12673">
        <ele>574.5</ele>
        <time>2022-10-27T09:24:16Z</time>
      </trkpt>
      <trkpt lat="43.72885" lon="6.12682">
        <ele>573.5</ele>
        <time>2022-10-27T09:24:29Z</time>
      </trkpt>
      <trkpt lat="43.72894" lon="6.12686">
        <ele>572.4</ele>
        <time>2022-10-27T09:24:41Z</time>
      </trkpt>
      <trkpt lat="43.72905" lon="6.12687">
        <ele>571</ele>
        <time>2022-10-27T09:24:56Z</time>
      </trkpt>
      <trkpt lat="43.72914" lon="6.12689">
        <ele>569.7</ele>
        <time>2022-10-27T09:25:10Z</time>
      </trkpt>
      <trkpt lat="43.72925" lon="6.12702">
        <ele>569.1</ele>
        <time>2022-10-27T09:25:21Z</time>
      </trkpt>
      <trkpt lat="43.72936" lon="6.12709">
        <ele>568.5</ele>
        <time>2022-10-27T09:25:30Z</time>
      </trkpt>
      <trkpt lat="43.72944" lon="6.12714">
        <ele>567.8</ele>
        <time>2022-10-27T09:25:42Z</time>
      </trkpt>
      <trkpt lat="43.72957" lon="6.12714">
        <ele>567.1</ele>
        <time>2022-10-27T09:25:56Z</time>
      </trkpt>
      <trkpt lat="43.72966" lon="6.12718">
        <ele>566.5</ele>
        <time>2022-10-27T09:26:05Z</time>
      </trkpt>
      <trkpt lat="43.72977" lon="6.12715">
        <ele>565.8</ele>
        <time>2022-10-27T09:26:16Z</time>
      </trkpt>
      <trkpt lat="43.72988" lon="6.12721">
        <ele>564.4</ele>
        <time>2022-10-27T09:26:27Z</time>
      </trkpt>
      <trkpt lat="43.73" lon="6.12719">
        <ele>563.3</ele>
        <time>2022-10-27T09:26:36Z</time>
      </trkpt>
      <trkpt lat="43.73011" lon="6.12721">
        <ele>562.4</ele>
        <time>2022-10-27T09:26:45Z</time>
      </trkpt>
      <trkpt lat="43.73021" lon="6.12723">
        <ele>561.6</ele>
        <time>2022-10-27T09:26:57Z</time>
      </trkpt>
      <trkpt lat="43.73032" lon="6.12726">
        <ele>561.2</ele>
        <time>2022-10-27T09:27:06Z</time>
      </trkpt>
      <trkpt lat="43.73041" lon="6.12731">
        <ele>561.3</ele>
        <time>2022-10-27T09:27:14Z</time>
      </trkpt>
      <trkpt lat="43.7305" lon="6.12736">
        <ele>561.3</ele>
        <time>2022-10-27T09:27:24Z</time>
      </trkpt>
      <trkpt lat="43.7306" lon="6.12735">
        <ele>560.7</ele>
        <time>2022-10-27T09:27:33Z</time>
      </trkpt>
      <trkpt lat="43.7307" lon="6.12736">
        <ele>560.2</ele>
        <time>2022-10-27T09:27:43Z</time>
      </trkpt>
      <trkpt lat="43.7308" lon="6.12733">
        <ele>559.4</ele>
        <time>2022-10-27T09:27:53Z</time>
      </trkpt>
      <trkpt lat="43.73089" lon="6.12726">
        <ele>558.1</ele>
        <time>2022-10-27T09:28:03Z</time>
      </trkpt>
      <trkpt lat="43.73099" lon="6.12719">
        <ele>557.3</ele>
        <time>2022-10-27T09:28:12Z</time>
      </trkpt>
      <trkpt lat="43.73109" lon="6.12721">
        <ele>556.3</ele>
        <time>2022-10-27T09:28:20Z</time>
      </trkpt>
      <trkpt lat="43.73119" lon="6.12725">
        <ele>556.2</ele>
        <time>2022-10-27T09:28:29Z</time>
      </trkpt>
      <trkpt lat="43.73128" lon="6.12726">
        <ele>555.9</ele>
        <time>2022-10-27T09:28:42Z</time>
      </trkpt>
      <trkpt lat="43.73134" lon="6.12726">
        <ele>555.6</ele>
        <time>2022-10-27T09:29:07Z</time>
      </trkpt>
      <trkpt lat="43.73143" lon="6.12734">
        <ele>555.7</ele>
        <time>2022-10-27T09:29:21Z</time>
      </trkpt>
      <trkpt lat="43.73152" lon="6.12742">
        <ele>555.8</ele>
        <time>2022-10-27T09:29:32Z</time>
      </trkpt>
      <trkpt lat="43.73162" lon="6.1275">
        <ele>556.3</ele>
        <time>2022-10-27T09:29:42Z</time>
      </trkpt>
      <trkpt lat="43.73172" lon="6.12755">
        <ele>556</ele>
        <time>2022-10-27T09:29:51Z</time>
      </trkpt>
      <trkpt lat="43.73181" lon="6.12761">
        <ele>555.9</ele>
        <time>2022-10-27T09:30:01Z</time>
      </trkpt>
      <trkpt lat="43.73193" lon="6.12764">
        <ele>555.2</ele>
        <time>2022-10-27T09:30:11Z</time>
      </trkpt>
      <trkpt lat="43.73203" lon="6.12767">
        <ele>554.9</ele>
        <time>2022-10-27T09:30:20Z</time>
      </trkpt>
      <trkpt lat="43.73215" lon="6.12768">
        <ele>553.9</ele>
        <time>2022-10-27T09:30:28Z</time>
      </trkpt>
      <trkpt lat="43.73225" lon="6.12775">
        <ele>554.3</ele>
        <time>2022-10-27T09:30:38Z</time>
      </trkpt>
      <trkpt lat="43.73235" lon="6.12777">
        <ele>553.9</ele>
        <time>2022-10-27T09:30:45Z</time>
      </trkpt>
      <trkpt lat="43.73247" lon="6.12787">
        <ele>554.5</ele>
        <time>2022-10-27T09:30:59Z</time>
      </trkpt>
      <trkpt lat="43.73258" lon="6.12792">
        <ele>554.1</ele>
        <time>2022-10-27T09:31:09Z</time>
      </trkpt>
      <trkpt lat="43.7327" lon="6.12795">
        <ele>553.2</ele>
        <time>2022-10-27T09:31:19Z</time>
      </trkpt>
      <trkpt lat="43.73281" lon="6.12801">
        <ele>553.4</ele>
        <time>2022-10-27T09:31:29Z</time>
      </trkpt>
      <trkpt lat="43.7329" lon="6.12807">
        <ele>553.5</ele>
        <time>2022-10-27T09:31:39Z</time>
      </trkpt>
      <trkpt lat="43.73302" lon="6.12811">
        <ele>552.5</ele>
        <time>2022-10-27T09:31:48Z</time>
      </trkpt>
      <trkpt lat="43.73312" lon="6.12807">
        <ele>550.6</ele>
        <time>2022-10-27T09:31:59Z</time>
      </trkpt>
      <trkpt lat="43.7332" lon="6.12798">
        <ele>547.9</ele>
        <time>2022-10-27T09:32:16Z</time>
      </trkpt>
      <trkpt lat="43.7333" lon="6.12793">
        <ele>546</ele>
        <time>2022-10-27T09:32:29Z</time>
      </trkpt>
      <trkpt lat="43.73339" lon="6.12794">
        <ele>545.2</ele>
        <time>2022-10-27T09:32:42Z</time>
      </trkpt>
      <trkpt lat="43.73347" lon="6.12806">
        <ele>546.6</ele>
        <time>2022-10-27T09:32:54Z</time>
      </trkpt>
      <trkpt lat="43.73359" lon="6.12815">
        <ele>546.3</ele>
        <time>2022-10-27T09:33:03Z</time>
      </trkpt>
      <trkpt lat="43.73368" lon="6.12812">
        <ele>544.5</ele>
        <time>2022-10-27T09:33:16Z</time>
      </trkpt>
      <trkpt lat="43.73378" lon="6.12807">
        <ele>542.1</ele>
        <time>2022-10-27T09:33:37Z</time>
      </trkpt>
      <trkpt lat="43.73386" lon="6.12816">
        <ele>541.6</ele>
        <time>2022-10-27T09:33:54Z</time>
      </trkpt>
      <trkpt lat="43.73398" lon="6.12824">
        <ele>540</ele>
        <time>2022-10-27T09:34:08Z</time>
      </trkpt>
      <trkpt lat="43.73409" lon="6.1282">
        <ele>537.5</ele>
        <time>2022-10-27T09:34:24Z</time>
      </trkpt>
      <trkpt lat="43.73422" lon="6.12818">
        <ele>535.2</ele>
        <time>2022-10-27T09:34:40Z</time>
      </trkpt>
      <trkpt lat="43.73432" lon="6.12807">
        <ele>534.3</ele>
        <time>2022-10-27T09:34:54Z</time>
      </trkpt>
      <trkpt lat="43.73438" lon="6.12796">
        <ele>532.2</ele>
        <time>2022-10-27T09:35:10Z</time>
      </trkpt>
      <trkpt lat="43.73444" lon="6.12784">
        <ele>529.9</ele>
        <time>2022-10-27T09:35:22Z</time>
      </trkpt>
      <trkpt lat="43.73451" lon="6.12785">
        <ele>530.2</ele>
        <time>2022-10-27T09:35:37Z</time>
      </trkpt>
      <trkpt lat="43.73461" lon="6.12788">
        <ele>530.6</ele>
        <time>2022-10-27T09:35:53Z</time>
      </trkpt>
      <trkpt lat="43.73469" lon="6.12781">
        <ele>530.7</ele>
        <time>2022-10-27T09:36:03Z</time>
      </trkpt>
      <trkpt lat="43.73477" lon="6.12776">
        <ele>530.6</ele>
        <time>2022-10-27T09:36:13Z</time>
      </trkpt>
      <trkpt lat="43.73486" lon="6.12777">
        <ele>530.4</ele>
        <time>2022-10-27T09:36:27Z</time>
      </trkpt>
      <trkpt lat="43.73487" lon="6.12775">
        <ele>530.2</ele>
        <time>2022-10-27T09:37:26Z</time>
      </trkpt>
      <trkpt lat="43.73489" lon="6.12775">
        <ele>530.1</ele>
        <time>2022-10-27T09:38:46Z</time>
      </trkpt>
      <trkpt lat="43.73488" lon="6.12772">
        <ele>529.9</ele>
        <time>2022-10-27T09:39:56Z</time>
      </trkpt>
      <trkpt lat="43.73488" lon="6.12778">
        <ele>530.4</ele>
        <time>2022-10-27T09:43:50Z</time>
      </trkpt>
      <trkpt lat="43.73491" lon="6.12792">
        <ele>529.1</ele>
        <time>2022-10-27T09:44:07Z</time>
      </trkpt>
      <trkpt lat="43.73499" lon="6.128">
        <ele>527.7</ele>
        <time>2022-10-27T09:44:23Z</time>
      </trkpt>
      <trkpt lat="43.73512" lon="6.12801">
        <ele>526.1</ele>
        <time>2022-10-27T09:44:34Z</time>
      </trkpt>
      <trkpt lat="43.73522" lon="6.12799">
        <ele>525.1</ele>
        <time>2022-10-27T09:44:45Z</time>
      </trkpt>
      <trkpt lat="43.73532" lon="6.12799">
        <ele>523.8</ele>
        <time>2022-10-27T09:44:56Z</time>
      </trkpt>
      <trkpt lat="43.73543" lon="6.128">
        <ele>522.1</ele>
        <time>2022-10-27T09:45:06Z</time>
      </trkpt>
      <trkpt lat="43.73553" lon="6.12802">
        <ele>520.5</ele>
        <time>2022-10-27T09:45:18Z</time>
      </trkpt>
      <trkpt lat="43.73563" lon="6.12801">
        <ele>518.5</ele>
        <time>2022-10-27T09:45:29Z</time>
      </trkpt>
      <trkpt lat="43.73572" lon="6.12797">
        <ele>516.4</ele>
        <time>2022-10-27T09:45:40Z</time>
      </trkpt>
      <trkpt lat="43.7358" lon="6.12799">
        <ele>514.5</ele>
        <time>2022-10-27T09:45:53Z</time>
      </trkpt>
      <trkpt lat="43.7358" lon="6.1281">
        <ele>513.5</ele>
        <time>2022-10-27T09:46:07Z</time>
      </trkpt>
      <trkpt lat="43.73579" lon="6.12818">
        <ele>511.4</ele>
        <time>2022-10-27T09:46:28Z</time>
      </trkpt>
      <trkpt lat="43.73579" lon="6.12819">
        <ele>511.1</ele>
        <time>2022-10-27T09:47:29Z</time>
      </trkpt>
      <trkpt lat="43.73579" lon="6.12815">
        <ele>512.3</ele>
        <time>2022-10-27T09:48:45Z</time>
      </trkpt>
      <trkpt lat="43.73579" lon="6.12812">
        <ele>513.1</ele>
        <time>2022-10-27T09:49:18Z</time>
      </trkpt>
      <trkpt lat="43.7358" lon="6.128">
        <ele>514.6</ele>
        <time>2022-10-27T09:49:31Z</time>
      </trkpt>
      <trkpt lat="43.7358" lon="6.12785">
        <ele>514.2</ele>
        <time>2022-10-27T09:49:47Z</time>
      </trkpt>
      <trkpt lat="43.73579" lon="6.1277">
        <ele>512.7</ele>
        <time>2022-10-27T09:49:58Z</time>
      </trkpt>
      <trkpt lat="43.73572" lon="6.12757">
        <ele>513</ele>
        <time>2022-10-27T09:50:07Z</time>
      </trkpt>
      <trkpt lat="43.73567" lon="6.12745">
        <ele>512.6</ele>
        <time>2022-10-27T09:50:15Z</time>
      </trkpt>
      <trkpt lat="43.73563" lon="6.12734">
        <ele>511.4</ele>
        <time>2022-10-27T09:50:24Z</time>
      </trkpt>
      <trkpt lat="43.73559" lon="6.12725">
        <ele>511</ele>
        <time>2022-10-27T09:50:32Z</time>
      </trkpt>
      <trkpt lat="43.73552" lon="6.12715">
        <ele>511.9</ele>
        <time>2022-10-27T09:50:41Z</time>
      </trkpt>
      <trkpt lat="43.73547" lon="6.127">
        <ele>510.8</ele>
        <time>2022-10-27T09:50:51Z</time>
      </trkpt>
      <trkpt lat="43.7354" lon="6.12689">
        <ele>511.8</ele>
        <time>2022-10-27T09:51:01Z</time>
      </trkpt>
      <trkpt lat="43.73526" lon="6.12683">
        <ele>513.7</ele>
        <time>2022-10-27T09:51:12Z</time>
      </trkpt>
      <trkpt lat="43.73528" lon="6.12677">
        <ele>512.2</ele>
        <time>2022-10-27T09:51:28Z</time>
      </trkpt>
      <trkpt lat="43.73524" lon="6.12662">
        <ele>512.7</ele>
        <time>2022-10-27T09:51:50Z</time>
      </trkpt>
      <trkpt lat="43.73517" lon="6.12649">
        <ele>518.5</ele>
        <time>2022-10-27T09:52:11Z</time>
      </trkpt>
      <trkpt lat="43.73514" lon="6.12642">
        <ele>521.1</ele>
        <time>2022-10-27T09:52:25Z</time>
      </trkpt>
      <trkpt lat="43.73516" lon="6.12628">
        <ele>524.7</ele>
        <time>2022-10-27T09:52:42Z</time>
      </trkpt>
      <trkpt lat="43.73512" lon="6.12617">
        <ele>527.9</ele>
        <time>2022-10-27T09:52:58Z</time>
      </trkpt>
      <trkpt lat="43.7351" lon="6.12607">
        <ele>530.1</ele>
        <time>2022-10-27T09:53:21Z</time>
      </trkpt>
      <trkpt lat="43.73506" lon="6.12598">
        <ele>531.2</ele>
        <time>2022-10-27T09:53:43Z</time>
      </trkpt>
      <trkpt lat="43.73504" lon="6.12586">
        <ele>532.6</ele>
        <time>2022-10-27T09:53:58Z</time>
      </trkpt>
      <trkpt lat="43.73502" lon="6.12571">
        <ele>535.6</ele>
        <time>2022-10-27T09:54:13Z</time>
      </trkpt>
      <trkpt lat="43.73494" lon="6.12561">
        <ele>538.9</ele>
        <time>2022-10-27T09:54:30Z</time>
      </trkpt>
      <trkpt lat="43.73492" lon="6.12551">
        <ele>541.2</ele>
        <time>2022-10-27T09:54:45Z</time>
      </trkpt>
      <trkpt lat="43.73498" lon="6.12545">
        <ele>541.5</ele>
        <time>2022-10-27T09:55:07Z</time>
      </trkpt>
      <trkpt lat="43.73503" lon="6.12539">
        <ele>543.3</ele>
        <time>2022-10-27T09:55:27Z</time>
      </trkpt>
      <trkpt lat="43.73511" lon="6.12536">
        <ele>546</ele>
        <time>2022-10-27T09:55:44Z</time>
      </trkpt>
      <trkpt lat="43.73518" lon="6.12532">
        <ele>548.6</ele>
        <time>2022-10-27T09:56:03Z</time>
      </trkpt>
      <trkpt lat="43.73522" lon="6.12544">
        <ele>547</ele>
        <time>2022-10-27T09:56:24Z</time>
      </trkpt>
      <trkpt lat="43.73525" lon="6.12548">
        <ele>546.9</ele>
        <time>2022-10-27T09:57:52Z</time>
      </trkpt>
      <trkpt lat="43.73535" lon="6.12547">
        <ele>549.1</ele>
        <time>2022-10-27T09:58:20Z</time>
      </trkpt>
      <trkpt lat="43.73545" lon="6.12544">
        <ele>551.2</ele>
        <time>2022-10-27T09:58:34Z</time>
      </trkpt>
      <trkpt lat="43.73553" lon="6.12542">
        <ele>552.6</ele>
        <time>2022-10-27T09:58:48Z</time>
      </trkpt>
      <trkpt lat="43.73561" lon="6.12541">
        <ele>553.2</ele>
        <time>2022-10-27T09:58:59Z</time>
      </trkpt>
      <trkpt lat="43.73566" lon="6.12541">
        <ele>553.4</ele>
        <time>2022-10-27T09:59:55Z</time>
      </trkpt>
      <trkpt lat="43.73571" lon="6.12555">
        <ele>552.6</ele>
        <time>2022-10-27T10:00:12Z</time>
      </trkpt>
      <trkpt lat="43.73578" lon="6.12568">
        <ele>551.6</ele>
        <time>2022-10-27T10:00:26Z</time>
      </trkpt>
      <trkpt lat="43.73592" lon="6.1258">
        <ele>550.9</ele>
        <time>2022-10-27T10:00:38Z</time>
      </trkpt>
      <trkpt lat="43.73602" lon="6.12584">
        <ele>550.2</ele>
        <time>2022-10-27T10:00:47Z</time>
      </trkpt>
      <trkpt lat="43.7361" lon="6.12591">
        <ele>548.6</ele>
        <time>2022-10-27T10:00:57Z</time>
      </trkpt>
      <trkpt lat="43.73622" lon="6.12596">
        <ele>547.3</ele>
        <time>2022-10-27T10:01:08Z</time>
      </trkpt>
      <trkpt lat="43.73633" lon="6.12599">
        <ele>546.5</ele>
        <time>2022-10-27T10:01:18Z</time>
      </trkpt>
      <trkpt lat="43.73643" lon="6.12601">
        <ele>545.5</ele>
        <time>2022-10-27T10:01:28Z</time>
      </trkpt>
      <trkpt lat="43.73652" lon="6.12605">
        <ele>543.8</ele>
        <time>2022-10-27T10:01:38Z</time>
      </trkpt>
      <trkpt lat="43.73664" lon="6.12606">
        <ele>541.9</ele>
        <time>2022-10-27T10:01:49Z</time>
      </trkpt>
      <trkpt lat="43.73674" lon="6.12606">
        <ele>540</ele>
        <time>2022-10-27T10:02:00Z</time>
      </trkpt>
      <trkpt lat="43.73685" lon="6.12602">
        <ele>538</ele>
        <time>2022-10-27T10:02:10Z</time>
      </trkpt>
      <trkpt lat="43.73694" lon="6.12592">
        <ele>537.2</ele>
        <time>2022-10-27T10:02:21Z</time>
      </trkpt>
      <trkpt lat="43.73703" lon="6.12586">
        <ele>535.1</ele>
        <time>2022-10-27T10:02:31Z</time>
      </trkpt>
      <trkpt lat="43.73712" lon="6.12574">
        <ele>533.4</ele>
        <time>2022-10-27T10:02:43Z</time>
      </trkpt>
      <trkpt lat="43.73719" lon="6.12564">
        <ele>531.7</ele>
        <time>2022-10-27T10:02:54Z</time>
      </trkpt>
      <trkpt lat="43.73723" lon="6.12549">
        <ele>530.6</ele>
        <time>2022-10-27T10:03:04Z</time>
      </trkpt>
      <trkpt lat="43.73728" lon="6.12537">
        <ele>527.1</ele>
        <time>2022-10-27T10:03:15Z</time>
      </trkpt>
      <trkpt lat="43.73732" lon="6.12523">
        <ele>524.7</ele>
        <time>2022-10-27T10:03:28Z</time>
      </trkpt>
      <trkpt lat="43.73736" lon="6.12508">
        <ele>521.9</ele>
        <time>2022-10-27T10:03:38Z</time>
      </trkpt>
      <trkpt lat="43.73735" lon="6.12495">
        <ele>522.5</ele>
        <time>2022-10-27T10:04:01Z</time>
      </trkpt>
      <trkpt lat="43.73733" lon="6.1248">
        <ele>523.1</ele>
        <time>2022-10-27T10:04:11Z</time>
      </trkpt>
      <trkpt lat="43.73733" lon="6.12466">
        <ele>522.7</ele>
        <time>2022-10-27T10:04:21Z</time>
      </trkpt>
      <trkpt lat="43.73732" lon="6.12452">
        <ele>523.6</ele>
        <time>2022-10-27T10:04:31Z</time>
      </trkpt>
      <trkpt lat="43.73738" lon="6.12436">
        <ele>520.9</ele>
        <time>2022-10-27T10:04:42Z</time>
      </trkpt>
      <trkpt lat="43.7374" lon="6.12416">
        <ele>522.5</ele>
        <time>2022-10-27T10:04:54Z</time>
      </trkpt>
      <trkpt lat="43.73742" lon="6.124">
        <ele>523.8</ele>
        <time>2022-10-27T10:05:05Z</time>
      </trkpt>
      <trkpt lat="43.73746" lon="6.12394">
        <ele>522.9</ele>
        <time>2022-10-27T10:05:22Z</time>
      </trkpt>
      <trkpt lat="43.73753" lon="6.12384">
        <ele>520.8</ele>
        <time>2022-10-27T10:05:32Z</time>
      </trkpt>
      <trkpt lat="43.73761" lon="6.12371">
        <ele>517.4</ele>
        <time>2022-10-27T10:05:41Z</time>
      </trkpt>
      <trkpt lat="43.7376" lon="6.12358">
        <ele>520</ele>
        <time>2022-10-27T10:05:51Z</time>
      </trkpt>
      <trkpt lat="43.73762" lon="6.1234">
        <ele>519.7</ele>
        <time>2022-10-27T10:06:01Z</time>
      </trkpt>
      <trkpt lat="43.73761" lon="6.12327">
        <ele>520.6</ele>
        <time>2022-10-27T10:06:11Z</time>
      </trkpt>
      <trkpt lat="43.7376" lon="6.12313">
        <ele>521</ele>
        <time>2022-10-27T10:06:20Z</time>
      </trkpt>
      <trkpt lat="43.73756" lon="6.12298">
        <ele>522.1</ele>
        <time>2022-10-27T10:06:31Z</time>
      </trkpt>
      <trkpt lat="43.73756" lon="6.12283">
        <ele>520.4</ele>
        <time>2022-10-27T10:06:41Z</time>
      </trkpt>
      <trkpt lat="43.73752" lon="6.12269">
        <ele>521.7</ele>
        <time>2022-10-27T10:06:51Z</time>
      </trkpt>
      <trkpt lat="43.73754" lon="6.12256">
        <ele>520.6</ele>
        <time>2022-10-27T10:07:00Z</time>
      </trkpt>
      <trkpt lat="43.73757" lon="6.12243">
        <ele>519.5</ele>
        <time>2022-10-27T10:07:09Z</time>
      </trkpt>
      <trkpt lat="43.73761" lon="6.1223">
        <ele>518.3</ele>
        <time>2022-10-27T10:07:18Z</time>
      </trkpt>
      <trkpt lat="43.73765" lon="6.12218">
        <ele>516.9</ele>
        <time>2022-10-27T10:07:26Z</time>
      </trkpt>
      <trkpt lat="43.73764" lon="6.12205">
        <ele>516.5</ele>
        <time>2022-10-27T10:07:34Z</time>
      </trkpt>
      <trkpt lat="43.73757" lon="6.12198">
        <ele>517.3</ele>
        <time>2022-10-27T10:07:43Z</time>
      </trkpt>
      <trkpt lat="43.73755" lon="6.12183">
        <ele>518.1</ele>
        <time>2022-10-27T10:07:54Z</time>
      </trkpt>
      <trkpt lat="43.73757" lon="6.1217">
        <ele>519</ele>
        <time>2022-10-27T10:08:03Z</time>
      </trkpt>
      <trkpt lat="43.73769" lon="6.12167">
        <ele>519.6</ele>
        <time>2022-10-27T10:08:17Z</time>
      </trkpt>
      <trkpt lat="43.73776" lon="6.12157">
        <ele>521.7</ele>
        <time>2022-10-27T10:08:37Z</time>
      </trkpt>
      <trkpt lat="43.7378" lon="6.12144">
        <ele>524</ele>
        <time>2022-10-27T10:08:54Z</time>
      </trkpt>
      <trkpt lat="43.73782" lon="6.12136">
        <ele>525.2</ele>
        <time>2022-10-27T10:09:15.648Z</time>
      </trkpt>
      <trkpt lat="43.73781" lon="6.12134">
        <ele>525.5</ele>
        <time>2022-10-27T10:09:22Z</time>
      </trkpt>
      <trkpt lat="43.73782" lon="6.12131">
        <ele>525.9</ele>
        <time>2022-10-27T10:11:47Z</time>
      </trkpt>
      <trkpt lat="43.73784" lon="6.12129">
        <ele>526</ele>
        <time>2022-10-27T10:13:10Z</time>
      </trkpt>
      <trkpt lat="43.73794" lon="6.12122">
        <ele>526.1</ele>
        <time>2022-10-27T10:13:27Z</time>
      </trkpt>
      <trkpt lat="43.73801" lon="6.12115">
        <ele>526.2</ele>
        <time>2022-10-27T10:13:36Z</time>
      </trkpt>
      <trkpt lat="43.73809" lon="6.12109">
        <ele>525.4</ele>
        <time>2022-10-27T10:13:46Z</time>
      </trkpt>
      <trkpt lat="43.73817" lon="6.12098">
        <ele>524.8</ele>
        <time>2022-10-27T10:13:57Z</time>
      </trkpt>
      <trkpt lat="43.73826" lon="6.12092">
        <ele>523.1</ele>
        <time>2022-10-27T10:14:07Z</time>
      </trkpt>
      <trkpt lat="43.73832" lon="6.1208">
        <ele>522.9</ele>
        <time>2022-10-27T10:14:17Z</time>
      </trkpt>
      <trkpt lat="43.73839" lon="6.12072">
        <ele>521.7</ele>
        <time>2022-10-27T10:14:27Z</time>
      </trkpt>
      <trkpt lat="43.73846" lon="6.12067">
        <ele>520.1</ele>
        <time>2022-10-27T10:14:36Z</time>
      </trkpt>
      <trkpt lat="43.73855" lon="6.12057">
        <ele>518.7</ele>
        <time>2022-10-27T10:14:47Z</time>
      </trkpt>
      <trkpt lat="43.73863" lon="6.1205">
        <ele>516.4</ele>
        <time>2022-10-27T10:14:56Z</time>
      </trkpt>
      <trkpt lat="43.73871" lon="6.12042">
        <ele>513.1</ele>
        <time>2022-10-27T10:15:05Z</time>
      </trkpt>
      <trkpt lat="43.73877" lon="6.12034">
        <ele>512</ele>
        <time>2022-10-27T10:15:14Z</time>
      </trkpt>
      <trkpt lat="43.73881" lon="6.12022">
        <ele>513</ele>
        <time>2022-10-27T10:15:24Z</time>
      </trkpt>
      <trkpt lat="43.73887" lon="6.1201">
        <ele>512.4</ele>
        <time>2022-10-27T10:15:34Z</time>
      </trkpt>
      <trkpt lat="43.73893" lon="6.11996">
        <ele>510.8</ele>
        <time>2022-10-27T10:15:44Z</time>
      </trkpt>
      <trkpt lat="43.73899" lon="6.11986">
        <ele>509.2</ele>
        <time>2022-10-27T10:15:54Z</time>
      </trkpt>
      <trkpt lat="43.73904" lon="6.11976">
        <ele>509.3</ele>
        <time>2022-10-27T10:16:04Z</time>
      </trkpt>
      <trkpt lat="43.7391" lon="6.1196">
        <ele>510.1</ele>
        <time>2022-10-27T10:16:15Z</time>
      </trkpt>
      <trkpt lat="43.73914" lon="6.11948">
        <ele>510</ele>
        <time>2022-10-27T10:16:26Z</time>
      </trkpt>
      <trkpt lat="43.73915" lon="6.11931">
        <ele>510.9</ele>
        <time>2022-10-27T10:16:39Z</time>
      </trkpt>
      <trkpt lat="43.73918" lon="6.11918">
        <ele>510.1</ele>
        <time>2022-10-27T10:16:51Z</time>
      </trkpt>
      <trkpt lat="43.73924" lon="6.11906">
        <ele>508</ele>
        <time>2022-10-27T10:17:04Z</time>
      </trkpt>
      <trkpt lat="43.73931" lon="6.1189">
        <ele>506.6</ele>
        <time>2022-10-27T10:17:15Z</time>
      </trkpt>
      <trkpt lat="43.73937" lon="6.11877">
        <ele>506.4</ele>
        <time>2022-10-27T10:17:26Z</time>
      </trkpt>
      <trkpt lat="43.73945" lon="6.11866">
        <ele>505.5</ele>
        <time>2022-10-27T10:17:36Z</time>
      </trkpt>
      <trkpt lat="43.7395" lon="6.11853">
        <ele>505.8</ele>
        <time>2022-10-27T10:17:46Z</time>
      </trkpt>
      <trkpt lat="43.73956" lon="6.11842">
        <ele>505.6</ele>
        <time>2022-10-27T10:18:00Z</time>
      </trkpt>
      <trkpt lat="43.73964" lon="6.11839">
        <ele>503.2</ele>
        <time>2022-10-27T10:18:18Z</time>
      </trkpt>
      <trkpt lat="43.73977" lon="6.11837">
        <ele>496.6</ele>
        <time>2022-10-27T10:18:35Z</time>
      </trkpt>
      <trkpt lat="43.73977" lon="6.11822">
        <ele>499.8</ele>
        <time>2022-10-27T10:18:48Z</time>
      </trkpt>
      <trkpt lat="43.73979" lon="6.1181">
        <ele>500.7</ele>
        <time>2022-10-27T10:19:00Z</time>
      </trkpt>
      <trkpt lat="43.73986" lon="6.11799">
        <ele>499.8</ele>
        <time>2022-10-27T10:19:13Z</time>
      </trkpt>
      <trkpt lat="43.73994" lon="6.11788">
        <ele>499.7</ele>
        <time>2022-10-27T10:19:24Z</time>
      </trkpt>
      <trkpt lat="43.73996" lon="6.11772">
        <ele>502.6</ele>
        <time>2022-10-27T10:19:37Z</time>
      </trkpt>
      <trkpt lat="43.73997" lon="6.11756">
        <ele>503.1</ele>
        <time>2022-10-27T10:19:52Z</time>
      </trkpt>
      <trkpt lat="43.73993" lon="6.11741">
        <ele>504.4</ele>
        <time>2022-10-27T10:20:05Z</time>
      </trkpt>
      <trkpt lat="43.73988" lon="6.11725">
        <ele>504.6</ele>
        <time>2022-10-27T10:20:18Z</time>
      </trkpt>
      <trkpt lat="43.73981" lon="6.11712">
        <ele>505.1</ele>
        <time>2022-10-27T10:20:34Z</time>
      </trkpt>
      <trkpt lat="43.73975" lon="6.11701">
        <ele>504.7</ele>
        <time>2022-10-27T10:20:45Z</time>
      </trkpt>
      <trkpt lat="43.73965" lon="6.11693">
        <ele>505.3</ele>
        <time>2022-10-27T10:20:56Z</time>
      </trkpt>
      <trkpt lat="43.73965" lon="6.11678">
        <ele>502.1</ele>
        <time>2022-10-27T10:21:10Z</time>
      </trkpt>
      <trkpt lat="43.73967" lon="6.11667">
        <ele>499.6</ele>
        <time>2022-10-27T10:21:34Z</time>
      </trkpt>
      <trkpt lat="43.73978" lon="6.11661">
        <ele>498</ele>
        <time>2022-10-27T10:21:49Z</time>
      </trkpt>
      <trkpt lat="43.73984" lon="6.11652">
        <ele>497.2</ele>
        <time>2022-10-27T10:22:01Z</time>
      </trkpt>
      <trkpt lat="43.7399" lon="6.11641">
        <ele>496.7</ele>
        <time>2022-10-27T10:22:14Z</time>
      </trkpt>
      <trkpt lat="43.74002" lon="6.11642">
        <ele>495.8</ele>
        <time>2022-10-27T10:22:27Z</time>
      </trkpt>
      <trkpt lat="43.74016" lon="6.11643">
        <ele>495.4</ele>
        <time>2022-10-27T10:22:39Z</time>
      </trkpt>
      <trkpt lat="43.74028" lon="6.11645">
        <ele>494.7</ele>
        <time>2022-10-27T10:22:51Z</time>
      </trkpt>
      <trkpt lat="43.7404" lon="6.11645">
        <ele>494.3</ele>
        <time>2022-10-27T10:23:00Z</time>
      </trkpt>
      <trkpt lat="43.74051" lon="6.11647">
        <ele>493.7</ele>
        <time>2022-10-27T10:23:09Z</time>
      </trkpt>
      <trkpt lat="43.7406" lon="6.11651">
        <ele>492</ele>
        <time>2022-10-27T10:23:18Z</time>
      </trkpt>
      <trkpt lat="43.74071" lon="6.11652">
        <ele>489.8</ele>
        <time>2022-10-27T10:23:29Z</time>
      </trkpt>
      <trkpt lat="43.74074" lon="6.11656">
        <ele>488.8</ele>
        <time>2022-10-27T10:23:42Z</time>
      </trkpt>
      <trkpt lat="43.74076" lon="6.11669">
        <ele>485.3</ele>
        <time>2022-10-27T10:23:57Z</time>
      </trkpt>
      <trkpt lat="43.74078" lon="6.11672">
        <ele>482.7</ele>
        <time>2022-10-27T10:24:44Z</time>
      </trkpt>
      <trkpt lat="43.74077" lon="6.11671">
        <ele>483.6</ele>
        <time>2022-10-27T10:25:20Z</time>
      </trkpt>
      <trkpt lat="43.74075" lon="6.11671">
        <ele>483.9</ele>
        <time>2022-10-27T10:26:35Z</time>
      </trkpt>
      <trkpt lat="43.74076" lon="6.11658">
        <ele>488.2</ele>
        <time>2022-10-27T10:26:51Z</time>
      </trkpt>
      <trkpt lat="43.74085" lon="6.1165">
        <ele>486.3</ele>
        <time>2022-10-27T10:27:05Z</time>
      </trkpt>
      <trkpt lat="43.74093" lon="6.11643">
        <ele>480.2</ele>
        <time>2022-10-27T10:27:17Z</time>
      </trkpt>
      <trkpt lat="43.74098" lon="6.11638">
        <ele>477.2</ele>
        <time>2022-10-27T11:11:32Z</time>
      </trkpt>
      <trkpt lat="43.74103" lon="6.11633">
        <ele>475.2</ele>
        <time>2022-10-27T11:12:09Z</time>
      </trkpt>
      <trkpt lat="43.7411" lon="6.11625">
        <ele>474.2</ele>
        <time>2022-10-27T11:12:27Z</time>
      </trkpt>
      <trkpt lat="43.74116" lon="6.11614">
        <ele>476.3</ele>
        <time>2022-10-27T11:12:42Z</time>
      </trkpt>
      <trkpt lat="43.74124" lon="6.11606">
        <ele>474.6</ele>
        <time>2022-10-27T11:12:54Z</time>
      </trkpt>
      <trkpt lat="43.74133" lon="6.11602">
        <ele>471.2</ele>
        <time>2022-10-27T11:13:05Z</time>
      </trkpt>
      <trkpt lat="43.74143" lon="6.11596">
        <ele>469.9</ele>
        <time>2022-10-27T11:13:16Z</time>
      </trkpt>
      <trkpt lat="43.74153" lon="6.11589">
        <ele>471.1</ele>
        <time>2022-10-27T11:13:25Z</time>
      </trkpt>
      <trkpt lat="43.74161" lon="6.11583">
        <ele>472.6</ele>
        <time>2022-10-27T11:13:34Z</time>
      </trkpt>
      <trkpt lat="43.7417" lon="6.1158">
        <ele>471.6</ele>
        <time>2022-10-27T11:13:45Z</time>
      </trkpt>
      <trkpt lat="43.74179" lon="6.11578">
        <ele>470.7</ele>
        <time>2022-10-27T11:13:56Z</time>
      </trkpt>
      <trkpt lat="43.74189" lon="6.11581">
        <ele>467.8</ele>
        <time>2022-10-27T11:14:09Z</time>
      </trkpt>
      <trkpt lat="43.74199" lon="6.11581">
        <ele>466</ele>
        <time>2022-10-27T11:14:19Z</time>
      </trkpt>
      <trkpt lat="43.74207" lon="6.11578">
        <ele>465.7</ele>
        <time>2022-10-27T11:14:29Z</time>
      </trkpt>
      <trkpt lat="43.74217" lon="6.11572">
        <ele>466.4</ele>
        <time>2022-10-27T11:14:39Z</time>
      </trkpt>
      <trkpt lat="43.74226" lon="6.1157">
        <ele>465.7</ele>
        <time>2022-10-27T11:14:48Z</time>
      </trkpt>
      <trkpt lat="43.74234" lon="6.11566">
        <ele>466</ele>
        <time>2022-10-27T11:14:58Z</time>
      </trkpt>
      <trkpt lat="43.74243" lon="6.11572">
        <ele>462.1</ele>
        <time>2022-10-27T11:15:12Z</time>
      </trkpt>
      <trkpt lat="43.74254" lon="6.11575">
        <ele>459.2</ele>
        <time>2022-10-27T11:15:24Z</time>
      </trkpt>
      <trkpt lat="43.74268" lon="6.11578">
        <ele>456.8</ele>
        <time>2022-10-27T11:15:35Z</time>
      </trkpt>
      <trkpt lat="43.74279" lon="6.11583">
        <ele>454</ele>
        <time>2022-10-27T11:15:45Z</time>
      </trkpt>
      <trkpt lat="43.74289" lon="6.11585">
        <ele>452.5</ele>
        <time>2022-10-27T11:15:54Z</time>
      </trkpt>
      <trkpt lat="43.74299" lon="6.11584">
        <ele>452.2</ele>
        <time>2022-10-27T11:16:03Z</time>
      </trkpt>
      <trkpt lat="43.74309" lon="6.11587">
        <ele>450.7</ele>
        <time>2022-10-27T11:16:13Z</time>
      </trkpt>
      <trkpt lat="43.74319" lon="6.11585">
        <ele>450.5</ele>
        <time>2022-10-27T11:16:21Z</time>
      </trkpt>
      <trkpt lat="43.74329" lon="6.11589">
        <ele>448.3</ele>
        <time>2022-10-27T11:16:33Z</time>
      </trkpt>
      <trkpt lat="43.74342" lon="6.11586">
        <ele>447.5</ele>
        <time>2022-10-27T11:16:44Z</time>
      </trkpt>
      <trkpt lat="43.74352" lon="6.11588">
        <ele>445.2</ele>
        <time>2022-10-27T11:16:55Z</time>
      </trkpt>
      <trkpt lat="43.74364" lon="6.11587">
        <ele>443</ele>
        <time>2022-10-27T11:17:09Z</time>
      </trkpt>
      <trkpt lat="43.74373" lon="6.11585">
        <ele>441.3</ele>
        <time>2022-10-27T11:17:21Z</time>
      </trkpt>
      <trkpt lat="43.74382" lon="6.11585">
        <ele>438.9</ele>
        <time>2022-10-27T11:17:35Z</time>
      </trkpt>
      <trkpt lat="43.74388" lon="6.11585">
        <ele>437.3</ele>
        <time>2022-10-27T11:18:01Z</time>
      </trkpt>
      <trkpt lat="43.7439" lon="6.11589">
        <ele>432.6</ele>
        <time>2022-10-27T11:18:36Z</time>
      </trkpt>
      <trkpt lat="43.74386" lon="6.11599">
        <ele>423</ele>
        <time>2022-10-27T11:19:06Z</time>
      </trkpt>
      <trkpt lat="43.74388" lon="6.11593">
        <ele>428.3</ele>
        <time>2022-10-27T11:19:31Z</time>
      </trkpt>
      <trkpt lat="43.74396" lon="6.11585">
        <ele>436.9</ele>
        <time>2022-10-27T11:20:01Z</time>
      </trkpt>
      <trkpt lat="43.74414" lon="6.11582">
        <ele>437.9</ele>
        <time>2022-10-27T11:20:15Z</time>
      </trkpt>
      <trkpt lat="43.74425" lon="6.1158">
        <ele>437.4</ele>
        <time>2022-10-27T11:20:24Z</time>
      </trkpt>
      <trkpt lat="43.74435" lon="6.11575">
        <ele>438.8</ele>
        <time>2022-10-27T11:20:33Z</time>
      </trkpt>
      <trkpt lat="43.74442" lon="6.11573">
        <ele>439</ele>
        <time>2022-10-27T11:20:43Z</time>
      </trkpt>
      <trkpt lat="43.74456" lon="6.11578">
        <ele>434.7</ele>
        <time>2022-10-27T11:20:56Z</time>
      </trkpt>
      <trkpt lat="43.74465" lon="6.11587">
        <ele>430.8</ele>
        <time>2022-10-27T11:21:08Z</time>
      </trkpt>
      <trkpt lat="43.74477" lon="6.11596">
        <ele>427.6</ele>
        <time>2022-10-27T11:21:23Z</time>
      </trkpt>
      <trkpt lat="43.74485" lon="6.11607">
        <ele>424.6</ele>
        <time>2022-10-27T11:21:37Z</time>
      </trkpt>
      <trkpt lat="43.745" lon="6.11609">
        <ele>425.5</ele>
        <time>2022-10-27T11:21:51Z</time>
      </trkpt>
      <trkpt lat="43.7451" lon="6.11606">
        <ele>421.6</ele>
        <time>2022-10-27T11:22:07Z</time>
      </trkpt>
      <trkpt lat="43.74521" lon="6.116">
        <ele>419.2</ele>
        <time>2022-10-27T11:22:18Z</time>
      </trkpt>
      <trkpt lat="43.74529" lon="6.1159">
        <ele>421.3</ele>
        <time>2022-10-27T11:22:27Z</time>
      </trkpt>
      <trkpt lat="43.74538" lon="6.11583">
        <ele>422.1</ele>
        <time>2022-10-27T11:22:37Z</time>
      </trkpt>
      <trkpt lat="43.74547" lon="6.11575">
        <ele>421.7</ele>
        <time>2022-10-27T11:22:46Z</time>
      </trkpt>
      <trkpt lat="43.74557" lon="6.11565">
        <ele>421.2</ele>
        <time>2022-10-27T11:22:56Z</time>
      </trkpt>
      <trkpt lat="43.74564" lon="6.11556">
        <ele>417.9</ele>
        <time>2022-10-27T11:23:05Z</time>
      </trkpt>
      <trkpt lat="43.74571" lon="6.11547">
        <ele>415.8</ele>
        <time>2022-10-27T11:23:14Z</time>
      </trkpt>
      <trkpt lat="43.74576" lon="6.11535">
        <ele>418.7</ele>
        <time>2022-10-27T11:23:23Z</time>
      </trkpt>
      <trkpt lat="43.74583" lon="6.11526">
        <ele>420.4</ele>
        <time>2022-10-27T11:23:37Z</time>
      </trkpt>
      <trkpt lat="43.7459" lon="6.11515">
        <ele>417.4</ele>
        <time>2022-10-27T11:23:48Z</time>
      </trkpt>
      <trkpt lat="43.74596" lon="6.11502">
        <ele>414.3</ele>
        <time>2022-10-27T11:23:57Z</time>
      </trkpt>
      <trkpt lat="43.74601" lon="6.1149">
        <ele>411.5</ele>
        <time>2022-10-27T11:24:07Z</time>
      </trkpt>
      <trkpt lat="43.74606" lon="6.11478">
        <ele>408.6</ele>
        <time>2022-10-27T11:24:17Z</time>
      </trkpt>
      <trkpt lat="43.74605" lon="6.11462">
        <ele>411.9</ele>
        <time>2022-10-27T11:24:27Z</time>
      </trkpt>
      <trkpt lat="43.74604" lon="6.11452">
        <ele>414.5</ele>
        <time>2022-10-27T11:24:47Z</time>
      </trkpt>
      <trkpt lat="43.74604" lon="6.11443">
        <ele>416.2</ele>
        <time>2022-10-27T11:25:16Z</time>
      </trkpt>
      <trkpt lat="43.74605" lon="6.11431">
        <ele>418.2</ele>
        <time>2022-10-27T11:25:34Z</time>
      </trkpt>
      <trkpt lat="43.74611" lon="6.11421">
        <ele>417.8</ele>
        <time>2022-10-27T11:25:44Z</time>
      </trkpt>
      <trkpt lat="43.74609" lon="6.11405">
        <ele>416.7</ele>
        <time>2022-10-27T11:25:54Z</time>
      </trkpt>
      <trkpt lat="43.74605" lon="6.11394">
        <ele>416.3</ele>
        <time>2022-10-27T11:26:04Z</time>
      </trkpt>
      <trkpt lat="43.74603" lon="6.11375">
        <ele>415.7</ele>
        <time>2022-10-27T11:26:15Z</time>
      </trkpt>
      <trkpt lat="43.74603" lon="6.11361">
        <ele>414.8</ele>
        <time>2022-10-27T11:26:25Z</time>
      </trkpt>
      <trkpt lat="43.746" lon="6.11345">
        <ele>417.1</ele>
        <time>2022-10-27T11:26:35Z</time>
      </trkpt>
      <trkpt lat="43.74598" lon="6.1133">
        <ele>418.1</ele>
        <time>2022-10-27T11:26:45Z</time>
      </trkpt>
      <trkpt lat="43.74593" lon="6.11314">
        <ele>420</ele>
        <time>2022-10-27T11:26:55Z</time>
      </trkpt>
      <trkpt lat="43.74592" lon="6.11302">
        <ele>420.1</ele>
        <time>2022-10-27T11:27:08Z</time>
      </trkpt>
      <trkpt lat="43.74594" lon="6.11286">
        <ele>417.7</ele>
        <time>2022-10-27T11:27:24Z</time>
      </trkpt>
      <trkpt lat="43.74591" lon="6.11269">
        <ele>419.5</ele>
        <time>2022-10-27T11:27:35Z</time>
      </trkpt>
      <trkpt lat="43.74587" lon="6.11251">
        <ele>421.3</ele>
        <time>2022-10-27T11:27:47Z</time>
      </trkpt>
      <trkpt lat="43.74585" lon="6.1124">
        <ele>420.5</ele>
        <time>2022-10-27T11:28:09Z</time>
      </trkpt>
      <trkpt lat="43.74586" lon="6.11234">
        <ele>418.6</ele>
        <time>2022-10-27T11:28:34Z</time>
      </trkpt>
      <trkpt lat="43.74579" lon="6.11234">
        <ele>422.5</ele>
        <time>2022-10-27T11:29:05Z</time>
      </trkpt>
      <trkpt lat="43.74575" lon="6.11223">
        <ele>422.8</ele>
        <time>2022-10-27T11:29:20Z</time>
      </trkpt>
      <trkpt lat="43.7457" lon="6.11212">
        <ele>424</ele>
        <time>2022-10-27T11:29:33Z</time>
      </trkpt>
      <trkpt lat="43.74565" lon="6.11198">
        <ele>426</ele>
        <time>2022-10-27T11:29:56Z</time>
      </trkpt>
      <trkpt lat="43.74562" lon="6.11202">
        <ele>429.3</ele>
        <time>2022-10-27T11:30:20Z</time>
      </trkpt>
      <trkpt lat="43.74554" lon="6.11195">
        <ele>435.9</ele>
        <time>2022-10-27T11:30:36Z</time>
      </trkpt>
      <trkpt lat="43.74554" lon="6.1118">
        <ele>434.8</ele>
        <time>2022-10-27T11:30:47Z</time>
      </trkpt>
      <trkpt lat="43.74553" lon="6.11161">
        <ele>433.4</ele>
        <time>2022-10-27T11:30:56Z</time>
      </trkpt>
      <trkpt lat="43.74547" lon="6.11147">
        <ele>434.5</ele>
        <time>2022-10-27T11:31:07Z</time>
      </trkpt>
      <trkpt lat="43.74543" lon="6.11133">
        <ele>435.4</ele>
        <time>2022-10-27T11:31:20Z</time>
      </trkpt>
      <trkpt lat="43.74542" lon="6.11126">
        <ele>435.6</ele>
        <time>2022-10-27T11:32:07Z</time>
      </trkpt>
      <trkpt lat="43.74543" lon="6.11113">
        <ele>434.3</ele>
        <time>2022-10-27T11:32:26Z</time>
      </trkpt>
      <trkpt lat="43.74544" lon="6.11098">
        <ele>432.5</ele>
        <time>2022-10-27T11:32:42Z</time>
      </trkpt>
      <trkpt lat="43.74541" lon="6.11084">
        <ele>432.9</ele>
        <time>2022-10-27T11:32:53Z</time>
      </trkpt>
      <trkpt lat="43.74536" lon="6.11071">
        <ele>433.7</ele>
        <time>2022-10-27T11:33:04Z</time>
      </trkpt>
      <trkpt lat="43.74535" lon="6.11056">
        <ele>432.1</ele>
        <time>2022-10-27T11:33:17Z</time>
      </trkpt>
      <trkpt lat="43.74532" lon="6.11043">
        <ele>433.3</ele>
        <time>2022-10-27T11:33:45Z</time>
      </trkpt>
      <trkpt lat="43.74529" lon="6.11027">
        <ele>434.2</ele>
        <time>2022-10-27T11:33:56Z</time>
      </trkpt>
      <trkpt lat="43.74524" lon="6.11012">
        <ele>434.7</ele>
        <time>2022-10-27T11:34:06Z</time>
      </trkpt>
      <trkpt lat="43.7452" lon="6.10998">
        <ele>433.8</ele>
        <time>2022-10-27T11:34:16Z</time>
      </trkpt>
      <trkpt lat="43.74513" lon="6.10986">
        <ele>432.3</ele>
        <time>2022-10-27T11:34:26Z</time>
      </trkpt>
      <trkpt lat="43.74502" lon="6.10983">
        <ele>432.6</ele>
        <time>2022-10-27T11:34:37Z</time>
      </trkpt>
      <trkpt lat="43.74491" lon="6.10975">
        <ele>431.7</ele>
        <time>2022-10-27T11:34:47Z</time>
      </trkpt>
      <trkpt lat="43.74482" lon="6.10968">
        <ele>430.9</ele>
        <time>2022-10-27T11:34:55Z</time>
      </trkpt>
      <trkpt lat="43.74474" lon="6.10961">
        <ele>430.3</ele>
        <time>2022-10-27T11:35:02Z</time>
      </trkpt>
      <trkpt lat="43.74465" lon="6.10959">
        <ele>432.4</ele>
        <time>2022-10-27T11:35:13Z</time>
      </trkpt>
      <trkpt lat="43.74457" lon="6.10957">
        <ele>434.3</ele>
        <time>2022-10-27T11:35:27Z</time>
      </trkpt>
      <trkpt lat="43.74449" lon="6.10944">
        <ele>433.6</ele>
        <time>2022-10-27T11:35:37Z</time>
      </trkpt>
      <trkpt lat="43.74444" lon="6.10932">
        <ele>431.5</ele>
        <time>2022-10-27T11:35:48Z</time>
      </trkpt>
      <trkpt lat="43.74437" lon="6.10923">
        <ele>430.5</ele>
        <time>2022-10-27T11:36:09Z</time>
      </trkpt>
      <trkpt lat="43.74429" lon="6.10916">
        <ele>430.1</ele>
        <time>2022-10-27T11:36:19Z</time>
      </trkpt>
      <trkpt lat="43.7442" lon="6.10909">
        <ele>430</ele>
        <time>2022-10-27T11:36:28Z</time>
      </trkpt>
      <trkpt lat="43.74411" lon="6.10905">
        <ele>429.6</ele>
        <time>2022-10-27T11:36:35Z</time>
      </trkpt>
      <trkpt lat="43.74402" lon="6.10896">
        <ele>427.6</ele>
        <time>2022-10-27T11:36:48Z</time>
      </trkpt>
      <trkpt lat="43.74393" lon="6.10888">
        <ele>426.5</ele>
        <time>2022-10-27T11:37:01Z</time>
      </trkpt>
      <trkpt lat="43.7439" lon="6.10877">
        <ele>424.7</ele>
        <time>2022-10-27T11:37:10Z</time>
      </trkpt>
      <trkpt lat="43.74386" lon="6.10865">
        <ele>423.5</ele>
        <time>2022-10-27T11:37:19Z</time>
      </trkpt>
      <trkpt lat="43.74379" lon="6.1086">
        <ele>424.2</ele>
        <time>2022-10-27T11:37:31Z</time>
      </trkpt>
      <trkpt lat="43.74371" lon="6.10852">
        <ele>423.4</ele>
        <time>2022-10-27T11:37:52Z</time>
      </trkpt>
      <trkpt lat="43.74364" lon="6.10841">
        <ele>420.6</ele>
        <time>2022-10-27T11:38:05Z</time>
      </trkpt>
      <trkpt lat="43.7436" lon="6.10833">
        <ele>417.9</ele>
        <time>2022-10-27T11:38:25Z</time>
      </trkpt>
      <trkpt lat="43.74347" lon="6.10836">
        <ele>419.3</ele>
        <time>2022-10-27T11:38:37Z</time>
      </trkpt>
      <trkpt lat="43.74338" lon="6.10837">
        <ele>419.9</ele>
        <time>2022-10-27T11:38:48Z</time>
      </trkpt>
      <trkpt lat="43.74328" lon="6.10836">
        <ele>419.2</ele>
        <time>2022-10-27T11:38:58Z</time>
      </trkpt>
      <trkpt lat="43.74319" lon="6.10837">
        <ele>419.5</ele>
        <time>2022-10-27T11:39:07Z</time>
      </trkpt>
      <trkpt lat="43.74309" lon="6.10842">
        <ele>421.8</ele>
        <time>2022-10-27T11:39:16Z</time>
      </trkpt>
      <trkpt lat="43.74301" lon="6.1085">
        <ele>424.8</ele>
        <time>2022-10-27T11:39:27Z</time>
      </trkpt>
      <trkpt lat="43.74292" lon="6.10857">
        <ele>425.3</ele>
        <time>2022-10-27T11:39:39Z</time>
      </trkpt>
      <trkpt lat="43.74283" lon="6.10867">
        <ele>426.5</ele>
        <time>2022-10-27T11:39:49Z</time>
      </trkpt>
      <trkpt lat="43.74276" lon="6.10866">
        <ele>424</ele>
        <time>2022-10-27T11:40:09Z</time>
      </trkpt>
      <trkpt lat="43.74271" lon="6.10857">
        <ele>420.2</ele>
        <time>2022-10-27T11:40:29Z</time>
      </trkpt>
      <trkpt lat="43.74267" lon="6.10854">
        <ele>419.6</ele>
        <time>2022-10-27T11:40:43Z</time>
      </trkpt>
      <trkpt lat="43.74262" lon="6.10849">
        <ele>419.5</ele>
        <time>2022-10-27T11:41:09Z</time>
      </trkpt>
      <trkpt lat="43.7426" lon="6.10842">
        <ele>419.9</ele>
        <time>2022-10-27T11:41:37Z</time>
      </trkpt>
      <trkpt lat="43.74259" lon="6.1084">
        <ele>420.2</ele>
        <time>2022-10-27T11:42:10Z</time>
      </trkpt>
      <trkpt lat="43.74268" lon="6.10833">
        <ele>416.9</ele>
        <time>2022-10-27T11:42:47Z</time>
      </trkpt>
      <trkpt lat="43.74277" lon="6.10826">
        <ele>413.3</ele>
        <time>2022-10-27T11:42:57Z</time>
      </trkpt>
      <trkpt lat="43.74283" lon="6.1082">
        <ele>412.9</ele>
        <time>2022-10-27T11:43:07Z</time>
      </trkpt>
      <trkpt lat="43.74282" lon="6.1081">
        <ele>412.5</ele>
        <time>2022-10-27T11:43:18Z</time>
      </trkpt>
      <trkpt lat="43.74278" lon="6.108">
        <ele>414.8</ele>
        <time>2022-10-27T11:43:32Z</time>
      </trkpt>
      <trkpt lat="43.74271" lon="6.10791">
        <ele>419.7</ele>
        <time>2022-10-27T11:43:50Z</time>
      </trkpt>
      <trkpt lat="43.74264" lon="6.10791">
        <ele>421.8</ele>
        <time>2022-10-27T11:44:26Z</time>
      </trkpt>
      <trkpt lat="43.74261" lon="6.10786">
        <ele>423.6</ele>
        <time>2022-10-27T11:44:45Z</time>
      </trkpt>
      <trkpt lat="43.74265" lon="6.10779">
        <ele>424</ele>
        <time>2022-10-27T11:45:03Z</time>
      </trkpt>
      <trkpt lat="43.74272" lon="6.10777">
        <ele>423.3</ele>
        <time>2022-10-27T11:45:38Z</time>
      </trkpt>
      <trkpt lat="43.74282" lon="6.10778">
        <ele>421.2</ele>
        <time>2022-10-27T11:45:47Z</time>
      </trkpt>
      <trkpt lat="43.74292" lon="6.10776">
        <ele>420</ele>
        <time>2022-10-27T11:45:58Z</time>
      </trkpt>
      <trkpt lat="43.74302" lon="6.10779">
        <ele>417.2</ele>
        <time>2022-10-27T11:46:09Z</time>
      </trkpt>
      <trkpt lat="43.74311" lon="6.10776">
        <ele>416.3</ele>
        <time>2022-10-27T11:46:19Z</time>
      </trkpt>
      <trkpt lat="43.74319" lon="6.10771">
        <ele>415.9</ele>
        <time>2022-10-27T11:46:29Z</time>
      </trkpt>
      <trkpt lat="43.74328" lon="6.10769">
        <ele>414.4</ele>
        <time>2022-10-27T11:46:38Z</time>
      </trkpt>
      <trkpt lat="43.74337" lon="6.10763">
        <ele>413.8</ele>
        <time>2022-10-27T11:46:49Z</time>
      </trkpt>
      <trkpt lat="43.74345" lon="6.10754">
        <ele>414.1</ele>
        <time>2022-10-27T11:46:58Z</time>
      </trkpt>
      <trkpt lat="43.74352" lon="6.10748">
        <ele>414</ele>
        <time>2022-10-27T11:47:08Z</time>
      </trkpt>
      <trkpt lat="43.74359" lon="6.10741">
        <ele>414.5</ele>
        <time>2022-10-27T11:47:17Z</time>
      </trkpt>
      <trkpt lat="43.74368" lon="6.10737">
        <ele>414</ele>
        <time>2022-10-27T11:47:27Z</time>
      </trkpt>
      <trkpt lat="43.74379" lon="6.10735">
        <ele>412.6</ele>
        <time>2022-10-27T11:47:36Z</time>
      </trkpt>
      <trkpt lat="43.74389" lon="6.10731">
        <ele>412.2</ele>
        <time>2022-10-27T11:47:45Z</time>
      </trkpt>
      <trkpt lat="43.74398" lon="6.10727">
        <ele>413.1</ele>
        <time>2022-10-27T11:47:55Z</time>
      </trkpt>
      <trkpt lat="43.74408" lon="6.10725">
        <ele>413.4</ele>
        <time>2022-10-27T11:48:05Z</time>
      </trkpt>
      <trkpt lat="43.74418" lon="6.10725">
        <ele>412.8</ele>
        <time>2022-10-27T11:48:14Z</time>
      </trkpt>
      <trkpt lat="43.74425" lon="6.10716">
        <ele>412.7</ele>
        <time>2022-10-27T11:48:25Z</time>
      </trkpt>
      <trkpt lat="43.74429" lon="6.10704">
        <ele>413.2</ele>
        <time>2022-10-27T11:48:40Z</time>
      </trkpt>
      <trkpt lat="43.74437" lon="6.10692">
        <ele>412</ele>
        <time>2022-10-27T11:48:54Z</time>
      </trkpt>
      <trkpt lat="43.74441" lon="6.10674">
        <ele>410.2</ele>
        <time>2022-10-27T11:49:12Z</time>
      </trkpt>
      <trkpt lat="43.74435" lon="6.10655">
        <ele>409.6</ele>
        <time>2022-10-27T11:49:26Z</time>
      </trkpt>
      <trkpt lat="43.74426" lon="6.10643">
        <ele>410.5</ele>
        <time>2022-10-27T11:49:38Z</time>
      </trkpt>
      <trkpt lat="43.74416" lon="6.1063">
        <ele>411.9</ele>
        <time>2022-10-27T11:49:50Z</time>
      </trkpt>
      <trkpt lat="43.74412" lon="6.10615">
        <ele>411</ele>
        <time>2022-10-27T11:50:01Z</time>
      </trkpt>
      <trkpt lat="43.74403" lon="6.10604">
        <ele>411.5</ele>
        <time>2022-10-27T11:50:10Z</time>
      </trkpt>
      <trkpt lat="43.74395" lon="6.10597">
        <ele>412.9</ele>
        <time>2022-10-27T11:50:19Z</time>
      </trkpt>
      <trkpt lat="43.7439" lon="6.10585">
        <ele>412.8</ele>
        <time>2022-10-27T11:50:28Z</time>
      </trkpt>
      <trkpt lat="43.74385" lon="6.10573">
        <ele>411.4</ele>
        <time>2022-10-27T11:50:40Z</time>
      </trkpt>
      <trkpt lat="43.74381" lon="6.10558">
        <ele>409</ele>
        <time>2022-10-27T11:50:54Z</time>
      </trkpt>
      <trkpt lat="43.74377" lon="6.10545">
        <ele>408.9</ele>
        <time>2022-10-27T11:51:05Z</time>
      </trkpt>
      <trkpt lat="43.74381" lon="6.10532">
        <ele>406</ele>
        <time>2022-10-27T11:51:18Z</time>
      </trkpt>
      <trkpt lat="43.74375" lon="6.10519">
        <ele>406.4</ele>
        <time>2022-10-27T11:51:28Z</time>
      </trkpt>
      <trkpt lat="43.74369" lon="6.10505">
        <ele>405.7</ele>
        <time>2022-10-27T11:51:39Z</time>
      </trkpt>
      <trkpt lat="43.74363" lon="6.10491">
        <ele>405.4</ele>
        <time>2022-10-27T11:51:53Z</time>
      </trkpt>
      <trkpt lat="43.74356" lon="6.10477">
        <ele>406.8</ele>
        <time>2022-10-27T11:52:11Z</time>
      </trkpt>
      <trkpt lat="43.74347" lon="6.10469">
        <ele>409.2</ele>
        <time>2022-10-27T11:52:24Z</time>
      </trkpt>
      <trkpt lat="43.74339" lon="6.10461">
        <ele>411</ele>
        <time>2022-10-27T11:52:36Z</time>
      </trkpt>
      <trkpt lat="43.74335" lon="6.10446">
        <ele>410.6</ele>
        <time>2022-10-27T11:52:48Z</time>
      </trkpt>
      <trkpt lat="43.74329" lon="6.10434">
        <ele>410.9</ele>
        <time>2022-10-27T11:52:58Z</time>
      </trkpt>
      <trkpt lat="43.74326" lon="6.10421">
        <ele>409.8</ele>
        <time>2022-10-27T11:53:10Z</time>
      </trkpt>
      <trkpt lat="43.74319" lon="6.10408">
        <ele>410.5</ele>
        <time>2022-10-27T11:53:24Z</time>
      </trkpt>
      <trkpt lat="43.74312" lon="6.10393">
        <ele>409.6</ele>
        <time>2022-10-27T11:53:34Z</time>
      </trkpt>
      <trkpt lat="43.74309" lon="6.10381">
        <ele>410.1</ele>
        <time>2022-10-27T11:53:44Z</time>
      </trkpt>
      <trkpt lat="43.74306" lon="6.10371">
        <ele>411</ele>
        <time>2022-10-27T11:53:55Z</time>
      </trkpt>
      <trkpt lat="43.74301" lon="6.10361">
        <ele>412.2</ele>
        <time>2022-10-27T11:54:11Z</time>
      </trkpt>
      <trkpt lat="43.743" lon="6.1035">
        <ele>416.3</ele>
        <time>2022-10-27T11:54:35Z</time>
      </trkpt>
      <trkpt lat="43.74296" lon="6.10338">
        <ele>420.4</ele>
        <time>2022-10-27T11:54:59Z</time>
      </trkpt>
      <trkpt lat="43.74302" lon="6.10331">
        <ele>423.4</ele>
        <time>2022-10-27T11:55:18Z</time>
      </trkpt>
      <trkpt lat="43.74309" lon="6.10331">
        <ele>424.6</ele>
        <time>2022-10-27T11:55:39Z</time>
      </trkpt>
      <trkpt lat="43.74317" lon="6.10342">
        <ele>422.6</ele>
        <time>2022-10-27T11:55:50Z</time>
      </trkpt>
      <trkpt lat="43.74325" lon="6.10352">
        <ele>421</ele>
        <time>2022-10-27T11:56:00Z</time>
      </trkpt>
      <trkpt lat="43.74332" lon="6.10359">
        <ele>420.4</ele>
        <time>2022-10-27T11:56:09Z</time>
      </trkpt>
      <trkpt lat="43.74341" lon="6.10367">
        <ele>419.7</ele>
        <time>2022-10-27T11:56:18Z</time>
      </trkpt>
      <trkpt lat="43.7435" lon="6.10374">
        <ele>419.7</ele>
        <time>2022-10-27T11:56:28Z</time>
      </trkpt>
      <trkpt lat="43.74357" lon="6.10384">
        <ele>418.3</ele>
        <time>2022-10-27T11:56:38Z</time>
      </trkpt>
      <trkpt lat="43.74365" lon="6.10391">
        <ele>418</ele>
        <time>2022-10-27T11:56:52Z</time>
      </trkpt>
      <trkpt lat="43.74375" lon="6.10398">
        <ele>417.5</ele>
        <time>2022-10-27T11:57:05Z</time>
      </trkpt>
      <trkpt lat="43.74384" lon="6.10397">
        <ele>419.2</ele>
        <time>2022-10-27T11:57:25Z</time>
      </trkpt>
      <trkpt lat="43.74392" lon="6.1039">
        <ele>421.2</ele>
        <time>2022-10-27T11:57:46Z</time>
      </trkpt>
      <trkpt lat="43.74403" lon="6.10395">
        <ele>418.4</ele>
        <time>2022-10-27T11:57:57Z</time>
      </trkpt>
      <trkpt lat="43.7441" lon="6.10392">
        <ele>417.8</ele>
        <time>2022-10-27T11:58:07Z</time>
      </trkpt>
      <trkpt lat="43.74412" lon="6.10379">
        <ele>419</ele>
        <time>2022-10-27T11:58:18Z</time>
      </trkpt>
      <trkpt lat="43.74412" lon="6.10364">
        <ele>420.8</ele>
        <time>2022-10-27T11:58:30Z</time>
      </trkpt>
      <trkpt lat="43.74416" lon="6.10351">
        <ele>421.6</ele>
        <time>2022-10-27T11:58:41Z</time>
      </trkpt>
      <trkpt lat="43.7442" lon="6.10338">
        <ele>421.5</ele>
        <time>2022-10-27T11:58:53Z</time>
      </trkpt>
      <trkpt lat="43.74428" lon="6.10332">
        <ele>418.2</ele>
        <time>2022-10-27T11:59:07Z</time>
      </trkpt>
      <trkpt lat="43.74433" lon="6.10321">
        <ele>418.4</ele>
        <time>2022-10-27T11:59:15Z</time>
      </trkpt>
      <trkpt lat="43.74439" lon="6.10311">
        <ele>418.5</ele>
        <time>2022-10-27T11:59:25Z</time>
      </trkpt>
      <trkpt lat="43.74444" lon="6.10299">
        <ele>419.1</ele>
        <time>2022-10-27T11:59:35Z</time>
      </trkpt>
      <trkpt lat="43.74444" lon="6.10284">
        <ele>421.3</ele>
        <time>2022-10-27T11:59:46Z</time>
      </trkpt>
      <trkpt lat="43.7445" lon="6.10273">
        <ele>418.1</ele>
        <time>2022-10-27T11:59:57Z</time>
      </trkpt>
      <trkpt lat="43.74451" lon="6.10256">
        <ele>417.9</ele>
        <time>2022-10-27T12:00:11Z</time>
      </trkpt>
      <trkpt lat="43.74456" lon="6.10242">
        <ele>414.1</ele>
        <time>2022-10-27T12:00:24Z</time>
      </trkpt>
      <trkpt lat="43.74456" lon="6.10224">
        <ele>413.7</ele>
        <time>2022-10-27T12:00:37Z</time>
      </trkpt>
      <trkpt lat="43.7446" lon="6.10206">
        <ele>411.8</ele>
        <time>2022-10-27T12:00:50Z</time>
      </trkpt>
      <trkpt lat="43.74464" lon="6.1019">
        <ele>410.1</ele>
        <time>2022-10-27T12:01:00Z</time>
      </trkpt>
      <trkpt lat="43.74465" lon="6.10178">
        <ele>409.7</ele>
        <time>2022-10-27T12:01:11Z</time>
      </trkpt>
      <trkpt lat="43.74466" lon="6.10167">
        <ele>409.3</ele>
        <time>2022-10-27T12:01:26Z</time>
      </trkpt>
      <trkpt lat="43.74466" lon="6.10154">
        <ele>409.2</ele>
        <time>2022-10-27T12:01:41Z</time>
      </trkpt>
      <trkpt lat="43.74466" lon="6.10139">
        <ele>409</ele>
        <time>2022-10-27T12:01:53Z</time>
      </trkpt>
      <trkpt lat="43.74469" lon="6.10124">
        <ele>408.9</ele>
        <time>2022-10-27T12:02:11Z</time>
      </trkpt>
      <trkpt lat="43.74475" lon="6.10113">
        <ele>408.1</ele>
        <time>2022-10-27T12:02:31Z</time>
      </trkpt>
      <trkpt lat="43.74479" lon="6.10102">
        <ele>407</ele>
        <time>2022-10-27T12:03:07Z</time>
      </trkpt>
      <trkpt lat="43.74482" lon="6.10107">
        <ele>406.4</ele>
        <time>2022-10-27T12:03:43Z</time>
      </trkpt>
      <trkpt lat="43.74486" lon="6.10105">
        <ele>405.4</ele>
        <time>2022-10-27T12:05:36Z</time>
      </trkpt>
      <trkpt lat="43.74491" lon="6.10104">
        <ele>404.2</ele>
        <time>2022-10-27T12:06:40Z</time>
      </trkpt>
      <trkpt lat="43.745" lon="6.10104">
        <ele>402</ele>
        <time>2022-10-27T12:06:54Z</time>
      </trkpt>
      <trkpt lat="43.74508" lon="6.10107">
        <ele>402.7</ele>
        <time>2022-10-27T12:07:13Z</time>
      </trkpt>
      <trkpt lat="43.74517" lon="6.1011">
        <ele>403.8</ele>
        <time>2022-10-27T12:07:23Z</time>
      </trkpt>
      <trkpt lat="43.74524" lon="6.10117">
        <ele>404.6</ele>
        <time>2022-10-27T12:07:32Z</time>
      </trkpt>
      <trkpt lat="43.7453" lon="6.10126">
        <ele>404.8</ele>
        <time>2022-10-27T12:07:41Z</time>
      </trkpt>
      <trkpt lat="43.74537" lon="6.10134">
        <ele>404.3</ele>
        <time>2022-10-27T12:07:49Z</time>
      </trkpt>
      <trkpt lat="43.74543" lon="6.10144">
        <ele>404.7</ele>
        <time>2022-10-27T12:07:58Z</time>
      </trkpt>
      <trkpt lat="43.7455" lon="6.10153">
        <ele>405.8</ele>
        <time>2022-10-27T12:08:09Z</time>
      </trkpt>
      <trkpt lat="43.74549" lon="6.10162">
        <ele>407.4</ele>
        <time>2022-10-27T12:08:21Z</time>
      </trkpt>
      <trkpt lat="43.74542" lon="6.10164">
        <ele>408.1</ele>
        <time>2022-10-27T12:08:32Z</time>
      </trkpt>
      <trkpt lat="43.74538" lon="6.10177">
        <ele>409.9</ele>
        <time>2022-10-27T12:08:44Z</time>
      </trkpt>
      <trkpt lat="43.74535" lon="6.10191">
        <ele>411.6</ele>
        <time>2022-10-27T12:08:57Z</time>
      </trkpt>
      <trkpt lat="43.74532" lon="6.10204">
        <ele>413.2</ele>
        <time>2022-10-27T12:09:09Z</time>
      </trkpt>
      <trkpt lat="43.74529" lon="6.10217">
        <ele>414.5</ele>
        <time>2022-10-27T12:09:23Z</time>
      </trkpt>
      <trkpt lat="43.74526" lon="6.10231">
        <ele>414.9</ele>
        <time>2022-10-27T12:09:36Z</time>
      </trkpt>
      <trkpt lat="43.74521" lon="6.10244">
        <ele>414.1</ele>
        <time>2022-10-27T12:09:54Z</time>
      </trkpt>
      <trkpt lat="43.74519" lon="6.10257">
        <ele>414</ele>
        <time>2022-10-27T12:10:06Z</time>
      </trkpt>
      <trkpt lat="43.74522" lon="6.10269">
        <ele>415.5</ele>
        <time>2022-10-27T12:10:23Z</time>
      </trkpt>
      <trkpt lat="43.74519" lon="6.1028">
        <ele>414.6</ele>
        <time>2022-10-27T12:10:37Z</time>
      </trkpt>
      <trkpt lat="43.74512" lon="6.10308">
        <ele>413.5</ele>
        <time>2022-10-27T12:10:52Z</time>
      </trkpt>
      <trkpt lat="43.74509" lon="6.10323">
        <ele>413.3</ele>
        <time>2022-10-27T12:11:03Z</time>
      </trkpt>
      <trkpt lat="43.74505" lon="6.1034">
        <ele>413.2</ele>
        <time>2022-10-27T12:11:19Z</time>
      </trkpt>
      <trkpt lat="43.74502" lon="6.10351">
        <ele>413.4</ele>
        <time>2022-10-27T12:11:38Z</time>
      </trkpt>
      <trkpt lat="43.74492" lon="6.10371">
        <ele>414</ele>
        <time>2022-10-27T12:11:54Z</time>
      </trkpt>
      <trkpt lat="43.7448" lon="6.10395">
        <ele>414.1</ele>
        <time>2022-10-27T12:12:07Z</time>
      </trkpt>
      <trkpt lat="43.74478" lon="6.10413">
        <ele>412.5</ele>
        <time>2022-10-27T12:12:18Z</time>
      </trkpt>
      <trkpt lat="43.74477" lon="6.10427">
        <ele>409.8</ele>
        <time>2022-10-27T12:12:28Z</time>
      </trkpt>
      <trkpt lat="43.74478" lon="6.1044">
        <ele>407.4</ele>
        <time>2022-10-27T12:12:38Z</time>
      </trkpt>
      <trkpt lat="43.74484" lon="6.10445">
        <ele>407.9</ele>
        <time>2022-10-27T12:12:56Z</time>
      </trkpt>
      <trkpt lat="43.74488" lon="6.10453">
        <ele>407.2</ele>
        <time>2022-10-27T12:13:14Z</time>
      </trkpt>
      <trkpt lat="43.745" lon="6.10462">
        <ele>406.9</ele>
        <time>2022-10-27T12:13:27Z</time>
      </trkpt>
      <trkpt lat="43.74512" lon="6.10466">
        <ele>407.4</ele>
        <time>2022-10-27T12:13:40Z</time>
      </trkpt>
      <trkpt lat="43.74527" lon="6.10474">
        <ele>406.6</ele>
        <time>2022-10-27T12:13:52Z</time>
      </trkpt>
      <trkpt lat="43.74539" lon="6.10475">
        <ele>406.9</ele>
        <time>2022-10-27T12:14:01Z</time>
      </trkpt>
      <trkpt lat="43.74548" lon="6.10475">
        <ele>407.2</ele>
        <time>2022-10-27T12:14:14Z</time>
      </trkpt>
      <trkpt lat="43.74559" lon="6.10475">
        <ele>407.3</ele>
        <time>2022-10-27T12:14:28Z</time>
      </trkpt>
      <trkpt lat="43.74567" lon="6.10483">
        <ele>405.4</ele>
        <time>2022-10-27T12:14:45Z</time>
      </trkpt>
      <trkpt lat="43.74579" lon="6.10479">
        <ele>405.3</ele>
        <time>2022-10-27T12:14:58Z</time>
      </trkpt>
      <trkpt lat="43.74591" lon="6.10475">
        <ele>405.1</ele>
        <time>2022-10-27T12:15:08Z</time>
      </trkpt>
      <trkpt lat="43.746" lon="6.1047">
        <ele>405</ele>
        <time>2022-10-27T12:15:17Z</time>
      </trkpt>
      <trkpt lat="43.74604" lon="6.10455">
        <ele>406.4</ele>
        <time>2022-10-27T12:15:28Z</time>
      </trkpt>
      <trkpt lat="43.74611" lon="6.1044">
        <ele>407.5</ele>
        <time>2022-10-27T12:15:41Z</time>
      </trkpt>
      <trkpt lat="43.74621" lon="6.10425">
        <ele>407.9</ele>
        <time>2022-10-27T12:15:54Z</time>
      </trkpt>
      <trkpt lat="43.74629" lon="6.10415">
        <ele>408.2</ele>
        <time>2022-10-27T12:16:05Z</time>
      </trkpt>
      <trkpt lat="43.74637" lon="6.10404">
        <ele>408.6</ele>
        <time>2022-10-27T12:16:15Z</time>
      </trkpt>
      <trkpt lat="43.74641" lon="6.10391">
        <ele>409.6</ele>
        <time>2022-10-27T12:16:27Z</time>
      </trkpt>
      <trkpt lat="43.74649" lon="6.10378">
        <ele>411.1</ele>
        <time>2022-10-27T12:16:41Z</time>
      </trkpt>
      <trkpt lat="43.7466" lon="6.10375">
        <ele>410.6</ele>
        <time>2022-10-27T12:16:52Z</time>
      </trkpt>
      <trkpt lat="43.74674" lon="6.10386">
        <ele>409.6</ele>
        <time>2022-10-27T12:17:03Z</time>
      </trkpt>
      <trkpt lat="43.74676" lon="6.10401">
        <ele>409.4</ele>
        <time>2022-10-27T12:17:13Z</time>
      </trkpt>
      <trkpt lat="43.74675" lon="6.1042">
        <ele>408.8</ele>
        <time>2022-10-27T12:17:24Z</time>
      </trkpt>
      <trkpt lat="43.74676" lon="6.10435">
        <ele>408.8</ele>
        <time>2022-10-27T12:17:34Z</time>
      </trkpt>
      <trkpt lat="43.74675" lon="6.10452">
        <ele>408.1</ele>
        <time>2022-10-27T12:17:44Z</time>
      </trkpt>
      <trkpt lat="43.74678" lon="6.10475">
        <ele>407.5</ele>
        <time>2022-10-27T12:17:55Z</time>
      </trkpt>
      <trkpt lat="43.74681" lon="6.10487">
        <ele>407.3</ele>
        <time>2022-10-27T12:18:04Z</time>
      </trkpt>
      <trkpt lat="43.74689" lon="6.10501">
        <ele>407.4</ele>
        <time>2022-10-27T12:18:15Z</time>
      </trkpt>
      <trkpt lat="43.74698" lon="6.10516">
        <ele>408</ele>
        <time>2022-10-27T12:18:29Z</time>
      </trkpt>
      <trkpt lat="43.74695" lon="6.10537">
        <ele>407.4</ele>
        <time>2022-10-27T12:18:40Z</time>
      </trkpt>
      <trkpt lat="43.7469" lon="6.10553">
        <ele>407.4</ele>
        <time>2022-10-27T12:18:49Z</time>
      </trkpt>
      <trkpt lat="43.74691" lon="6.10568">
        <ele>407.6</ele>
        <time>2022-10-27T12:18:58Z</time>
      </trkpt>
      <trkpt lat="43.7469" lon="6.10584">
        <ele>407.5</ele>
        <time>2022-10-27T12:19:08Z</time>
      </trkpt>
      <trkpt lat="43.74688" lon="6.10601">
        <ele>407.6</ele>
        <time>2022-10-27T12:19:17Z</time>
      </trkpt>
      <trkpt lat="43.74691" lon="6.10617">
        <ele>408.2</ele>
        <time>2022-10-27T12:19:27Z</time>
      </trkpt>
      <trkpt lat="43.74691" lon="6.10631">
        <ele>407.8</ele>
        <time>2022-10-27T12:19:36Z</time>
      </trkpt>
      <trkpt lat="43.74693" lon="6.10644">
        <ele>407.2</ele>
        <time>2022-10-27T12:19:46Z</time>
      </trkpt>
      <trkpt lat="43.74702" lon="6.10656">
        <ele>407.3</ele>
        <time>2022-10-27T12:19:59Z</time>
      </trkpt>
      <trkpt lat="43.74713" lon="6.10665">
        <ele>407.3</ele>
        <time>2022-10-27T12:20:11Z</time>
      </trkpt>
      <trkpt lat="43.74724" lon="6.10668">
        <ele>407.9</ele>
        <time>2022-10-27T12:20:20Z</time>
      </trkpt>
      <trkpt lat="43.74735" lon="6.10673">
        <ele>408.1</ele>
        <time>2022-10-27T12:20:30Z</time>
      </trkpt>
      <trkpt lat="43.74746" lon="6.10675">
        <ele>408.8</ele>
        <time>2022-10-27T12:20:40Z</time>
      </trkpt>
      <trkpt lat="43.74756" lon="6.1068">
        <ele>408.7</ele>
        <time>2022-10-27T12:20:50Z</time>
      </trkpt>
      <trkpt lat="43.74767" lon="6.10684">
        <ele>408.7</ele>
        <time>2022-10-27T12:20:59Z</time>
      </trkpt>
      <trkpt lat="43.74778" lon="6.10689">
        <ele>408.4</ele>
        <time>2022-10-27T12:21:10Z</time>
      </trkpt>
      <trkpt lat="43.74788" lon="6.10694">
        <ele>407.9</ele>
        <time>2022-10-27T12:21:20Z</time>
      </trkpt>
      <trkpt lat="43.74801" lon="6.10698">
        <ele>408.2</ele>
        <time>2022-10-27T12:21:30Z</time>
      </trkpt>
      <trkpt lat="43.7481" lon="6.10702">
        <ele>408.2</ele>
        <time>2022-10-27T12:21:40Z</time>
      </trkpt>
      <trkpt lat="43.74822" lon="6.10704">
        <ele>408.8</ele>
        <time>2022-10-27T12:21:50Z</time>
      </trkpt>
      <trkpt lat="43.74837" lon="6.10709">
        <ele>409.1</ele>
        <time>2022-10-27T12:22:01Z</time>
      </trkpt>
      <trkpt lat="43.74846" lon="6.10712">
        <ele>409.1</ele>
        <time>2022-10-27T12:22:10Z</time>
      </trkpt>
      <trkpt lat="43.74857" lon="6.10718">
        <ele>408.6</ele>
        <time>2022-10-27T12:22:20Z</time>
      </trkpt>
      <trkpt lat="43.74871" lon="6.10727">
        <ele>408.3</ele>
        <time>2022-10-27T12:22:31Z</time>
      </trkpt>
      <trkpt lat="43.74885" lon="6.10736">
        <ele>408.3</ele>
        <time>2022-10-27T12:22:45Z</time>
      </trkpt>
      <trkpt lat="43.74897" lon="6.10745">
        <ele>408.1</ele>
        <time>2022-10-27T12:22:56Z</time>
      </trkpt>
      <trkpt lat="43.74909" lon="6.10755">
        <ele>408</ele>
        <time>2022-10-27T12:23:06Z</time>
      </trkpt>
      <trkpt lat="43.7492" lon="6.10761">
        <ele>407.9</ele>
        <time>2022-10-27T12:23:17Z</time>
      </trkpt>
      <trkpt lat="43.7493" lon="6.10766">
        <ele>407.8</ele>
        <time>2022-10-27T12:23:27Z</time>
      </trkpt>
      <trkpt lat="43.74941" lon="6.10778">
        <ele>406.9</ele>
        <time>2022-10-27T12:23:37Z</time>
      </trkpt>
      <trkpt lat="43.7495" lon="6.10786">
        <ele>406.7</ele>
        <time>2022-10-27T12:23:47Z</time>
      </trkpt>
      <trkpt lat="43.7496" lon="6.10791">
        <ele>406.5</ele>
        <time>2022-10-27T12:23:56Z</time>
      </trkpt>
      <trkpt lat="43.74969" lon="6.10794">
        <ele>406.4</ele>
        <time>2022-10-27T12:24:06Z</time>
      </trkpt>
      <trkpt lat="43.74979" lon="6.10798">
        <ele>406.4</ele>
        <time>2022-10-27T12:24:18Z</time>
      </trkpt>
      <trkpt lat="43.74991" lon="6.10798">
        <ele>406.8</ele>
        <time>2022-10-27T12:24:29Z</time>
      </trkpt>
      <trkpt lat="43.75003" lon="6.108">
        <ele>407.5</ele>
        <time>2022-10-27T12:24:41Z</time>
      </trkpt>
      <trkpt lat="43.75012" lon="6.10803">
        <ele>409</ele>
        <time>2022-10-27T12:24:51Z</time>
      </trkpt>
      <trkpt lat="43.75022" lon="6.10806">
        <ele>410.9</ele>
        <time>2022-10-27T12:25:01Z</time>
      </trkpt>
      <trkpt lat="43.75032" lon="6.10811">
        <ele>411.6</ele>
        <time>2022-10-27T12:25:12Z</time>
      </trkpt>
      <trkpt lat="43.7504" lon="6.10818">
        <ele>411.8</ele>
        <time>2022-10-27T12:25:23Z</time>
      </trkpt>
      <trkpt lat="43.75047" lon="6.10826">
        <ele>412.8</ele>
        <time>2022-10-27T12:25:36Z</time>
      </trkpt>
      <trkpt lat="43.75055" lon="6.10835">
        <ele>414.8</ele>
        <time>2022-10-27T12:25:46Z</time>
      </trkpt>
      <trkpt lat="43.75061" lon="6.10844">
        <ele>414.7</ele>
        <time>2022-10-27T12:25:55Z</time>
      </trkpt>
      <trkpt lat="43.75064" lon="6.10854">
        <ele>414.5</ele>
        <time>2022-10-27T12:26:08Z</time>
      </trkpt>
      <trkpt lat="43.75069" lon="6.10865">
        <ele>415.2</ele>
        <time>2022-10-27T12:26:25Z</time>
      </trkpt>
      <trkpt lat="43.75067" lon="6.10869">
        <ele>415.2</ele>
        <time>2022-10-27T12:27:59Z</time>
      </trkpt>
      <trkpt lat="43.75064" lon="6.10875">
        <ele>415.2</ele>
        <time>2022-10-27T12:29:56Z</time>
      </trkpt>
      <trkpt lat="43.75067" lon="6.10869">
        <ele>415.2</ele>
        <time>2022-10-27T12:30:55Z</time>
      </trkpt>
      <trkpt lat="43.75061" lon="6.10882">
        <ele>415.3</ele>
        <time>2022-10-27T12:32:44Z</time>
      </trkpt>
      <trkpt lat="43.7505" lon="6.10885">
        <ele>414.6</ele>
        <time>2022-10-27T12:32:54Z</time>
      </trkpt>
      <trkpt lat="43.75041" lon="6.10883">
        <ele>414.2</ele>
        <time>2022-10-27T12:33:09Z</time>
      </trkpt>
      <trkpt lat="43.75032" lon="6.10874">
        <ele>412.6</ele>
        <time>2022-10-27T12:33:19Z</time>
      </trkpt>
      <trkpt lat="43.75024" lon="6.10864">
        <ele>411</ele>
        <time>2022-10-27T12:33:30Z</time>
      </trkpt>
      <trkpt lat="43.75012" lon="6.10859">
        <ele>412</ele>
        <time>2022-10-27T12:33:41Z</time>
      </trkpt>
      <trkpt lat="43.74999" lon="6.10855">
        <ele>412.7</ele>
        <time>2022-10-27T12:33:54Z</time>
      </trkpt>
      <trkpt lat="43.74986" lon="6.10856">
        <ele>413.2</ele>
        <time>2022-10-27T12:34:11Z</time>
      </trkpt>
      <trkpt lat="43.74975" lon="6.10858">
        <ele>414</ele>
        <time>2022-10-27T12:34:25Z</time>
      </trkpt>
      <trkpt lat="43.74959" lon="6.1086">
        <ele>414.6</ele>
        <time>2022-10-27T12:34:44Z</time>
      </trkpt>
      <trkpt lat="43.74954" lon="6.10852">
        <ele>411.9</ele>
        <time>2022-10-27T12:35:37Z</time>
      </trkpt>
      <trkpt lat="43.74944" lon="6.10842">
        <ele>408.1</ele>
        <time>2022-10-27T12:35:57Z</time>
      </trkpt>
      <trkpt lat="43.74933" lon="6.10835">
        <ele>405.6</ele>
        <time>2022-10-27T12:36:11Z</time>
      </trkpt>
      <trkpt lat="43.74923" lon="6.10836">
        <ele>406</ele>
        <time>2022-10-27T12:36:28Z</time>
      </trkpt>
      <trkpt lat="43.74914" lon="6.10835">
        <ele>405.6</ele>
        <time>2022-10-27T12:36:48Z</time>
      </trkpt>
      <trkpt lat="43.74901" lon="6.10839">
        <ele>407.3</ele>
        <time>2022-10-27T12:37:06Z</time>
      </trkpt>
      <trkpt lat="43.74888" lon="6.10834">
        <ele>405.3</ele>
        <time>2022-10-27T12:37:25Z</time>
      </trkpt>
      <trkpt lat="43.74878" lon="6.1083">
        <ele>404.8</ele>
        <time>2022-10-27T12:37:37Z</time>
      </trkpt>
      <trkpt lat="43.74868" lon="6.10829">
        <ele>404.7</ele>
        <time>2022-10-27T12:37:52Z</time>
      </trkpt>
      <trkpt lat="43.74859" lon="6.10832">
        <ele>405</ele>
        <time>2022-10-27T12:38:14Z</time>
      </trkpt>
      <trkpt lat="43.74852" lon="6.10839">
        <ele>408</ele>
        <time>2022-10-27T12:38:39Z</time>
      </trkpt>
      <trkpt lat="43.7484" lon="6.10839">
        <ele>408.9</ele>
        <time>2022-10-27T12:38:56Z</time>
      </trkpt>
      <trkpt lat="43.74828" lon="6.1084">
        <ele>409.8</ele>
        <time>2022-10-27T12:39:09Z</time>
      </trkpt>
      <trkpt lat="43.74817" lon="6.10838">
        <ele>408.9</ele>
        <time>2022-10-27T12:39:22Z</time>
      </trkpt>
      <trkpt lat="43.74802" lon="6.10839">
        <ele>409.5</ele>
        <time>2022-10-27T12:39:37Z</time>
      </trkpt>
      <trkpt lat="43.74792" lon="6.10838">
        <ele>409.7</ele>
        <time>2022-10-27T12:39:55Z</time>
      </trkpt>
      <trkpt lat="43.74779" lon="6.10836">
        <ele>409.9</ele>
        <time>2022-10-27T12:40:08Z</time>
      </trkpt>
      <trkpt lat="43.74767" lon="6.10837">
        <ele>410.8</ele>
        <time>2022-10-27T12:40:22Z</time>
      </trkpt>
      <trkpt lat="43.74753" lon="6.10835">
        <ele>410.6</ele>
        <time>2022-10-27T12:40:36Z</time>
      </trkpt>
      <trkpt lat="43.7474" lon="6.10834">
        <ele>410.6</ele>
        <time>2022-10-27T12:40:50Z</time>
      </trkpt>
      <trkpt lat="43.74726" lon="6.10834">
        <ele>411.1</ele>
        <time>2022-10-27T12:41:05Z</time>
      </trkpt>
      <trkpt lat="43.7471" lon="6.10841">
        <ele>413.2</ele>
        <time>2022-10-27T12:41:24Z</time>
      </trkpt>
      <trkpt lat="43.74703" lon="6.10848">
        <ele>415.2</ele>
        <time>2022-10-27T12:41:36Z</time>
      </trkpt>
      <trkpt lat="43.74694" lon="6.10844">
        <ele>413.4</ele>
        <time>2022-10-27T12:42:05Z</time>
      </trkpt>
      <trkpt lat="43.74682" lon="6.10849">
        <ele>413.5</ele>
        <time>2022-10-27T12:42:21Z</time>
      </trkpt>
      <trkpt lat="43.74669" lon="6.10855">
        <ele>414.1</ele>
        <time>2022-10-27T12:42:38Z</time>
      </trkpt>
      <trkpt lat="43.7466" lon="6.10863">
        <ele>415.3</ele>
        <time>2022-10-27T12:42:53Z</time>
      </trkpt>
      <trkpt lat="43.7465" lon="6.10882">
        <ele>417.8</ele>
        <time>2022-10-27T12:43:11Z</time>
      </trkpt>
      <trkpt lat="43.7465" lon="6.10893">
        <ele>420.3</ele>
        <time>2022-10-27T12:43:30Z</time>
      </trkpt>
      <trkpt lat="43.74645" lon="6.10904">
        <ele>421.2</ele>
        <time>2022-10-27T12:44:09Z</time>
      </trkpt>
      <trkpt lat="43.74642" lon="6.1092">
        <ele>423.1</ele>
        <time>2022-10-27T12:44:28Z</time>
      </trkpt>
      <trkpt lat="43.74638" lon="6.10937">
        <ele>424.8</ele>
        <time>2022-10-27T12:44:40Z</time>
      </trkpt>
      <trkpt lat="43.74635" lon="6.10952">
        <ele>424.9</ele>
        <time>2022-10-27T12:44:50Z</time>
      </trkpt>
      <trkpt lat="43.74637" lon="6.10965">
        <ele>427.2</ele>
        <time>2022-10-27T12:45:04Z</time>
      </trkpt>
      <trkpt lat="43.74632" lon="6.10982">
        <ele>424.7</ele>
        <time>2022-10-27T12:45:18Z</time>
      </trkpt>
      <trkpt lat="43.74632" lon="6.10995">
        <ele>424.9</ele>
        <time>2022-10-27T12:45:41Z</time>
      </trkpt>
      <trkpt lat="43.74631" lon="6.11012">
        <ele>424.9</ele>
        <time>2022-10-27T12:45:54Z</time>
      </trkpt>
      <trkpt lat="43.74626" lon="6.11028">
        <ele>423.5</ele>
        <time>2022-10-27T12:46:08Z</time>
      </trkpt>
      <trkpt lat="43.7463" lon="6.11046">
        <ele>426.2</ele>
        <time>2022-10-27T12:46:23Z</time>
      </trkpt>
      <trkpt lat="43.74631" lon="6.11063">
        <ele>427.1</ele>
        <time>2022-10-27T12:46:35Z</time>
      </trkpt>
      <trkpt lat="43.74635" lon="6.11079">
        <ele>428.6</ele>
        <time>2022-10-27T12:46:46Z</time>
      </trkpt>
      <trkpt lat="43.74634" lon="6.11096">
        <ele>428.1</ele>
        <time>2022-10-27T12:46:58Z</time>
      </trkpt>
      <trkpt lat="43.74636" lon="6.11113">
        <ele>428.2</ele>
        <time>2022-10-27T12:47:11Z</time>
      </trkpt>
      <trkpt lat="43.74635" lon="6.11131">
        <ele>427.2</ele>
        <time>2022-10-27T12:47:23Z</time>
      </trkpt>
      <trkpt lat="43.74643" lon="6.11147">
        <ele>429</ele>
        <time>2022-10-27T12:47:39Z</time>
      </trkpt>
      <trkpt lat="43.74643" lon="6.11163">
        <ele>427.8</ele>
        <time>2022-10-27T12:47:49Z</time>
      </trkpt>
      <trkpt lat="43.74646" lon="6.11179">
        <ele>428.7</ele>
        <time>2022-10-27T12:48:01Z</time>
      </trkpt>
      <trkpt lat="43.74648" lon="6.11196">
        <ele>429.6</ele>
        <time>2022-10-27T12:48:12Z</time>
      </trkpt>
      <trkpt lat="43.74647" lon="6.1121">
        <ele>429.4</ele>
        <time>2022-10-27T12:48:22Z</time>
      </trkpt>
      <trkpt lat="43.74649" lon="6.11225">
        <ele>430.1</ele>
        <time>2022-10-27T12:48:32Z</time>
      </trkpt>
      <trkpt lat="43.74651" lon="6.11238">
        <ele>429.5</ele>
        <time>2022-10-27T12:48:41Z</time>
      </trkpt>
      <trkpt lat="43.74651" lon="6.11252">
        <ele>428</ele>
        <time>2022-10-27T12:48:50Z</time>
      </trkpt>
      <trkpt lat="43.74653" lon="6.11267">
        <ele>427</ele>
        <time>2022-10-27T12:49:00Z</time>
      </trkpt>
      <trkpt lat="43.74653" lon="6.11281">
        <ele>425.3</ele>
        <time>2022-10-27T12:49:10Z</time>
      </trkpt>
      <trkpt lat="43.74655" lon="6.11295">
        <ele>424.9</ele>
        <time>2022-10-27T12:49:21Z</time>
      </trkpt>
      <trkpt lat="43.7466" lon="6.11301">
        <ele>427.3</ele>
        <time>2022-10-27T12:49:56Z</time>
      </trkpt>
      <trkpt lat="43.74663" lon="6.11313">
        <ele>427.5</ele>
        <time>2022-10-27T12:50:11Z</time>
      </trkpt>
      <trkpt lat="43.74666" lon="6.11327">
        <ele>426.8</ele>
        <time>2022-10-27T12:50:29Z</time>
      </trkpt>
      <trkpt lat="43.74674" lon="6.11338">
        <ele>429</ele>
        <time>2022-10-27T12:51:10Z</time>
      </trkpt>
      <trkpt lat="43.74665" lon="6.11349">
        <ele>426.7</ele>
        <time>2022-10-27T12:51:25Z</time>
      </trkpt>
      <trkpt lat="43.74663" lon="6.11364">
        <ele>426.6</ele>
        <time>2022-10-27T12:51:39Z</time>
      </trkpt>
      <trkpt lat="43.74666" lon="6.11378">
        <ele>429.6</ele>
        <time>2022-10-27T12:51:59Z</time>
      </trkpt>
      <trkpt lat="43.74664" lon="6.11392">
        <ele>428.3</ele>
        <time>2022-10-27T12:52:08Z</time>
      </trkpt>
      <trkpt lat="43.74663" lon="6.11406">
        <ele>427.7</ele>
        <time>2022-10-27T12:52:18Z</time>
      </trkpt>
      <trkpt lat="43.74662" lon="6.11422">
        <ele>427</ele>
        <time>2022-10-27T12:52:27Z</time>
      </trkpt>
      <trkpt lat="43.74661" lon="6.11437">
        <ele>425.9</ele>
        <time>2022-10-27T12:52:36Z</time>
      </trkpt>
      <trkpt lat="43.74662" lon="6.11451">
        <ele>427.2</ele>
        <time>2022-10-27T12:52:58Z</time>
      </trkpt>
      <trkpt lat="43.74661" lon="6.11465">
        <ele>426.5</ele>
        <time>2022-10-27T12:53:09Z</time>
      </trkpt>
      <trkpt lat="43.74657" lon="6.11481">
        <ele>423.9</ele>
        <time>2022-10-27T12:53:19Z</time>
      </trkpt>
      <trkpt lat="43.74656" lon="6.11495">
        <ele>425.9</ele>
        <time>2022-10-27T12:53:27Z</time>
      </trkpt>
      <trkpt lat="43.74652" lon="6.11511">
        <ele>427</ele>
        <time>2022-10-27T12:53:37Z</time>
      </trkpt>
      <trkpt lat="43.74652" lon="6.11521">
        <ele>429.7</ele>
        <time>2022-10-27T12:54:19Z</time>
      </trkpt>
      <trkpt lat="43.74643" lon="6.11534">
        <ele>428.7</ele>
        <time>2022-10-27T12:54:29Z</time>
      </trkpt>
      <trkpt lat="43.74638" lon="6.11547">
        <ele>429.1</ele>
        <time>2022-10-27T12:54:39Z</time>
      </trkpt>
      <trkpt lat="43.74633" lon="6.1156">
        <ele>427.3</ele>
        <time>2022-10-27T12:54:48Z</time>
      </trkpt>
      <trkpt lat="43.74627" lon="6.11576">
        <ele>423.6</ele>
        <time>2022-10-27T12:54:57Z</time>
      </trkpt>
      <trkpt lat="43.74627" lon="6.1159">
        <ele>426.2</ele>
        <time>2022-10-27T12:55:06Z</time>
      </trkpt>
      <trkpt lat="43.74626" lon="6.11602">
        <ele>428.9</ele>
        <time>2022-10-27T12:55:21Z</time>
      </trkpt>
      <trkpt lat="43.74628" lon="6.11614">
        <ele>432.1</ele>
        <time>2022-10-27T12:55:45Z</time>
      </trkpt>
      <trkpt lat="43.74618" lon="6.11619">
        <ele>433</ele>
        <time>2022-10-27T12:55:58Z</time>
      </trkpt>
      <trkpt lat="43.74609" lon="6.1162">
        <ele>432</ele>
        <time>2022-10-27T12:56:14Z</time>
      </trkpt>
      <trkpt lat="43.74597" lon="6.1162">
        <ele>424.8</ele>
        <time>2022-10-27T12:56:28Z</time>
      </trkpt>
      <trkpt lat="43.74591" lon="6.11631">
        <ele>428.9</ele>
        <time>2022-10-27T12:56:43Z</time>
      </trkpt>
      <trkpt lat="43.74582" lon="6.11642">
        <ele>432.6</ele>
        <time>2022-10-27T12:56:59Z</time>
      </trkpt>
      <trkpt lat="43.74574" lon="6.11655">
        <ele>430.5</ele>
        <time>2022-10-27T12:57:10Z</time>
      </trkpt>
      <trkpt lat="43.74564" lon="6.11659">
        <ele>425.5</ele>
        <time>2022-10-27T12:57:23Z</time>
      </trkpt>
      <trkpt lat="43.74555" lon="6.11673">
        <ele>428.4</ele>
        <time>2022-10-27T12:57:38Z</time>
      </trkpt>
      <trkpt lat="43.74548" lon="6.11684">
        <ele>432.2</ele>
        <time>2022-10-27T12:57:51Z</time>
      </trkpt>
      <trkpt lat="43.74537" lon="6.11691">
        <ele>432.3</ele>
        <time>2022-10-27T12:58:05Z</time>
      </trkpt>
      <trkpt lat="43.74526" lon="6.11698">
        <ele>432.5</ele>
        <time>2022-10-27T12:58:20Z</time>
      </trkpt>
      <trkpt lat="43.74517" lon="6.11705">
        <ele>433.8</ele>
        <time>2022-10-27T12:58:33Z</time>
      </trkpt>
      <trkpt lat="43.74506" lon="6.11713">
        <ele>435.8</ele>
        <time>2022-10-27T12:58:45Z</time>
      </trkpt>
      <trkpt lat="43.74496" lon="6.11723">
        <ele>440.8</ele>
        <time>2022-10-27T12:58:59Z</time>
      </trkpt>
      <trkpt lat="43.74487" lon="6.11731">
        <ele>444</ele>
        <time>2022-10-27T12:59:13Z</time>
      </trkpt>
      <trkpt lat="43.74477" lon="6.11731">
        <ele>442.7</ele>
        <time>2022-10-27T12:59:25Z</time>
      </trkpt>
      <trkpt lat="43.74466" lon="6.11734">
        <ele>443.8</ele>
        <time>2022-10-27T12:59:38Z</time>
      </trkpt>
      <trkpt lat="43.74453" lon="6.11738">
        <ele>445.5</ele>
        <time>2022-10-27T12:59:54Z</time>
      </trkpt>
      <trkpt lat="43.74446" lon="6.11746">
        <ele>448.5</ele>
        <time>2022-10-27T13:00:09Z</time>
      </trkpt>
      <trkpt lat="43.74437" lon="6.11753">
        <ele>451.3</ele>
        <time>2022-10-27T13:00:23Z</time>
      </trkpt>
      <trkpt lat="43.74426" lon="6.11755">
        <ele>451.9</ele>
        <time>2022-10-27T13:00:37Z</time>
      </trkpt>
      <trkpt lat="43.74414" lon="6.11767">
        <ele>455.5</ele>
        <time>2022-10-27T13:00:53Z</time>
      </trkpt>
      <trkpt lat="43.74405" lon="6.11765">
        <ele>454.7</ele>
        <time>2022-10-27T13:01:07Z</time>
      </trkpt>
      <trkpt lat="43.74393" lon="6.11765">
        <ele>454.5</ele>
        <time>2022-10-27T13:01:19Z</time>
      </trkpt>
      <trkpt lat="43.74382" lon="6.11764">
        <ele>454.5</ele>
        <time>2022-10-27T13:01:31Z</time>
      </trkpt>
      <trkpt lat="43.74371" lon="6.11766">
        <ele>456</ele>
        <time>2022-10-27T13:01:43Z</time>
      </trkpt>
      <trkpt lat="43.74362" lon="6.11777">
        <ele>459.7</ele>
        <time>2022-10-27T13:01:58Z</time>
      </trkpt>
      <trkpt lat="43.74353" lon="6.11782">
        <ele>461.6</ele>
        <time>2022-10-27T13:02:12Z</time>
      </trkpt>
      <trkpt lat="43.74345" lon="6.11787">
        <ele>463.2</ele>
        <time>2022-10-27T13:02:27Z</time>
      </trkpt>
      <trkpt lat="43.74342" lon="6.11787">
        <ele>463.2</ele>
        <time>2022-10-27T13:03:47Z</time>
      </trkpt>
      <trkpt lat="43.74343" lon="6.11787">
        <ele>463.2</ele>
        <time>2022-10-27T13:05:37Z</time>
      </trkpt>
      <trkpt lat="43.74342" lon="6.11786">
        <ele>462.9</ele>
        <time>2022-10-27T13:06:37Z</time>
      </trkpt>
      <trkpt lat="43.74332" lon="6.11785">
        <ele>463.1</ele>
        <time>2022-10-27T13:06:56Z</time>
      </trkpt>
      <trkpt lat="43.74322" lon="6.11786">
        <ele>465.4</ele>
        <time>2022-10-27T13:07:08Z</time>
      </trkpt>
      <trkpt lat="43.74314" lon="6.11777">
        <ele>464.3</ele>
        <time>2022-10-27T13:07:22Z</time>
      </trkpt>
      <trkpt lat="43.74307" lon="6.11778">
        <ele>465.8</ele>
        <time>2022-10-27T13:07:36Z</time>
      </trkpt>
      <trkpt lat="43.74297" lon="6.11784">
        <ele>468.7</ele>
        <time>2022-10-27T13:07:52Z</time>
      </trkpt>
      <trkpt lat="43.74288" lon="6.11782">
        <ele>468.7</ele>
        <time>2022-10-27T13:08:04Z</time>
      </trkpt>
      <trkpt lat="43.74277" lon="6.1178">
        <ele>468.9</ele>
        <time>2022-10-27T13:08:19Z</time>
      </trkpt>
      <trkpt lat="43.74263" lon="6.11779">
        <ele>470</ele>
        <time>2022-10-27T13:08:30Z</time>
      </trkpt>
      <trkpt lat="43.74252" lon="6.1178">
        <ele>471.5</ele>
        <time>2022-10-27T13:08:41Z</time>
      </trkpt>
      <trkpt lat="43.74242" lon="6.11777">
        <ele>472.5</ele>
        <time>2022-10-27T13:08:52Z</time>
      </trkpt>
      <trkpt lat="43.74231" lon="6.11774">
        <ele>474.1</ele>
        <time>2022-10-27T13:09:04Z</time>
      </trkpt>
      <trkpt lat="43.74222" lon="6.11775">
        <ele>476.2</ele>
        <time>2022-10-27T13:09:19Z</time>
      </trkpt>
      <trkpt lat="43.74213" lon="6.11786">
        <ele>479.4</ele>
        <time>2022-10-27T13:09:35Z</time>
      </trkpt>
      <trkpt lat="43.74205" lon="6.11793">
        <ele>481.4</ele>
        <time>2022-10-27T13:09:52Z</time>
      </trkpt>
      <trkpt lat="43.74196" lon="6.11802">
        <ele>484</ele>
        <time>2022-10-27T13:10:12Z</time>
      </trkpt>
      <trkpt lat="43.74185" lon="6.11811">
        <ele>485.8</ele>
        <time>2022-10-27T13:10:27Z</time>
      </trkpt>
      <trkpt lat="43.74176" lon="6.11819">
        <ele>487.2</ele>
        <time>2022-10-27T13:10:42Z</time>
      </trkpt>
      <trkpt lat="43.74171" lon="6.11831">
        <ele>490.1</ele>
        <time>2022-10-27T13:10:57Z</time>
      </trkpt>
      <trkpt lat="43.74167" lon="6.11844">
        <ele>492.4</ele>
        <time>2022-10-27T13:11:12Z</time>
      </trkpt>
      <trkpt lat="43.74163" lon="6.11857">
        <ele>494</ele>
        <time>2022-10-27T13:11:30Z</time>
      </trkpt>
      <trkpt lat="43.74155" lon="6.11865">
        <ele>494.4</ele>
        <time>2022-10-27T13:11:43Z</time>
      </trkpt>
      <trkpt lat="43.74148" lon="6.11876">
        <ele>495.4</ele>
        <time>2022-10-27T13:11:58Z</time>
      </trkpt>
      <trkpt lat="43.74143" lon="6.11886">
        <ele>496.4</ele>
        <time>2022-10-27T13:12:11Z</time>
      </trkpt>
      <trkpt lat="43.74137" lon="6.11899">
        <ele>497.2</ele>
        <time>2022-10-27T13:12:24Z</time>
      </trkpt>
      <trkpt lat="43.74131" lon="6.11911">
        <ele>498.2</ele>
        <time>2022-10-27T13:12:39Z</time>
      </trkpt>
      <trkpt lat="43.74124" lon="6.11923">
        <ele>499.5</ele>
        <time>2022-10-27T13:12:52Z</time>
      </trkpt>
      <trkpt lat="43.74117" lon="6.11936">
        <ele>500.3</ele>
        <time>2022-10-27T13:13:06Z</time>
      </trkpt>
      <trkpt lat="43.74111" lon="6.11949">
        <ele>500.7</ele>
        <time>2022-10-27T13:13:18Z</time>
      </trkpt>
      <trkpt lat="43.74105" lon="6.11964">
        <ele>500.8</ele>
        <time>2022-10-27T13:13:30Z</time>
      </trkpt>
      <trkpt lat="43.74099" lon="6.11978">
        <ele>502.6</ele>
        <time>2022-10-27T13:13:42Z</time>
      </trkpt>
      <trkpt lat="43.74093" lon="6.11992">
        <ele>503.3</ele>
        <time>2022-10-27T13:13:53Z</time>
      </trkpt>
      <trkpt lat="43.74087" lon="6.12006">
        <ele>504.1</ele>
        <time>2022-10-27T13:14:05Z</time>
      </trkpt>
      <trkpt lat="43.74085" lon="6.12019">
        <ele>505.9</ele>
        <time>2022-10-27T13:14:19Z</time>
      </trkpt>
      <trkpt lat="43.74079" lon="6.12031">
        <ele>506.4</ele>
        <time>2022-10-27T13:14:31Z</time>
      </trkpt>
      <trkpt lat="43.74074" lon="6.12046">
        <ele>507.1</ele>
        <time>2022-10-27T13:14:41Z</time>
      </trkpt>
      <trkpt lat="43.74071" lon="6.12058">
        <ele>507.8</ele>
        <time>2022-10-27T13:14:52Z</time>
      </trkpt>
      <trkpt lat="43.7407" lon="6.12071">
        <ele>509.4</ele>
        <time>2022-10-27T13:15:03Z</time>
      </trkpt>
      <trkpt lat="43.74067" lon="6.12085">
        <ele>510.4</ele>
        <time>2022-10-27T13:15:14Z</time>
      </trkpt>
      <trkpt lat="43.74063" lon="6.12098">
        <ele>511.3</ele>
        <time>2022-10-27T13:15:27Z</time>
      </trkpt>
      <trkpt lat="43.74057" lon="6.1211">
        <ele>511.3</ele>
        <time>2022-10-27T13:15:39Z</time>
      </trkpt>
      <trkpt lat="43.7405" lon="6.12121">
        <ele>511.6</ele>
        <time>2022-10-27T13:15:52Z</time>
      </trkpt>
      <trkpt lat="43.74043" lon="6.12131">
        <ele>512</ele>
        <time>2022-10-27T13:16:07Z</time>
      </trkpt>
      <trkpt lat="43.74038" lon="6.12146">
        <ele>514.4</ele>
        <time>2022-10-27T13:16:22Z</time>
      </trkpt>
      <trkpt lat="43.74033" lon="6.12161">
        <ele>515.7</ele>
        <time>2022-10-27T13:16:35Z</time>
      </trkpt>
      <trkpt lat="43.74027" lon="6.12177">
        <ele>514.6</ele>
        <time>2022-10-27T13:16:48Z</time>
      </trkpt>
      <trkpt lat="43.74022" lon="6.12194">
        <ele>514</ele>
        <time>2022-10-27T13:17:00Z</time>
      </trkpt>
      <trkpt lat="43.74021" lon="6.12212">
        <ele>516.9</ele>
        <time>2022-10-27T13:17:12Z</time>
      </trkpt>
      <trkpt lat="43.74015" lon="6.12227">
        <ele>517.1</ele>
        <time>2022-10-27T13:17:27Z</time>
      </trkpt>
      <trkpt lat="43.74012" lon="6.12242">
        <ele>519.4</ele>
        <time>2022-10-27T13:17:40Z</time>
      </trkpt>
      <trkpt lat="43.74003" lon="6.12254">
        <ele>519.2</ele>
        <time>2022-10-27T13:17:53Z</time>
      </trkpt>
      <trkpt lat="43.73995" lon="6.12267">
        <ele>519.9</ele>
        <time>2022-10-27T13:18:05Z</time>
      </trkpt>
      <trkpt lat="43.73988" lon="6.12281">
        <ele>521.7</ele>
        <time>2022-10-27T13:18:18Z</time>
      </trkpt>
      <trkpt lat="43.73986" lon="6.12297">
        <ele>524.3</ele>
        <time>2022-10-27T13:18:33Z</time>
      </trkpt>
      <trkpt lat="43.73983" lon="6.12309">
        <ele>525.8</ele>
        <time>2022-10-27T13:18:47Z</time>
      </trkpt>
      <trkpt lat="43.73976" lon="6.12323">
        <ele>525.4</ele>
        <time>2022-10-27T13:19:02Z</time>
      </trkpt>
      <trkpt lat="43.73967" lon="6.12336">
        <ele>525</ele>
        <time>2022-10-27T13:19:15Z</time>
      </trkpt>
      <trkpt lat="43.7396" lon="6.12351">
        <ele>525.8</ele>
        <time>2022-10-27T13:19:29Z</time>
      </trkpt>
      <trkpt lat="43.73955" lon="6.12364">
        <ele>526.1</ele>
        <time>2022-10-27T13:19:42Z</time>
      </trkpt>
      <trkpt lat="43.73952" lon="6.12377">
        <ele>526</ele>
        <time>2022-10-27T13:19:53Z</time>
      </trkpt>
      <trkpt lat="43.73949" lon="6.12393">
        <ele>526.1</ele>
        <time>2022-10-27T13:20:05Z</time>
      </trkpt>
      <trkpt lat="43.73945" lon="6.12409">
        <ele>527.1</ele>
        <time>2022-10-27T13:20:17Z</time>
      </trkpt>
      <trkpt lat="43.73943" lon="6.12424">
        <ele>528.3</ele>
        <time>2022-10-27T13:20:28Z</time>
      </trkpt>
      <trkpt lat="43.73942" lon="6.12437">
        <ele>529.8</ele>
        <time>2022-10-27T13:20:40Z</time>
      </trkpt>
      <trkpt lat="43.73941" lon="6.12452">
        <ele>531.2</ele>
        <time>2022-10-27T13:20:51Z</time>
      </trkpt>
      <trkpt lat="43.7394" lon="6.12468">
        <ele>532.6</ele>
        <time>2022-10-27T13:21:02Z</time>
      </trkpt>
      <trkpt lat="43.73939" lon="6.12482">
        <ele>532.8</ele>
        <time>2022-10-27T13:21:14Z</time>
      </trkpt>
      <trkpt lat="43.73937" lon="6.12497">
        <ele>532.3</ele>
        <time>2022-10-27T13:21:24Z</time>
      </trkpt>
      <trkpt lat="43.73943" lon="6.12509">
        <ele>533.5</ele>
        <time>2022-10-27T13:21:36Z</time>
      </trkpt>
      <trkpt lat="43.73947" lon="6.12522">
        <ele>533.4</ele>
        <time>2022-10-27T13:21:53Z</time>
      </trkpt>
      <trkpt lat="43.73951" lon="6.12536">
        <ele>534.3</ele>
        <time>2022-10-27T13:22:09Z</time>
      </trkpt>
      <trkpt lat="43.73958" lon="6.12548">
        <ele>536.4</ele>
        <time>2022-10-27T13:22:23Z</time>
      </trkpt>
      <trkpt lat="43.73961" lon="6.12562">
        <ele>537.8</ele>
        <time>2022-10-27T13:22:36Z</time>
      </trkpt>
      <trkpt lat="43.73957" lon="6.12576">
        <ele>538.4</ele>
        <time>2022-10-27T13:22:49Z</time>
      </trkpt>
      <trkpt lat="43.73953" lon="6.12591">
        <ele>539.3</ele>
        <time>2022-10-27T13:23:01Z</time>
      </trkpt>
      <trkpt lat="43.7395" lon="6.12603">
        <ele>540</ele>
        <time>2022-10-27T13:23:13Z</time>
      </trkpt>
      <trkpt lat="43.73945" lon="6.12616">
        <ele>540.6</ele>
        <time>2022-10-27T13:23:26Z</time>
      </trkpt>
      <trkpt lat="43.7394" lon="6.12628">
        <ele>541.2</ele>
        <time>2022-10-27T13:23:38Z</time>
      </trkpt>
      <trkpt lat="43.73937" lon="6.12639">
        <ele>542.2</ele>
        <time>2022-10-27T13:23:50Z</time>
      </trkpt>
      <trkpt lat="43.73933" lon="6.12652">
        <ele>543.7</ele>
        <time>2022-10-27T13:24:04Z</time>
      </trkpt>
      <trkpt lat="43.73932" lon="6.12665">
        <ele>545.4</ele>
        <time>2022-10-27T13:24:17Z</time>
      </trkpt>
      <trkpt lat="43.73929" lon="6.12678">
        <ele>547</ele>
        <time>2022-10-27T13:24:30Z</time>
      </trkpt>
      <trkpt lat="43.73924" lon="6.1269">
        <ele>548.2</ele>
        <time>2022-10-27T13:24:44Z</time>
      </trkpt>
      <trkpt lat="43.73921" lon="6.12702">
        <ele>549.1</ele>
        <time>2022-10-27T13:24:56Z</time>
      </trkpt>
      <trkpt lat="43.73919" lon="6.12716">
        <ele>549.9</ele>
        <time>2022-10-27T13:25:08Z</time>
      </trkpt>
      <trkpt lat="43.73923" lon="6.12728">
        <ele>551.5</ele>
        <time>2022-10-27T13:25:22Z</time>
      </trkpt>
      <trkpt lat="43.73926" lon="6.12741">
        <ele>553.1</ele>
        <time>2022-10-27T13:25:38Z</time>
      </trkpt>
      <trkpt lat="43.73925" lon="6.12755">
        <ele>554.3</ele>
        <time>2022-10-27T13:25:51Z</time>
      </trkpt>
      <trkpt lat="43.73926" lon="6.12768">
        <ele>555.3</ele>
        <time>2022-10-27T13:26:03Z</time>
      </trkpt>
      <trkpt lat="43.73926" lon="6.12781">
        <ele>556.1</ele>
        <time>2022-10-27T13:26:15Z</time>
      </trkpt>
      <trkpt lat="43.7393" lon="6.12795">
        <ele>557.1</ele>
        <time>2022-10-27T13:26:28Z</time>
      </trkpt>
      <trkpt lat="43.73931" lon="6.12809">
        <ele>557.6</ele>
        <time>2022-10-27T13:26:41Z</time>
      </trkpt>
      <trkpt lat="43.73937" lon="6.12821">
        <ele>558.3</ele>
        <time>2022-10-27T13:26:54Z</time>
      </trkpt>
      <trkpt lat="43.73942" lon="6.12834">
        <ele>558.8</ele>
        <time>2022-10-27T13:27:06Z</time>
      </trkpt>
      <trkpt lat="43.73951" lon="6.12842">
        <ele>559.2</ele>
        <time>2022-10-27T13:27:20Z</time>
      </trkpt>
      <trkpt lat="43.73961" lon="6.12861">
        <ele>559</ele>
        <time>2022-10-27T13:33:35Z</time>
      </trkpt>
      <trkpt lat="43.7397" lon="6.12869">
        <ele>558.4</ele>
        <time>2022-10-27T13:33:47Z</time>
      </trkpt>
      <trkpt lat="43.7398" lon="6.12874">
        <ele>557.8</ele>
        <time>2022-10-27T13:33:56Z</time>
      </trkpt>
      <trkpt lat="43.7399" lon="6.12877">
        <ele>557.2</ele>
        <time>2022-10-27T13:34:05Z</time>
      </trkpt>
      <trkpt lat="43.74" lon="6.1288">
        <ele>556.6</ele>
        <time>2022-10-27T13:34:14Z</time>
      </trkpt>
      <trkpt lat="43.74011" lon="6.12883">
        <ele>555.7</ele>
        <time>2022-10-27T13:34:24Z</time>
      </trkpt>
      <trkpt lat="43.74021" lon="6.12884">
        <ele>555</ele>
        <time>2022-10-27T13:34:33Z</time>
      </trkpt>
      <trkpt lat="43.74033" lon="6.12886">
        <ele>553.8</ele>
        <time>2022-10-27T13:34:43Z</time>
      </trkpt>
      <trkpt lat="43.74044" lon="6.12887">
        <ele>552.5</ele>
        <time>2022-10-27T13:34:54Z</time>
      </trkpt>
      <trkpt lat="43.74054" lon="6.12887">
        <ele>551.4</ele>
        <time>2022-10-27T13:35:04Z</time>
      </trkpt>
      <trkpt lat="43.74065" lon="6.12888">
        <ele>550.4</ele>
        <time>2022-10-27T13:35:14Z</time>
      </trkpt>
      <trkpt lat="43.74077" lon="6.12892">
        <ele>549.1</ele>
        <time>2022-10-27T13:35:23Z</time>
      </trkpt>
      <trkpt lat="43.74088" lon="6.12894">
        <ele>548.3</ele>
        <time>2022-10-27T13:35:31Z</time>
      </trkpt>
      <trkpt lat="43.74097" lon="6.12896">
        <ele>547.7</ele>
        <time>2022-10-27T13:35:40Z</time>
      </trkpt>
      <trkpt lat="43.74107" lon="6.12899">
        <ele>547.1</ele>
        <time>2022-10-27T13:35:48Z</time>
      </trkpt>
      <trkpt lat="43.74116" lon="6.12902">
        <ele>546.5</ele>
        <time>2022-10-27T13:35:57Z</time>
      </trkpt>
      <trkpt lat="43.74127" lon="6.12907">
        <ele>545.8</ele>
        <time>2022-10-27T13:36:06Z</time>
      </trkpt>
      <trkpt lat="43.74137" lon="6.12916">
        <ele>545</ele>
        <time>2022-10-27T13:36:15Z</time>
      </trkpt>
      <trkpt lat="43.74143" lon="6.12926">
        <ele>544.4</ele>
        <time>2022-10-27T13:36:24Z</time>
      </trkpt>
      <trkpt lat="43.74144" lon="6.12933">
        <ele>543.9</ele>
        <time>2022-10-27T13:36:27.853Z</time>
      </trkpt>
      <trkpt lat="43.7415" lon="6.12937">
        <ele>543.8</ele>
        <time>2022-10-27T13:36:33Z</time>
      </trkpt>
      <trkpt lat="43.74153" lon="6.1295">
        <ele>543.5</ele>
        <time>2022-10-27T13:36:41Z</time>
      </trkpt>
      <trkpt lat="43.7415" lon="6.12958">
        <ele>543.4</ele>
        <time>2022-10-27T13:36:49Z</time>
      </trkpt>
      <trkpt lat="43.7414" lon="6.12961">
        <ele>543</ele>
        <time>2022-10-27T13:36:58Z</time>
      </trkpt>
      <trkpt lat="43.7413" lon="6.12965">
        <ele>542.4</ele>
        <time>2022-10-27T13:37:06Z</time>
      </trkpt>
      <trkpt lat="43.74121" lon="6.1297">
        <ele>541.8</ele>
        <time>2022-10-27T13:37:14Z</time>
      </trkpt>
      <trkpt lat="43.7411" lon="6.12972">
        <ele>541</ele>
        <time>2022-10-27T13:37:22Z</time>
      </trkpt>
      <trkpt lat="43.74101" lon="6.12976">
        <ele>540.7</ele>
        <time>2022-10-27T13:37:31Z</time>
      </trkpt>
      <trkpt lat="43.74092" lon="6.12985">
        <ele>540.5</ele>
        <time>2022-10-27T13:37:41Z</time>
      </trkpt>
      <trkpt lat="43.74083" lon="6.12994">
        <ele>540</ele>
        <time>2022-10-27T13:37:51Z</time>
      </trkpt>
      <trkpt lat="43.74072" lon="6.13">
        <ele>538.8</ele>
        <time>2022-10-27T13:38:00Z</time>
      </trkpt>
      <trkpt lat="43.74061" lon="6.13004">
        <ele>537.6</ele>
        <time>2022-10-27T13:38:09Z</time>
      </trkpt>
      <trkpt lat="43.74052" lon="6.13009">
        <ele>536.6</ele>
        <time>2022-10-27T13:38:18Z</time>
      </trkpt>
      <trkpt lat="43.74043" lon="6.13015">
        <ele>535.4</ele>
        <time>2022-10-27T13:38:27Z</time>
      </trkpt>
      <trkpt lat="43.74034" lon="6.1302">
        <ele>533.8</ele>
        <time>2022-10-27T13:38:35Z</time>
      </trkpt>
      <trkpt lat="43.74024" lon="6.13025">
        <ele>531.9</ele>
        <time>2022-10-27T13:38:44Z</time>
      </trkpt>
      <trkpt lat="43.74015" lon="6.13028">
        <ele>530.6</ele>
        <time>2022-10-27T13:38:53Z</time>
      </trkpt>
      <trkpt lat="43.74006" lon="6.13033">
        <ele>530</ele>
        <time>2022-10-27T13:39:01Z</time>
      </trkpt>
      <trkpt lat="43.74001" lon="6.13036">
        <ele>529.4</ele>
        <time>2022-10-27T13:39:07.177Z</time>
      </trkpt>
      <trkpt lat="43.73996" lon="6.13037">
        <ele>528.8</ele>
        <time>2022-10-27T13:39:13Z</time>
      </trkpt>
      <trkpt lat="43.73987" lon="6.1304">
        <ele>527.6</ele>
        <time>2022-10-27T13:39:37Z</time>
      </trkpt>
      <trkpt lat="43.73977" lon="6.13044">
        <ele>526.1</ele>
        <time>2022-10-27T13:39:48Z</time>
      </trkpt>
      <trkpt lat="43.73968" lon="6.13049">
        <ele>524.7</ele>
        <time>2022-10-27T13:39:58Z</time>
      </trkpt>
      <trkpt lat="43.73958" lon="6.13052">
        <ele>523.3</ele>
        <time>2022-10-27T13:40:07Z</time>
      </trkpt>
      <trkpt lat="43.73947" lon="6.13057">
        <ele>521.6</ele>
        <time>2022-10-27T13:40:19Z</time>
      </trkpt>
      <trkpt lat="43.73937" lon="6.13058">
        <ele>519.9</ele>
        <time>2022-10-27T13:40:29Z</time>
      </trkpt>
      <trkpt lat="43.73927" lon="6.1306">
        <ele>518.1</ele>
        <time>2022-10-27T13:40:38Z</time>
      </trkpt>
      <trkpt lat="43.73915" lon="6.13058">
        <ele>515.3</ele>
        <time>2022-10-27T13:40:47Z</time>
      </trkpt>
      <trkpt lat="43.73906" lon="6.13057">
        <ele>513.7</ele>
        <time>2022-10-27T13:40:56Z</time>
      </trkpt>
      <trkpt lat="43.73898" lon="6.13062">
        <ele>513.2</ele>
        <time>2022-10-27T13:41:08Z</time>
      </trkpt>
      <trkpt lat="43.73891" lon="6.1307">
        <ele>513</ele>
        <time>2022-10-27T13:41:19Z</time>
      </trkpt>
      <trkpt lat="43.73885" lon="6.13074">
        <ele>512.6</ele>
        <time>2022-10-27T13:41:31Z</time>
      </trkpt>
      <trkpt lat="43.73885" lon="6.13079">
        <ele>513.1</ele>
        <time>2022-10-27T13:41:53Z</time>
      </trkpt>
      <trkpt lat="43.7388" lon="6.13089">
        <ele>514.3</ele>
        <time>2022-10-27T13:42:22Z</time>
      </trkpt>
      <trkpt lat="43.73876" lon="6.13098">
        <ele>515.9</ele>
        <time>2022-10-27T13:42:42Z</time>
      </trkpt>
      <trkpt lat="43.73871" lon="6.13113">
        <ele>518.4</ele>
        <time>2022-10-27T13:43:03Z</time>
      </trkpt>
      <trkpt lat="43.73869" lon="6.13127">
        <ele>521.7</ele>
        <time>2022-10-27T13:43:15Z</time>
      </trkpt>
      <trkpt lat="43.73866" lon="6.1314">
        <ele>524.5</ele>
        <time>2022-10-27T13:43:29Z</time>
      </trkpt>
      <trkpt lat="43.73862" lon="6.13151">
        <ele>526.3</ele>
        <time>2022-10-27T13:43:42Z</time>
      </trkpt>
      <trkpt lat="43.73858" lon="6.1316">
        <ele>527.6</ele>
        <time>2022-10-27T13:44:02Z</time>
      </trkpt>
      <trkpt lat="43.73852" lon="6.13171">
        <ele>529.2</ele>
        <time>2022-10-27T13:44:14Z</time>
      </trkpt>
      <trkpt lat="43.73844" lon="6.1318">
        <ele>529.6</ele>
        <time>2022-10-27T13:44:27Z</time>
      </trkpt>
      <trkpt lat="43.73836" lon="6.1319">
        <ele>529.8</ele>
        <time>2022-10-27T13:44:39Z</time>
      </trkpt>
      <trkpt lat="43.73827" lon="6.13202">
        <ele>529.5</ele>
        <time>2022-10-27T13:44:51Z</time>
      </trkpt>
      <trkpt lat="43.73825" lon="6.13217">
        <ele>531.7</ele>
        <time>2022-10-27T13:45:03Z</time>
      </trkpt>
      <trkpt lat="43.73824" lon="6.13231">
        <ele>533.4</ele>
        <time>2022-10-27T13:45:15Z</time>
      </trkpt>
      <trkpt lat="43.73824" lon="6.13242">
        <ele>534.7</ele>
        <time>2022-10-27T13:45:28Z</time>
      </trkpt>
      <trkpt lat="43.73825" lon="6.13249">
        <ele>535.9</ele>
        <time>2022-10-27T13:45:34.850Z</time>
      </trkpt>
      <trkpt lat="43.73825" lon="6.13257">
        <ele>536.3</ele>
        <time>2022-10-27T13:45:42Z</time>
      </trkpt>
      <trkpt lat="43.73824" lon="6.13269">
        <ele>536.3</ele>
        <time>2022-10-27T13:45:56Z</time>
      </trkpt>
      <trkpt lat="43.73825" lon="6.13276">
        <ele>537</ele>
        <time>2022-10-27T13:46:28Z</time>
      </trkpt>
      <trkpt lat="43.73826" lon="6.13279">
        <ele>537.6</ele>
        <time>2022-10-27T13:47:46Z</time>
      </trkpt>
      <trkpt lat="43.73823" lon="6.13282">
        <ele>536.3</ele>
        <time>2022-10-27T13:49:06Z</time>
      </trkpt>
      <trkpt lat="43.73826" lon="6.1328">
        <ele>537.7</ele>
        <time>2022-10-27T13:50:26Z</time>
      </trkpt>
      <trkpt lat="43.73832" lon="6.13287">
        <ele>541</ele>
        <time>2022-10-27T13:51:00Z</time>
      </trkpt>
      <trkpt lat="43.73834" lon="6.13295">
        <ele>542.6</ele>
        <time>2022-10-27T13:51:16Z</time>
      </trkpt>
      <trkpt lat="43.73832" lon="6.13307">
        <ele>542.3</ele>
        <time>2022-10-27T13:51:28Z</time>
      </trkpt>
      <trkpt lat="43.73832" lon="6.13318">
        <ele>543.1</ele>
        <time>2022-10-27T13:51:49Z</time>
      </trkpt>
      <trkpt lat="43.73832" lon="6.13332">
        <ele>544</ele>
        <time>2022-10-27T13:52:03Z</time>
      </trkpt>
      <trkpt lat="43.73834" lon="6.13345">
        <ele>546.2</ele>
        <time>2022-10-27T13:52:20Z</time>
      </trkpt>
      <trkpt lat="43.73833" lon="6.1336">
        <ele>546.7</ele>
        <time>2022-10-27T13:52:34Z</time>
      </trkpt>
      <trkpt lat="43.7383" lon="6.13375">
        <ele>546.7</ele>
        <time>2022-10-27T13:52:46Z</time>
      </trkpt>
      <trkpt lat="43.73827" lon="6.1339">
        <ele>547.1</ele>
        <time>2022-10-27T13:52:59Z</time>
      </trkpt>
      <trkpt lat="43.73825" lon="6.13403">
        <ele>547.3</ele>
        <time>2022-10-27T13:53:11Z</time>
      </trkpt>
      <trkpt lat="43.73826" lon="6.13417">
        <ele>548.8</ele>
        <time>2022-10-27T13:53:24Z</time>
      </trkpt>
      <trkpt lat="43.73828" lon="6.13431">
        <ele>550.3</ele>
        <time>2022-10-27T13:53:36Z</time>
      </trkpt>
      <trkpt lat="43.73827" lon="6.13445">
        <ele>550.5</ele>
        <time>2022-10-27T13:53:48Z</time>
      </trkpt>
      <trkpt lat="43.73825" lon="6.13459">
        <ele>549.3</ele>
        <time>2022-10-27T13:54:02Z</time>
      </trkpt>
      <trkpt lat="43.73827" lon="6.13473">
        <ele>549.7</ele>
        <time>2022-10-27T13:54:15Z</time>
      </trkpt>
      <trkpt lat="43.73831" lon="6.13485">
        <ele>550.7</ele>
        <time>2022-10-27T13:54:35Z</time>
      </trkpt>
      <trkpt lat="43.73835" lon="6.13497">
        <ele>551.8</ele>
        <time>2022-10-27T13:54:46Z</time>
      </trkpt>
      <trkpt lat="43.73838" lon="6.13509">
        <ele>552</ele>
        <time>2022-10-27T13:55:02Z</time>
      </trkpt>
      <trkpt lat="43.73837" lon="6.13517">
        <ele>550.7</ele>
        <time>2022-10-27T13:55:46Z</time>
      </trkpt>
      <trkpt lat="43.73842" lon="6.13528">
        <ele>551.4</ele>
        <time>2022-10-27T13:56:06Z</time>
      </trkpt>
      <trkpt lat="43.73846" lon="6.1354">
        <ele>551.1</ele>
        <time>2022-10-27T13:56:20Z</time>
      </trkpt>
      <trkpt lat="43.73848" lon="6.13553">
        <ele>549.7</ele>
        <time>2022-10-27T13:56:34Z</time>
      </trkpt>
      <trkpt lat="43.73851" lon="6.13564">
        <ele>549.3</ele>
        <time>2022-10-27T13:56:47Z</time>
      </trkpt>
      <trkpt lat="43.73859" lon="6.13575">
        <ele>550.5</ele>
        <time>2022-10-27T13:57:01Z</time>
      </trkpt>
      <trkpt lat="43.73865" lon="6.13585">
        <ele>550.8</ele>
        <time>2022-10-27T13:57:14Z</time>
      </trkpt>
      <trkpt lat="43.73865" lon="6.13597">
        <ele>548.7</ele>
        <time>2022-10-27T13:57:30Z</time>
      </trkpt>
      <trkpt lat="43.73868" lon="6.13604">
        <ele>548.3</ele>
        <time>2022-10-27T13:57:59Z</time>
      </trkpt>
      <trkpt lat="43.73863" lon="6.13614">
        <ele>545</ele>
        <time>2022-10-27T13:58:19Z</time>
      </trkpt>
      <trkpt lat="43.73859" lon="6.13627">
        <ele>541.5</ele>
        <time>2022-10-27T13:58:32Z</time>
      </trkpt>
      <trkpt lat="43.73864" lon="6.13637">
        <ele>541.2</ele>
        <time>2022-10-27T13:58:43Z</time>
      </trkpt>
      <trkpt lat="43.73864" lon="6.13642">
        <ele>540.4</ele>
        <time>2022-10-27T13:59:13Z</time>
      </trkpt>
      <trkpt lat="43.73856" lon="6.13647">
        <ele>537.3</ele>
        <time>2022-10-27T13:59:33Z</time>
      </trkpt>
      <trkpt lat="43.73847" lon="6.1365">
        <ele>534.1</ele>
        <time>2022-10-27T13:59:52Z</time>
      </trkpt>
      <trkpt lat="43.7384" lon="6.13661">
        <ele>530.1</ele>
        <time>2022-10-27T14:00:11Z</time>
      </trkpt>
      <trkpt lat="43.73832" lon="6.13664">
        <ele>527</ele>
        <time>2022-10-27T14:00:32Z</time>
      </trkpt>
      <trkpt lat="43.7383" lon="6.13673">
        <ele>525.2</ele>
        <time>2022-10-27T14:00:49Z</time>
      </trkpt>
      <trkpt lat="43.73831" lon="6.13684">
        <ele>524.3</ele>
        <time>2022-10-27T14:01:00Z</time>
      </trkpt>
      <trkpt lat="43.73826" lon="6.13697">
        <ele>521.1</ele>
        <time>2022-10-27T14:01:14Z</time>
      </trkpt>
      <trkpt lat="43.73825" lon="6.1371">
        <ele>519.5</ele>
        <time>2022-10-27T14:01:24Z</time>
      </trkpt>
      <trkpt lat="43.73827" lon="6.13722">
        <ele>519</ele>
        <time>2022-10-27T14:01:35Z</time>
      </trkpt>
      <trkpt lat="43.73832" lon="6.13734">
        <ele>518.5</ele>
        <time>2022-10-27T14:01:47Z</time>
      </trkpt>
      <trkpt lat="43.73839" lon="6.13743">
        <ele>518.8</ele>
        <time>2022-10-27T14:01:58Z</time>
      </trkpt>
      <trkpt lat="43.7385" lon="6.13748">
        <ele>521.1</ele>
        <time>2022-10-27T14:02:10Z</time>
      </trkpt>
      <trkpt lat="43.7386" lon="6.13756">
        <ele>523</ele>
        <time>2022-10-27T14:02:21Z</time>
      </trkpt>
      <trkpt lat="43.73863" lon="6.13768">
        <ele>522.8</ele>
        <time>2022-10-27T14:02:35Z</time>
      </trkpt>
      <trkpt lat="43.73861" lon="6.13783">
        <ele>520.8</ele>
        <time>2022-10-27T14:02:50Z</time>
      </trkpt>
      <trkpt lat="43.73853" lon="6.13787">
        <ele>517.3</ele>
        <time>2022-10-27T14:03:27Z</time>
      </trkpt>
      <trkpt lat="43.73849" lon="6.1379">
        <ele>515.4</ele>
        <time>2022-10-27T14:03:50Z</time>
      </trkpt>
      <trkpt lat="43.73846" lon="6.13797">
        <ele>513.6</ele>
        <time>2022-10-27T14:04:20Z</time>
      </trkpt>
      <trkpt lat="43.73845" lon="6.1381">
        <ele>512.2</ele>
        <time>2022-10-27T14:04:37Z</time>
      </trkpt>
      <trkpt lat="43.73849" lon="6.13817">
        <ele>513.5</ele>
        <time>2022-10-27T14:05:14Z</time>
      </trkpt>
      <trkpt lat="43.73847" lon="6.13829">
        <ele>511.7</ele>
        <time>2022-10-27T14:05:56Z</time>
      </trkpt>
      <trkpt lat="43.73851" lon="6.13843">
        <ele>511.4</ele>
        <time>2022-10-27T14:06:10Z</time>
      </trkpt>
      <trkpt lat="43.73855" lon="6.13853">
        <ele>511.2</ele>
        <time>2022-10-27T14:06:28Z</time>
      </trkpt>
      <trkpt lat="43.73863" lon="6.13847">
        <ele>515.3</ele>
        <time>2022-10-27T14:06:55Z</time>
      </trkpt>
      <trkpt lat="43.73867" lon="6.13855">
        <ele>515.4</ele>
        <time>2022-10-27T14:07:19Z</time>
      </trkpt>
      <trkpt lat="43.73871" lon="6.13868">
        <ele>514.5</ele>
        <time>2022-10-27T14:07:41Z</time>
      </trkpt>
      <trkpt lat="43.73873" lon="6.13877">
        <ele>513.5</ele>
        <time>2022-10-27T14:08:06Z</time>
      </trkpt>
      <trkpt lat="43.73879" lon="6.13888">
        <ele>513.9</ele>
        <time>2022-10-27T14:08:19Z</time>
      </trkpt>
      <trkpt lat="43.73882" lon="6.139">
        <ele>512.5</ele>
        <time>2022-10-27T14:08:46Z</time>
      </trkpt>
      <trkpt lat="43.73889" lon="6.13908">
        <ele>513.2</ele>
        <time>2022-10-27T14:09:04Z</time>
      </trkpt>
      <trkpt lat="43.73894" lon="6.1392">
        <ele>512.8</ele>
        <time>2022-10-27T14:09:18Z</time>
      </trkpt>
      <trkpt lat="43.73897" lon="6.13932">
        <ele>511.9</ele>
        <time>2022-10-27T14:09:41Z</time>
      </trkpt>
      <trkpt lat="43.73902" lon="6.13945">
        <ele>511.6</ele>
        <time>2022-10-27T14:09:54Z</time>
      </trkpt>
      <trkpt lat="43.73906" lon="6.13957">
        <ele>511</ele>
        <time>2022-10-27T14:10:08Z</time>
      </trkpt>
      <trkpt lat="43.73911" lon="6.13969">
        <ele>510.6</ele>
        <time>2022-10-27T14:10:20Z</time>
      </trkpt>
      <trkpt lat="43.73911" lon="6.13979">
        <ele>508.5</ele>
        <time>2022-10-27T14:10:34Z</time>
      </trkpt>
      <trkpt lat="43.73914" lon="6.13988">
        <ele>507.6</ele>
        <time>2022-10-27T14:11:01Z</time>
      </trkpt>
      <trkpt lat="43.7391" lon="6.13995">
        <ele>504.7</ele>
        <time>2022-10-27T14:11:35Z</time>
      </trkpt>
      <trkpt lat="43.73902" lon="6.13986">
        <ele>503.7</ele>
        <time>2022-10-27T14:11:47Z</time>
      </trkpt>
      <trkpt lat="43.73897" lon="6.13975">
        <ele>504.3</ele>
        <time>2022-10-27T14:11:57Z</time>
      </trkpt>
      <trkpt lat="43.73889" lon="6.1397">
        <ele>502.4</ele>
        <time>2022-10-27T14:12:06Z</time>
      </trkpt>
      <trkpt lat="43.73884" lon="6.13959">
        <ele>501.7</ele>
        <time>2022-10-27T14:12:21Z</time>
      </trkpt>
      <trkpt lat="43.73883" lon="6.13954">
        <ele>502.1</ele>
        <time>2022-10-27T14:12:44Z</time>
      </trkpt>
    </trkseg>
  </trk>
</gpx>